Provisional Data: Loyalsock Creek near Ringdale, PA


Please select a monitoring station.
Please select start date.
Please select start date.

Toggle Unit: C/F Toggle Unit: C/F
Sample Time Temperature (C) Temperature (F) Specific Conductivity (mS/cm) pH   Turbidity (NTU+) DO (mg/L)
9/6/2021 12:00:00 AM 16.32 61.376 0.023 6.37 3.43 8.82
9/6/2021 12:15:00 AM 16.32 61.376 0.023 6.38 3.45 8.82
9/6/2021 12:30:00 AM 16.32 61.376 0.023 6.38 3.41 8.83
9/6/2021 12:45:00 AM 16.32 61.376 0.023 6.37 3.3 8.81
9/6/2021 1:00:00 AM 16.32 61.376 0.023 6.38 3.43 8.82
9/6/2021 1:15:00 AM 16.32 61.376 0.023 6.38 3.32 8.82
9/6/2021 1:30:00 AM 16.31 61.358 0.023 6.39 3.5 8.82
9/6/2021 1:45:00 AM 16.3 61.34 0.023 6.39 3.32 8.83
9/6/2021 2:00:00 AM 16.28 61.304 0.023 6.38 3.44 8.82
9/6/2021 2:15:00 AM 16.26 61.268 0.023 6.39 3.3 8.83
9/6/2021 2:30:00 AM 16.24 61.232 0.023 6.39 3.34 8.83
9/6/2021 2:45:00 AM 16.23 61.214 0.023 6.39 3.23 8.83
9/6/2021 3:00:00 AM 16.22 61.196 0.023 6.39 3.23 8.84
9/6/2021 3:15:00 AM 16.2 61.16 0.023 6.4 3.16 8.84
9/6/2021 3:30:00 AM 16.19 61.142 0.023 6.42 3.16 8.85
9/6/2021 3:45:00 AM 16.16 61.088 0.023 6.42 3.22 8.85
9/6/2021 4:00:00 AM 16.13 61.034 0.023 6.42 3.29 8.85
9/6/2021 4:15:00 AM 16.08 60.944 0.023 6.42 3.26 8.86
9/6/2021 4:30:00 AM 16.05 60.89 0.023 6.42 3.24 8.86
9/6/2021 4:45:00 AM 16.03 60.854 0.023 6.43 3.27 8.88
9/6/2021 5:00:00 AM 16 60.8 0.023 6.42 3.32 8.88
9/6/2021 5:15:00 AM 15.97 60.746 0.023 6.43 3.31 8.89
9/6/2021 5:30:00 AM 15.94 60.692 0.023 6.44 3.27 8.9
9/6/2021 5:45:00 AM 15.9 60.62 0.023 6.42 4.58 8.89
9/6/2021 6:00:00 AM 15.86 60.548 0.023 6.43 3.38 8.9
9/6/2021 6:15:00 AM 15.81 60.458 0.023 6.43 3.43 8.91
9/6/2021 6:30:00 AM 15.76 60.368 0.023 6.43 3.27 8.92
9/6/2021 6:45:00 AM 15.72 60.296 0.023 6.44 3.47 8.95
9/6/2021 7:00:00 AM 15.68 60.224 0.023 6.44 3.29 8.95
9/6/2021 7:15:00 AM 15.64 60.152 0.023 6.44 3.32 8.97
9/6/2021 7:30:00 AM 15.6 60.08 0.023 6.44 3.36 9.01
9/6/2021 7:45:00 AM 15.58 60.044 0.023 6.44 3.23 9.03
9/6/2021 8:00:00 AM 15.53 59.954 0.023 6.45 3.31 9.06
9/6/2021 8:15:00 AM 15.5 59.9 0.023 6.46 3.27 9.09
9/6/2021 8:30:00 AM 15.48 59.864 0.023 6.45 3.23 9.11
9/6/2021 8:45:00 AM 15.49 59.882 0.023 6.47 3.32 9.14
9/6/2021 9:00:00 AM 15.5 59.9 0.023 6.48 3.25 9.16
9/6/2021 9:15:00 AM 15.54 59.972 0.023 6.48 3.22 9.17
9/6/2021 9:30:00 AM 15.59 60.062 0.023 6.5 3.21 9.18
9/6/2021 9:45:00 AM 15.66 60.188 0.023 6.48 3.21 9.18
9/6/2021 10:00:00 AM 15.77 60.386 0.023 6.52 3.2 9.21
9/6/2021 10:15:00 AM 15.89 60.602 0.023 6.51 3.27 9.21
9/6/2021 10:30:00 AM 16.03 60.854 0.023 6.52 3.27 9.22
9/6/2021 10:45:00 AM 16.12 61.016 0.023 6.51 3.15 9.2
9/6/2021 11:00:00 AM 16.23 61.214 0.023 6.52 3.3 9.19
9/6/2021 11:15:00 AM 16.38 61.484 0.023 6.52 3.16 9.16
9/6/2021 11:30:00 AM 16.55 61.79 0.023 6.54 3.15 9.16
9/6/2021 11:45:00 AM 16.74 62.132 0.023 6.56 3.18 9.15
9/6/2021 12:00:00 PM 16.92 62.456 0.023 6.56 3.12 9.12
9/6/2021 12:15:00 PM 17.07 62.726 0.023 6.56 3.09 9.09
9/6/2021 12:30:00 PM 17.23 63.014 0.023 6.55 3.11 9.07
9/6/2021 12:45:00 PM 17.41 63.338 0.023 6.55 3.24 9.04
9/6/2021 1:00:00 PM 17.57 63.626 0.023 6.56 3.08 9.02
9/6/2021 1:15:00 PM 17.7 63.86 0.023 6.56 3.11 9
9/6/2021 1:30:00 PM 17.82 64.076 0.023 6.58 3.13 8.97
9/6/2021 1:45:00 PM 17.94 64.292 0.023 6.57 3.1 8.96
9/6/2021 2:00:00 PM 18.1 64.58 0.023 6.59 3.08 8.94
9/6/2021 2:15:00 PM 18.22 64.796 0.023 6.58 3.16 8.92
9/6/2021 2:30:00 PM 18.28 64.904 0.023 6.58 3.26 8.9
9/6/2021 2:45:00 PM 18.27 64.886 0.023 6.59 3.14 8.87
9/6/2021 3:00:00 PM 18.22 64.796 0.023 6.59 3.12 8.86
9/6/2021 3:15:00 PM 18.17 64.706 0.023 6.61 3.2 8.86
9/6/2021 3:30:00 PM 18.13 64.634 0.023 6.58 3.1 8.86
9/6/2021 3:45:00 PM 18.15 64.67 0.023 6.57 3.21 8.85
9/6/2021 4:00:00 PM 18.2 64.76 0.023 6.6 3.24 8.85
9/6/2021 4:15:00 PM 18.25 64.85 0.023 6.59 3.22 8.84
9/6/2021 4:30:00 PM 18.25 64.85 0.023 6.57 3.09 8.82
9/6/2021 4:45:00 PM 18.17 64.706 0.023 6.58 3.2 8.82
9/6/2021 5:00:00 PM 18.11 64.598 0.023 6.57 3.08 8.82
9/6/2021 5:15:00 PM 18.06 64.508 0.023 6.58 3.2 8.81
9/6/2021 5:30:00 PM 18.02 64.436 0.023 6.57 3.22 8.81
9/6/2021 5:45:00 PM 17.96 64.328 0.023 6.58 3.33 8.8
9/6/2021 6:00:00 PM 17.87 64.166 0.023 6.58 3.11 8.8
9/6/2021 6:15:00 PM 17.76 63.968 0.023 6.59 3.1 8.79
9/6/2021 6:30:00 PM 17.66 63.788 0.023 6.57 3.12 8.79
9/6/2021 6:45:00 PM 17.56 63.608 0.023 6.56 3.14 8.77
9/6/2021 7:00:00 PM 17.46 63.428 0.023 6.54 3.13 8.75
9/6/2021 7:15:00 PM 17.36 63.248 0.024 6.53 3.14 8.73
9/6/2021 7:30:00 PM 17.26 63.068 0.024 6.52 3.11 8.72
9/6/2021 7:45:00 PM 17.16 62.888 0.025 6.52 3.17 8.71
9/6/2021 8:00:00 PM 17.07 62.726 0.026 6.51 3.21 8.7
9/6/2021 8:15:00 PM 16.99 62.582 0.025 6.51 3.24 8.7
9/6/2021 8:30:00 PM 16.91 62.438 0.025 6.51 3.22 8.71
9/6/2021 8:45:00 PM 16.83 62.294 0.025 6.51 3.22 8.71
9/6/2021 9:00:00 PM 16.75 62.15 0.025 6.5 3.27 8.72
9/6/2021 9:15:00 PM 16.68 62.024 0.025 6.5 3.34 8.73
9/6/2021 9:30:00 PM 16.61 61.898 0.024 6.48 3.27 8.73
9/6/2021 9:45:00 PM 16.54 61.772 0.024 6.49 3.22 8.76
9/6/2021 10:00:00 PM 16.46 61.628 0.024 6.48 3.29 8.77
9/6/2021 10:15:00 PM 16.39 61.502 0.024 6.49 3.21 8.78
9/6/2021 10:30:00 PM 16.32 61.376 0.024 6.49 3.27 8.8
9/6/2021 10:45:00 PM 16.25 61.25 0.024 6.49 3.39 8.81
9/6/2021 11:00:00 PM 16.17 61.106 0.024 6.49 3.29 8.83
9/6/2021 11:15:00 PM 16.1 60.98 0.024 6.48 3.21 8.83
9/6/2021 11:30:00 PM 16.03 60.854 0.024 6.49 3.36 8.86
9/6/2021 11:45:00 PM 15.95 60.71 0.024 6.48 3.22 8.87
9/7/2021 12:00:00 AM 15.88 60.584 0.024 6.48 3.25 8.88
9/7/2021 12:15:00 AM 15.81 60.458 0.024 6.48 3.25 8.9
9/7/2021 12:30:00 AM 15.74 60.332 0.024 6.47 3.26 8.91
9/7/2021 12:45:00 AM 15.67 60.206 0.024 6.49 3.21 8.92
9/7/2021 1:00:00 AM 15.6 60.08 0.024 6.48 3.33 8.94
9/7/2021 1:15:00 AM 15.53 59.954 0.024 6.47 3.37 8.95
9/7/2021 1:30:00 AM 15.46 59.828 0.024 6.48 3.2 8.97
9/7/2021 1:45:00 AM 15.39 59.702 0.024 6.48 3.38 8.98
9/7/2021 2:00:00 AM 15.32 59.576 0.024 6.47 3.22 8.99
9/7/2021 2:15:00 AM 15.26 59.468 0.024 6.48 3.33 9.01
9/7/2021 2:30:00 AM 15.19 59.342 0.024 6.48 3.41 9.03
9/7/2021 2:45:00 AM 15.12 59.216 0.024 6.48 3.33 9.04
9/7/2021 3:00:00 AM 15.04 59.072 0.025 6.46 3.33 9.05
9/7/2021 3:15:00 AM 14.97 58.946 0.024 6.47 3.97 9.07
9/7/2021 3:30:00 AM 14.9 58.82 0.024 6.47 3.25 9.08
9/7/2021 3:45:00 AM 14.83 58.694 0.024 6.47 3.28 9.09
9/7/2021 4:00:00 AM 14.75 58.55 0.024 6.47 3.27 9.11
9/7/2021 4:15:00 AM 14.68 58.424 0.025 6.47 3.39 9.12
9/7/2021 4:30:00 AM 14.61 58.298 0.024 6.48 3.39 9.15
9/7/2021 4:45:00 AM 14.54 58.172 0.025 6.47 3.35 9.16
9/7/2021 5:00:00 AM 14.47 58.046 0.024 6.47 3.32 9.18
9/7/2021 5:15:00 AM 14.39 57.902 0.024 6.48 3.3 9.2
9/7/2021 5:30:00 AM 14.32 57.776 0.024 6.48 3.27 9.21
9/7/2021 5:45:00 AM 14.25 57.65 0.024 6.48 3.45 9.23
9/7/2021 6:00:00 AM 14.18 57.524 0.024 6.47 3.36 9.24
9/7/2021 6:15:00 AM 14.12 57.416 0.024 6.49 3.12 9.26
9/7/2021 6:30:00 AM 14.05 57.29 0.024 6.46 3.39 9.27
9/7/2021 6:45:00 AM 13.98 57.164 0.024 6.48 3.47 9.29
9/7/2021 7:00:00 AM 13.92 57.056 0.024 6.48 3.44 9.32
9/7/2021 7:15:00 AM 13.86 56.948 0.024 6.48 3.42 9.34
9/7/2021 7:30:00 AM 13.8 56.84 0.024 6.48 3.41 9.37
9/7/2021 7:45:00 AM 13.76 56.768 0.024 6.49 3.49 9.4
9/7/2021 8:00:00 AM 13.72 56.696 0.025 6.48 3.29 9.44
9/7/2021 8:15:00 AM 13.69 56.642 0.024 6.49 3.35 9.46
9/7/2021 8:30:00 AM 13.69 56.642 0.024 6.51 3.37 9.5
9/7/2021 8:45:00 AM 13.71 56.678 0.024 6.51 3.29 9.53
9/7/2021 9:00:00 AM 13.75 56.75 0.024 6.52 3.32 9.55
9/7/2021 9:15:00 AM 13.81 56.858 0.024 6.52 3.32 9.56
9/7/2021 9:30:00 AM 13.9 57.02 0.024 6.53 3.2 9.58
9/7/2021 9:45:00 AM 14 57.2 0.025 6.53 3.42 9.57
9/7/2021 10:00:00 AM 14.13 57.434 0.024 6.55 3.17 9.58
9/7/2021 10:15:00 AM 14.28 57.704 0.024 6.55 3.22 9.58
9/7/2021 10:30:00 AM 14.45 58.01 0.024 6.56 3.26 9.57
9/7/2021 10:45:00 AM 14.63 58.334 0.025 6.57 3.24 9.56
9/7/2021 11:00:00 AM 14.81 58.658 0.024 6.57 3.33 9.54
9/7/2021 11:15:00 AM 14.99 58.982 0.024 6.59 3.24 9.53
9/7/2021 11:30:00 AM 15.18 59.324 0.025 6.59 3.2 9.51
9/7/2021 11:45:00 AM 15.36 59.648 0.024 6.59 3.15 9.49
9/7/2021 12:00:00 PM 15.55 59.99 0.024 6.61 3.38 9.47
9/7/2021 12:15:00 PM 15.76 60.368 0.024 6.62 3.27 9.44
9/7/2021 12:30:00 PM 16 60.8 0.024 6.61 3.1 9.4
9/7/2021 12:45:00 PM 16.24 61.232 0.024 6.59 3.19 9.36
9/7/2021 1:00:00 PM 16.45 61.61 0.024 6.6 3.15 9.31
9/7/2021 1:15:00 PM 16.7 62.06 0.024 6.62 5.09 9.29
9/7/2021 1:30:00 PM 16.86 62.348 0.024 6.61 3.19 9.24
9/7/2021 1:45:00 PM 17.07 62.726 0.024 6.63 3.13 9.21
9/7/2021 2:00:00 PM 17.28 63.104 0.024 6.64 3.09 9.17
9/7/2021 2:15:00 PM 17.45 63.41 0.025 6.63 3.11 9.13
9/7/2021 2:30:00 PM 17.63 63.734 0.024 6.64 3.05 9.09
9/7/2021 2:45:00 PM 17.79 64.022 0.024 6.65 3.11 9.07
9/7/2021 3:00:00 PM 17.92 64.256 0.024 6.62 3.1 9.01
9/7/2021 3:15:00 PM 18.03 64.454 0.025 6.61 3.08 8.98
9/7/2021 3:30:00 PM 18.13 64.634 0.025 6.61 3.15 8.96
9/7/2021 3:45:00 PM 18.2 64.76 0.024 6.64 3.2 8.94
9/7/2021 4:00:00 PM 18.23 64.814 0.025 6.62 3.28 8.92
9/7/2021 4:15:00 PM 18.25 64.85 0.024 6.63 3.14 8.91
9/7/2021 4:30:00 PM 18.26 64.868 0.024 6.62 3.14 8.89
9/7/2021 4:45:00 PM 18.23 64.814 0.025 6.63 3.17 8.88
9/7/2021 5:00:00 PM 18.19 64.742 0.024 6.66 3.08 8.89
9/7/2021 5:15:00 PM 18.13 64.634 0.024 6.64 3.17 8.86
9/7/2021 5:30:00 PM 18.02 64.436 0.025 6.62 3.07 8.86
9/7/2021 5:45:00 PM 17.92 64.256 0.024 6.63 3.24 8.86
9/7/2021 6:00:00 PM 17.82 64.076 0.025 6.63 3.1 8.86
9/7/2021 6:15:00 PM 17.71 63.878 0.025 6.62 3.14 8.85
9/7/2021 6:30:00 PM 17.6 63.68 0.025 6.61 3.11 8.85
9/7/2021 6:45:00 PM 17.48 63.464 0.025 6.61 3.01 8.84
9/7/2021 7:00:00 PM 17.35 63.23 0.026 6.6 3.2 8.82
9/7/2021 7:15:00 PM 17.22 62.996 0.025 6.59 3.06 8.8
9/7/2021 7:30:00 PM 17.09 62.762 0.025 6.59 3.21 8.78
9/7/2021 7:45:00 PM 16.99 62.582 0.025 6.58 3.18 8.77
9/7/2021 8:00:00 PM 16.88 62.384 0.025 6.57 3.2 8.75
9/7/2021 8:15:00 PM 16.79 62.222 0.025 6.56 3.32 8.76
9/7/2021 8:30:00 PM 16.7 62.06 0.025 6.57 3.29 8.76
9/7/2021 8:45:00 PM 16.62 61.916 0.025 6.55 3.21 8.74
9/7/2021 9:00:00 PM 16.53 61.754 0.025 6.54 3.22 8.76
9/7/2021 9:15:00 PM 16.46 61.628 0.025 6.54 3.33 8.77
9/7/2021 9:30:00 PM 16.39 61.502 0.025 6.55 3.18 8.78
9/7/2021 9:45:00 PM 16.32 61.376 0.025 6.55 3.35 8.8
9/7/2021 10:00:00 PM 16.25 61.25 0.025 6.53 3.31 8.8
9/7/2021 10:15:00 PM 16.19 61.142 0.025 6.55 3.13 8.82
9/7/2021 10:30:00 PM 16.13 61.034 0.025 6.55 3.25 8.83
9/7/2021 10:45:00 PM 16.07 60.926 0.025 6.53 3.32 8.83
9/7/2021 11:00:00 PM 16.01 60.818 0.026 6.53 3.22 8.84
9/7/2021 11:15:00 PM 15.96 60.728 0.026 6.53 3.32 8.85
9/7/2021 11:30:00 PM 15.9 60.62 0.025 6.53 3.4 8.86
9/7/2021 11:45:00 PM 15.85 60.53 0.025 6.54 3.16 8.87
9/8/2021 12:00:00 AM 15.81 60.458 0.026 6.52 3.28 8.88
9/8/2021 12:15:00 AM 15.77 60.386 0.025 6.53 3.23 8.89
9/8/2021 12:30:00 AM 15.75 60.35 0.026 6.51 3.34 8.88
9/8/2021 12:45:00 AM 15.73 60.314 0.026 6.53 3.24 8.89
9/8/2021 1:00:00 AM 15.72 60.296 0.025 6.54 3.26 8.9
9/8/2021 1:15:00 AM 15.71 60.278 0.026 6.52 3.4 8.89
9/8/2021 1:30:00 AM 15.69 60.242 0.026 6.51 3.29 8.89
9/8/2021 1:45:00 AM 15.68 60.224 0.025 6.52 3.46 8.9
9/8/2021 2:00:00 AM 15.67 60.206 0.025 6.54 3.19 8.91
9/8/2021 2:15:00 AM 15.66 60.188 0.025 6.52 3.44 8.9
9/8/2021 2:30:00 AM 15.65 60.17 0.026 6.52 3.34 8.91
9/8/2021 2:45:00 AM 15.65 60.17 0.026 6.52 3.21 8.9
9/8/2021 3:00:00 AM 15.64 60.152 0.026 6.51 3.25 8.9
9/8/2021 3:15:00 AM 15.63 60.134 0.025 6.5 3.28 8.89
9/8/2021 3:30:00 AM 15.62 60.116 0.025 6.52 3.41 8.9
9/8/2021 3:45:00 AM 15.62 60.116 0.025 6.52 3.4 8.9
9/8/2021 4:00:00 AM 15.61 60.098 0.025 6.53 3.35 8.91
9/8/2021 4:15:00 AM 15.59 60.062 0.026 6.51 3.31 8.9
9/8/2021 4:30:00 AM 15.58 60.044 0.025 6.5 3.38 8.9
9/8/2021 4:45:00 AM 15.56 60.008 0.026 6.53 3.21 8.91
9/8/2021 5:00:00 AM 15.54 59.972 0.025 6.54 3.3 8.92
9/8/2021 5:15:00 AM 15.51 59.918 0.026 6.52 3.5 8.91
9/8/2021 5:30:00 AM 15.5 59.9 0.026 6.54 3.18 8.92
9/8/2021 5:45:00 AM 15.48 59.864 0.025 6.53 3.3 8.92
9/8/2021 6:00:00 AM 15.46 59.828 0.026 6.52 3.26 8.92
9/8/2021 6:15:00 AM 15.45 59.81 0.026 6.53 3.52 8.93
9/8/2021 6:30:00 AM 15.44 59.792 0.025 6.54 3.42 8.94
9/8/2021 6:45:00 AM 15.42 59.756 0.026 6.53 3.24 8.94
9/8/2021 7:00:00 AM 15.4 59.72 0.026 6.52 3.29 8.94
9/8/2021 7:15:00 AM 15.39 59.702 0.026 6.54 3.23 8.97
9/8/2021 7:30:00 AM 15.4 59.72 0.025 6.55 3.28 8.99
9/8/2021 7:45:00 AM 15.41 59.738 0.026 6.56 3.27 9.02
9/8/2021 8:00:00 AM 15.44 59.792 0.026 6.55 3.41 9.05
9/8/2021 8:15:00 AM 15.48 59.864 0.026 6.56 3.33 9.07
9/8/2021 8:30:00 AM 15.53 59.954 0.025 6.58 3.25 9.11
9/8/2021 8:45:00 AM 15.59 60.062 0.025 6.55 3.31 9.12
9/8/2021 9:00:00 AM 15.67 60.206 0.025 6.61 3.19 9.18
9/8/2021 9:15:00 AM 15.75 60.35 0.026 6.6 3.13 9.2
9/8/2021 9:30:00 AM 15.87 60.566 0.025 6.61 3.31 9.22
9/8/2021 9:45:00 AM 16 60.8 0.026 6.62 3.22 9.23
9/8/2021 10:00:00 AM 16.14 61.052 0.025 6.65 3.33 9.24
9/8/2021 10:15:00 AM 16.28 61.304 0.025 6.62 3.27 9.21
9/8/2021 10:30:00 AM 16.46 61.628 0.025 6.65 3.19 9.21
9/8/2021 10:45:00 AM 16.61 61.898 0.025 6.65 3.13 9.19
9/8/2021 11:00:00 AM 16.79 62.222 0.025 6.67 3.28 9.18
9/8/2021 11:15:00 AM 16.96 62.528 0.025 6.65 3.1 9.14
9/8/2021 11:30:00 AM 17.14 62.852 0.026 6.65 3.14 9.13
9/8/2021 11:45:00 AM 17.38 63.284 0.025 6.68 3.22 9.12
9/8/2021 12:00:00 PM 17.64 63.752 0.025 6.69 3.12 9.1
9/8/2021 12:15:00 PM 17.83 64.094 0.026 6.63 3.1 9.04
9/8/2021 12:30:00 PM 18.1 64.58 0.025 6.65 3.02 9.02
9/8/2021 12:45:00 PM 18.34 65.012 0.026 6.69 3.2 9.01
9/8/2021 1:00:00 PM 18.55 65.39 0.025 6.7 3.1 8.98
9/8/2021 1:15:00 PM 18.7 65.66 0.025 6.7 3.08 8.95
9/8/2021 1:30:00 PM 18.83 65.894 0.026 6.67 3.11 8.91
9/8/2021 1:45:00 PM 18.92 66.056 0.025 6.71 2.89 8.9
9/8/2021 2:00:00 PM 18.98 66.164 0.027 6.67 3.07 8.88
9/8/2021 2:15:00 PM 19.04 66.272 0.025 6.67 2.99 8.85
9/8/2021 2:30:00 PM 19.13 66.434 0.025 6.72 3.08 8.83
9/8/2021 2:45:00 PM 19.21 66.578 0.025 6.69 3.08 8.81
9/8/2021 3:00:00 PM 19.31 66.758 0.027 6.67 3.08 8.8
9/8/2021 3:15:00 PM 19.47 67.046 0.025 6.71 2.91 8.78
9/8/2021 3:30:00 PM 19.56 67.208 0.025 6.7 3.05 8.75
9/8/2021 3:45:00 PM 19.64 67.352 0.026 6.68 3.11 8.73
9/8/2021 4:00:00 PM 19.68 67.424 0.026 6.71 2.94 8.71
9/8/2021 4:15:00 PM 19.66 67.388 0.025 6.72 2.93 8.64
9/8/2021 4:30:00 PM 19.58 67.244 0.026 6.69 2.98 8.56
9/8/2021 4:45:00 PM 19.45 67.01 0.026 6.68 3.14 8.52
9/8/2021 5:00:00 PM 19.28 66.704 0.026 6.66 3 8.46
9/8/2021 5:15:00 PM 19.12 66.416 0.026 6.65 3.03 8.42
9/8/2021 5:30:00 PM 18.96 66.128 0.026 6.66 3.11 8.4
9/8/2021 5:45:00 PM 18.79 65.82201 0.027 6.64 10.23 8.4
9/8/2021 6:00:00 PM 18.63 65.534 0.032 6.68 19.61 8.35
9/8/2021 6:15:00 PM 18.47 65.246 0.029 6.7 15.09 8.4
9/8/2021 6:30:00 PM 18.33 64.994 0.035 6.76 35.46 8.38
9/8/2021 6:45:00 PM 18.19 64.742 0.031 6.72 21.25 8.4
9/8/2021 7:00:00 PM 18.07 64.526 0.03 6.68 11.94 8.41
9/8/2021 7:15:00 PM 17.95 64.31 0.028 6.64 8.47 8.42
9/8/2021 7:30:00 PM 17.87 64.166 0.027 6.62 6.98 8.43
9/8/2021 7:45:00 PM 17.8 64.04 0.027 6.61 6.57 8.45
9/8/2021 8:00:00 PM 17.73 63.914 0.027 6.63 7.59 8.46
9/8/2021 8:15:00 PM 17.63 63.734 0.027 6.64 11.52 8.49
9/8/2021 8:30:00 PM 17.49 63.482 0.027 6.63 12.45 8.54
9/8/2021 8:45:00 PM 17.39 63.302 0.026 6.61 10.79 8.57
9/8/2021 9:00:00 PM 17.31 63.158 0.026 6.59 9.73 8.59
9/8/2021 9:15:00 PM 17.27 63.086 0.025 6.58 9.75 8.6
9/8/2021 9:30:00 PM 17.23 63.014 0.025 6.57 8.98 8.62
9/8/2021 9:45:00 PM 17.2 62.96 0.024 6.57 9.75 8.63
9/8/2021 10:00:00 PM 17.17 62.906 0.024 6.56 10.8 8.64
9/8/2021 10:15:00 PM 17.16 62.888 0.025 6.56 12.32 8.65
9/8/2021 10:30:00 PM 17.16 62.888 0.024 6.57 15.25 8.66
9/8/2021 10:45:00 PM 17.18 62.924 0.024 6.56 15.77 8.66
9/8/2021 11:00:00 PM 17.19 62.942 0.024 6.55 16.05 8.66
9/8/2021 11:15:00 PM 17.2 62.96 0.023 6.53 14.97 8.66
9/8/2021 11:30:00 PM 17.22 62.996 0.023 6.52 13.02 8.66
9/8/2021 11:45:00 PM 17.24 63.032 0.023 6.5 11.29 8.67
9/9/2021 12:00:00 AM 17.24 63.032 0.022 6.49 10.37 8.67
9/9/2021 12:15:00 AM 17.24 63.032 0.022 6.49 9.79 8.67
9/9/2021 12:30:00 AM 17.23 63.014 0.022 6.48 8.7 8.67
9/9/2021 12:45:00 AM 17.2 62.96 0.022 6.47 8.32 8.68
9/9/2021 1:00:00 AM 17.16 62.888 0.022 6.46 7.84 8.69
9/9/2021 1:15:00 AM 17.11 62.798 0.022 6.47 8.01 8.7
9/9/2021 1:30:00 AM 17.06 62.708 0.022 6.47 8.44 8.71
9/9/2021 1:45:00 AM 17.01 62.618 0.023 6.48 9.38 8.72
9/9/2021 2:00:00 AM 16.96 62.528 0.023 6.49 9.97 8.72
9/9/2021 2:15:00 AM 16.92 62.456 0.023 6.49 10.45 8.74
9/9/2021 2:30:00 AM 16.87 62.366 0.023 6.51 10.46 8.74
9/9/2021 2:45:00 AM 16.83 62.294 0.023 6.51 10.26 8.75
9/9/2021 3:00:00 AM 16.8 62.24 0.023 6.49 9.44 8.76
9/9/2021 3:15:00 AM 16.77 62.186 0.023 6.48 9.9 8.76
9/9/2021 3:30:00 AM 16.74 62.132 0.023 6.49 9.35 8.77
9/9/2021 3:45:00 AM 16.72 62.096 0.022 6.49 9.77 8.78
9/9/2021 4:00:00 AM 16.69 62.042 0.023 6.48 9.7 8.77
9/9/2021 4:15:00 AM 16.67 62.006 0.023 6.47 9.71 8.77
9/9/2021 4:30:00 AM 16.65 61.97 0.022 6.48 9.04 8.79
9/9/2021 4:45:00 AM 16.63 61.934 0.022 6.48 9.42 8.78
9/9/2021 5:00:00 AM 16.61 61.898 0.022 6.47 7.9 8.8
9/9/2021 5:15:00 AM 16.6 61.88 0.022 6.46 7.59 8.79
9/9/2021 5:30:00 AM 16.58 61.844 0.022 6.46 6.73 8.79
9/9/2021 5:45:00 AM 16.57 61.826 0.022 6.45 6.47 8.8
9/9/2021 6:00:00 AM 16.56 61.808 0.022 6.47 6.31 8.8
9/9/2021 6:15:00 AM 16.54 61.772 0.022 6.46 6.19 8.8
9/9/2021 6:30:00 AM 16.53 61.754 0.022 6.46 5.73 8.81
9/9/2021 6:45:00 AM 16.53 61.754 0.022 6.45 5.9 8.79
9/9/2021 7:00:00 AM 16.52 61.736 0.021 6.44 5.64 8.8
9/9/2021 7:15:00 AM 16.51 61.718 0.021 6.44 5.62 8.81
9/9/2021 7:30:00 AM 16.52 61.736 0.021 6.45 5.64 8.82
9/9/2021 7:45:00 AM 16.52 61.736 0.021 6.44 5.46 8.82
9/9/2021 8:00:00 AM 16.52 61.736 0.021 6.44 5.46 8.83
9/9/2021 8:15:00 AM 16.54 61.772 0.021 6.45 5.24 8.85
9/9/2021 8:30:00 AM 16.55 61.79 0.021 6.45 5.07 8.87
9/9/2021 8:45:00 AM 16.56 61.808 0.02 6.44 5.04 8.88
9/9/2021 9:00:00 AM 16.56 61.808 0.021 6.44 5.02 8.89
9/9/2021 9:15:00 AM 16.57 61.826 0.021 6.44 4.92 8.9
9/9/2021 9:30:00 AM 16.58 61.844 0.02 6.45 4.88 8.9
9/9/2021 9:45:00 AM 16.59 61.862 0.02 6.45 5.06 8.9
9/9/2021 10:00:00 AM 16.61 61.898 0.02 6.44 4.83 8.92
9/9/2021 10:15:00 AM 16.63 61.934 0.02 6.44 4.89 8.93
9/9/2021 10:30:00 AM 16.67 62.006 0.02 6.45 4.68 8.95
9/9/2021 10:45:00 AM 16.7 62.06 0.02 6.46 4.66 8.96
9/9/2021 11:00:00 AM 16.77 62.186 0.02 6.46 4.51 8.99
9/9/2021 11:15:00 AM 16.88 62.384 0.02 6.47 4.44 9
9/9/2021 11:30:00 AM 16.96 62.528 0.02 6.46 4.5 9
9/9/2021 11:45:00 AM 16.99 62.582 0.02 6.48 4.54 9
9/9/2021 12:00:00 PM 16.99 62.582 0.02 6.48 4.37 8.99
9/9/2021 12:15:00 PM 17.01 62.618 0.02 6.46 4.37 8.98
9/9/2021 12:30:00 PM 17.06 62.708 0.02 6.49 4.45 8.98
9/9/2021 12:45:00 PM 17.13 62.834 0.02 6.48 4.27 8.98
9/9/2021 1:00:00 PM 17.2 62.96 0.02 6.49 4.06 8.98
9/9/2021 1:15:00 PM 17.26 63.068 0.02 6.49 4.3 8.97
9/9/2021 1:30:00 PM 17.29 63.122 0.02 6.49 4.28 8.97
9/9/2021 1:45:00 PM 17.35 63.23 0.02 6.51 4.3 8.97
9/9/2021 2:00:00 PM 17.39 63.302 0.02 6.51 4.23 8.96
9/9/2021 2:15:00 PM 17.41 63.338 0.02 6.5 4.11 8.94
9/9/2021 2:30:00 PM 17.39 63.302 0.02 6.5 4.18 8.93
9/9/2021 2:45:00 PM 17.39 63.302 0.02 6.5 4.05 8.92
9/9/2021 3:00:00 PM 17.43 63.374 0.02 6.5 4.05 8.92
9/9/2021 3:15:00 PM 17.5 63.5 0.02 6.5 4 8.92
9/9/2021 3:30:00 PM 17.56 63.608 0.02 6.51 4.04 8.92
9/9/2021 3:45:00 PM 17.61 63.698 0.02 6.5 4.12 8.91
9/9/2021 4:00:00 PM 17.67 63.806 0.02 6.5 3.83 8.9
9/9/2021 4:15:00 PM 17.67 63.806 0.02 6.5 3.75 8.86
9/9/2021 4:30:00 PM 17.65 63.77 0.02 6.51 3.75 8.86
9/9/2021 4:45:00 PM 17.61 63.698 0.02 6.5 3.86 8.83
9/9/2021 5:00:00 PM 17.56 63.608 0.02 6.47 3.84 8.79
9/9/2021 5:15:00 PM 17.5 63.5 0.02 6.48 3.86 8.77
9/9/2021 5:30:00 PM 17.47 63.446 0.02 6.47 4.12 8.77
9/9/2021 5:45:00 PM 17.44 63.392 0.02 6.46 3.96 8.76
9/9/2021 6:00:00 PM 17.43 63.374 0.021 6.48 3.98 8.78
9/9/2021 6:15:00 PM 17.42 63.356 0.022 6.47 3.87 8.78
9/9/2021 6:30:00 PM 17.41 63.338 0.021 6.47 3.89 8.76
9/9/2021 6:45:00 PM 17.4 63.32 0.021 6.47 4.11 8.73
9/9/2021 7:00:00 PM 17.38 63.284 0.02 6.45 4.07 8.7
9/9/2021 7:15:00 PM 17.35 63.23 0.02 6.46 3.9 8.71
9/9/2021 7:30:00 PM 17.31 63.158 0.02 6.45 3.93 8.69
9/9/2021 7:45:00 PM 17.28 63.104 0.02 6.44 3.86 8.67
9/9/2021 8:00:00 PM 17.24 63.032 0.02 6.44 3.96 8.66
9/9/2021 8:15:00 PM 17.21 62.978 0.02 6.44 4 8.67
9/9/2021 8:30:00 PM 17.19 62.942 0.02 6.43 4.12 8.66
9/9/2021 8:45:00 PM 17.16 62.888 0.02 6.42 4.06 8.66
9/9/2021 9:00:00 PM 17.14 62.852 0.02 6.43 4.31 8.67
9/9/2021 9:15:00 PM 17.11 62.798 0.02 6.42 3.86 8.67
9/9/2021 9:30:00 PM 17.08 62.744 0.02 6.42 3.97 8.68
9/9/2021 9:45:00 PM 17.04 62.672 0.02 6.42 3.89 8.68
9/9/2021 10:00:00 PM 17.01 62.618 0.02 6.41 3.82 8.68
9/9/2021 10:15:00 PM 16.99 62.582 0.021 6.41 3.85 8.69
9/9/2021 10:30:00 PM 16.97 62.546 0.021 6.41 3.93 8.7
9/9/2021 10:45:00 PM 16.95 62.51 0.02 6.41 3.73 8.7
9/9/2021 11:00:00 PM 16.92 62.456 0.02 6.41 3.8 8.71
9/9/2021 11:15:00 PM 16.9 62.42 0.02 6.41 3.9 8.71
9/9/2021 11:30:00 PM 16.87 62.366 0.02 6.41 3.76 8.72
9/9/2021 11:45:00 PM 16.84 62.312 0.021 6.41 3.86 8.71
9/10/2021 12:00:00 AM 16.79 62.222 0.02 6.42 5.03 8.74
9/10/2021 12:15:00 AM 16.75 62.15 0.02 6.4 4.5 8.73
9/10/2021 12:30:00 AM 16.7 62.06 0.02 6.42 3.86 8.76
9/10/2021 12:45:00 AM 16.66 61.988 0.02 6.41 3.68 8.75
9/10/2021 1:00:00 AM 16.6 61.88 0.02 6.41 3.68 8.78
9/10/2021 1:15:00 AM 16.55 61.79 0.02 6.39 3.73 8.77
9/10/2021 1:30:00 AM 16.5 61.7 0.02 6.4 3.68 8.78
9/10/2021 1:45:00 AM 16.45 61.61 0.021 6.4 3.83 8.79
9/10/2021 2:00:00 AM 16.4 61.52 0.02 6.4 3.58 8.8
9/10/2021 2:15:00 AM 16.35 61.43 0.021 6.38 3.88 8.8
9/10/2021 2:30:00 AM 16.29 61.322 0.02 6.4 3.78 8.82
9/10/2021 2:45:00 AM 16.24 61.232 0.02 6.4 3.72 8.83
9/10/2021 3:00:00 AM 16.18 61.124 0.02 6.4 3.75 8.84
9/10/2021 3:15:00 AM 16.13 61.034 0.02 6.4 3.86 8.85
9/10/2021 3:30:00 AM 16.08 60.944 0.02 6.4 3.91 8.86
9/10/2021 3:45:00 AM 16.03 60.854 0.021 6.39 3.99 8.87
9/10/2021 4:00:00 AM 15.98 60.764 0.02 6.4 3.93 8.89
9/10/2021 4:15:00 AM 15.93 60.674 0.021 6.39 3.87 8.89
9/10/2021 4:30:00 AM 15.88 60.584 0.021 6.39 4.1 8.89
9/10/2021 4:45:00 AM 15.83 60.494 0.021 6.39 3.75 8.91
9/10/2021 5:00:00 AM 15.78 60.404 0.021 6.4 3.8 8.92
9/10/2021 5:15:00 AM 15.73 60.314 0.021 6.39 3.88 8.93
9/10/2021 5:30:00 AM 15.69 60.242 0.021 6.39 3.86 8.94
9/10/2021 5:45:00 AM 15.64 60.152 0.021 6.4 3.84 8.95
9/10/2021 6:00:00 AM 15.6 60.08 0.021 6.39 3.8 8.95
9/10/2021 6:15:00 AM 15.57 60.026 0.021 6.39 3.79 8.96
9/10/2021 6:30:00 AM 15.54 59.972 0.021 6.4 3.96 8.98
9/10/2021 6:45:00 AM 15.52 59.936 0.02 6.4 3.99 8.99
9/10/2021 7:00:00 AM 15.51 59.918 0.02 6.41 3.71 9
9/10/2021 7:15:00 AM 15.49 59.882 0.021 6.4 3.76 9.01
9/10/2021 7:30:00 AM 15.48 59.864 0.021 6.42 3.7 9.04
9/10/2021 7:45:00 AM 15.47 59.846 0.02 6.42 3.75 9.07
9/10/2021 8:00:00 AM 15.5 59.9 0.02 6.43 3.82 9.11
9/10/2021 8:15:00 AM 15.52 59.936 0.021 6.43 3.72 9.15
9/10/2021 8:30:00 AM 15.53 59.954 0.021 6.45 3.78 9.16
9/10/2021 8:45:00 AM 15.53 59.954 0.02 6.46 3.69 9.17
9/10/2021 9:00:00 AM 15.53 59.954 0.021 6.45 3.66 9.17
9/10/2021 9:15:00 AM 15.55 59.99 0.02 6.46 3.69 9.18
9/10/2021 9:30:00 AM 15.58 60.044 0.02 6.47 3.63 9.19
9/10/2021 9:45:00 AM 15.63 60.134 0.02 6.47 3.72 9.21
9/10/2021 10:00:00 AM 15.66 60.188 0.02 6.49 3.53 9.22
9/10/2021 10:15:00 AM 15.7 60.26 0.02 6.48 3.59 9.2
9/10/2021 10:30:00 AM 15.77 60.386 0.021 6.48 3.71 9.22
9/10/2021 10:45:00 AM 15.84 60.512 0.02 6.5 3.61 9.22
9/10/2021 11:00:00 AM 15.94 60.692 0.021 6.49 3.65 9.22
9/10/2021 11:15:00 AM 16.09 60.962 0.021 6.49 3.58 9.23
9/10/2021 11:30:00 AM 16.19 61.142 0.02 6.52 3.44 9.23
9/10/2021 11:45:00 AM 16.2 61.16 0.02 6.5 3.7 9.21
9/10/2021 12:00:00 PM 16.21 61.178 0.02 6.51 3.54 9.21
9/10/2021 12:15:00 PM 16.28 61.304 0.021 6.51 3.51 9.2
9/10/2021 12:30:00 PM 16.46 61.628 0.021 6.51 3.53 9.19
9/10/2021 12:45:00 PM 16.67 62.006 0.021 6.52 3.66 9.17
9/10/2021 1:00:00 PM 16.83 62.294 0.02 6.53 3.5 9.15
9/10/2021 1:15:00 PM 16.94 62.492 0.02 6.53 3.49 9.14
9/10/2021 1:30:00 PM 17.04 62.672 0.021 6.53 3.37 9.13
9/10/2021 1:45:00 PM 17.12 62.816 0.02 6.53 3.44 9.11
9/10/2021 2:00:00 PM 17.14 62.852 0.021 6.54 3.49 9.11
9/10/2021 2:15:00 PM 17.14 62.852 0.021 6.53 3.4 9.08
9/10/2021 2:30:00 PM 17.15 62.87 0.021 6.53 3.5 9.07
9/10/2021 2:45:00 PM 17.24 63.032 0.021 6.54 3.35 9.07
9/10/2021 3:00:00 PM 17.27 63.086 0.021 6.55 3.41 9.06
9/10/2021 3:15:00 PM 17.26 63.068 0.021 6.53 3.52 9.04
9/10/2021 3:30:00 PM 17.31 63.158 0.021 6.53 3.41 9.04
9/10/2021 3:45:00 PM 17.32 63.176 0.02 6.54 3.57 9.01
9/10/2021 4:00:00 PM 17.29 63.122 0.021 6.54 3.46 9
9/10/2021 4:15:00 PM 17.22 62.996 0.021 6.53 3.42 8.97
9/10/2021 4:30:00 PM 17.16 62.888 0.021 6.54 3.48 8.98
9/10/2021 4:45:00 PM 17.1 62.78 0.021 6.54 3.46 8.98
9/10/2021 5:00:00 PM 17.06 62.708 0.02 6.53 3.37 8.97
9/10/2021 5:15:00 PM 17.05 62.69 0.021 6.55 3.27 8.98
9/10/2021 5:30:00 PM 17.06 62.708 0.021 6.52 3.36 8.98
9/10/2021 5:45:00 PM 17.04 62.672 0.021 6.54 3.31 8.99
9/10/2021 6:00:00 PM 17 62.6 0.021 6.53 3.35 8.97
9/10/2021 6:15:00 PM 16.95 62.51 0.021 6.53 3.37 8.97
9/10/2021 6:30:00 PM 16.91 62.438 0.021 6.52 3.45 8.96
9/10/2021 6:45:00 PM 16.87 62.366 0.021 6.53 3.37 8.94
9/10/2021 7:00:00 PM 16.82 62.276 0.021 6.52 3.48 8.91
9/10/2021 7:15:00 PM 16.76 62.168 0.021 6.5 3.34 8.89
9/10/2021 7:30:00 PM 16.7 62.06 0.021 6.5 3.43 8.86
9/10/2021 7:45:00 PM 16.65 61.97 0.021 6.49 3.48 8.83
9/10/2021 8:00:00 PM 16.58 61.844 0.021 6.48 3.55 8.84
9/10/2021 8:15:00 PM 16.53 61.754 0.021 6.48 3.37 8.83
9/10/2021 8:30:00 PM 16.48 61.664 0.021 6.48 3.49 8.83
9/10/2021 8:45:00 PM 16.43 61.574 0.021 6.48 3.5 8.84
9/10/2021 9:00:00 PM 16.38 61.484 0.021 6.47 3.55 8.84
9/10/2021 9:15:00 PM 16.33 61.394 0.021 6.48 3.35 8.85
9/10/2021 9:30:00 PM 16.28 61.304 0.021 6.47 3.51 8.85
9/10/2021 9:45:00 PM 16.21 61.178 0.022 6.46 4.05 8.86
9/10/2021 10:00:00 PM 16.16 61.088 0.022 6.45 3.53 8.86
9/10/2021 10:15:00 PM 16.1 60.98 0.021 6.47 3.52 8.89
9/10/2021 10:30:00 PM 16.04 60.872 0.022 6.45 3.5 8.89
9/10/2021 10:45:00 PM 15.98 60.764 0.021 6.46 3.46 8.9
9/10/2021 11:00:00 PM 15.91 60.638 0.021 6.46 3.43 8.92
9/10/2021 11:15:00 PM 15.85 60.53 0.021 6.46 3.57 8.93
9/10/2021 11:30:00 PM 15.78 60.404 0.022 6.46 3.37 8.95
9/10/2021 11:45:00 PM 15.71 60.278 0.022 6.45 4.46 8.96
9/11/2021 12:00:00 AM 15.65 60.17 0.021 6.46 3.63 8.97
9/11/2021 12:15:00 AM 15.57 60.026 0.022 6.44 3.6 8.99
9/11/2021 12:30:00 AM 15.5 59.9 0.022 6.45 3.51 9
9/11/2021 12:45:00 AM 15.43 59.774 0.021 6.46 3.43 9.03
9/11/2021 1:00:00 AM 15.35 59.63 0.022 6.45 3.46 9.03
9/11/2021 1:15:00 AM 15.27 59.486 0.022 6.45 3.59 9.05
9/11/2021 1:30:00 AM 15.19 59.342 0.021 6.45 3.4 9.08
9/11/2021 1:45:00 AM 15.11 59.198 0.021 6.45 3.54 9.09
9/11/2021 2:00:00 AM 15.03 59.054 0.022 6.46 3.4 9.11
9/11/2021 2:15:00 AM 14.94 58.892 0.021 6.46 3.67 9.13
9/11/2021 2:30:00 AM 14.86 58.748 0.022 6.45 3.43 9.14
9/11/2021 2:45:00 AM 14.77 58.586 0.022 6.44 3.57 9.15
9/11/2021 3:00:00 AM 14.68 58.424 0.022 6.45 3.42 9.19
9/11/2021 3:15:00 AM 14.58 58.244 0.021 6.45 3.45 9.21
9/11/2021 3:30:00 AM 14.49 58.082 0.022 6.45 3.49 9.22
9/11/2021 3:45:00 AM 14.39 57.902 0.022 6.45 3.51 9.25
9/11/2021 4:00:00 AM 14.29 57.722 0.022 6.44 3.55 9.28
9/11/2021 4:15:00 AM 14.18 57.524 0.022 6.45 3.5 9.31
9/11/2021 4:30:00 AM 14.08 57.344 0.022 6.44 3.52 9.33
9/11/2021 4:45:00 AM 13.99 57.182 0.022 6.44 3.54 9.34
9/11/2021 5:00:00 AM 13.92 57.056 0.022 6.45 3.49 9.36
9/11/2021 5:15:00 AM 13.84 56.912 0.022 6.44 3.5 9.39
9/11/2021 5:30:00 AM 13.77 56.786 0.022 6.44 3.48 9.4
9/11/2021 5:45:00 AM 13.7 56.66 0.022 6.45 3.55 9.41
9/11/2021 6:00:00 AM 13.63 56.534 0.022 6.45 3.38 9.43
9/11/2021 6:15:00 AM 13.56 56.408 0.022 6.44 3.52 9.45
9/11/2021 6:30:00 AM 13.49 56.282 0.022 6.45 3.46 9.47
9/11/2021 6:45:00 AM 13.43 56.174 0.022 6.45 3.54 9.48
9/11/2021 7:00:00 AM 13.37 56.066 0.022 6.46 3.48 9.51
9/11/2021 7:15:00 AM 13.31 55.958 0.022 6.46 3.5 9.54
9/11/2021 7:30:00 AM 13.27 55.886 0.022 6.46 3.5 9.58
9/11/2021 7:45:00 AM 13.24 55.832 0.022 6.47 3.49 9.61
9/11/2021 8:00:00 AM 13.21 55.778 0.022 6.48 3.39 9.66
9/11/2021 8:15:00 AM 13.2 55.76 0.022 6.48 3.45 9.69
9/11/2021 8:30:00 AM 13.21 55.778 0.022 6.48 3.48 9.72
9/11/2021 8:45:00 AM 13.24 55.832 0.022 6.5 3.57 9.76
9/11/2021 9:00:00 AM 13.28 55.904 0.022 6.51 3.53 9.79
9/11/2021 9:15:00 AM 13.36 56.048 0.022 6.53 3.49 9.81
9/11/2021 9:30:00 AM 13.44 56.192 0.022 6.52 3.46 9.82
9/11/2021 9:45:00 AM 13.52 56.336 0.022 6.53 3.49 9.81
9/11/2021 10:00:00 AM 13.64 56.552 0.022 6.55 3.53 9.82
9/11/2021 10:15:00 AM 13.78 56.804 0.022 6.55 3.46 9.81
9/11/2021 10:30:00 AM 13.93 57.074 0.022 6.56 3.44 9.81
9/11/2021 10:45:00 AM 14.05 57.29 0.022 6.56 3.41 9.78
9/11/2021 11:00:00 AM 14.16 57.488 0.023 6.56 3.4 9.76
9/11/2021 11:15:00 AM 14.3 57.74 0.022 6.57 3.44 9.75
9/11/2021 11:30:00 AM 14.45 58.01 0.022 6.58 3.42 9.72
9/11/2021 11:45:00 AM 14.65 58.37 0.023 6.57 3.62 9.69
9/11/2021 12:00:00 PM 14.88 58.784 0.022 6.57 3.51 9.65
9/11/2021 12:15:00 PM 15.1 59.18 0.022 6.59 3.36 9.63
9/11/2021 12:30:00 PM 15.28 59.504 0.023 6.58 3.43 9.59
9/11/2021 12:45:00 PM 15.49 59.882 0.022 6.6 3.39 9.57
9/11/2021 1:00:00 PM 15.68 60.224 0.022 6.6 3.34 9.53
9/11/2021 1:15:00 PM 15.87 60.566 0.023 6.6 3.41 9.49
9/11/2021 1:30:00 PM 16.07 60.926 0.022 6.61 3.38 9.47
9/11/2021 1:45:00 PM 16.25 61.25 0.022 6.6 3.43 9.42
9/11/2021 2:00:00 PM 16.43 61.574 0.022 6.62 3.44 9.39
9/11/2021 2:15:00 PM 16.59 61.862 0.023 6.6 3.37 9.35
9/11/2021 2:30:00 PM 16.71 62.078 0.023 6.57 3.37 9.31
9/11/2021 2:45:00 PM 16.85 62.33 0.023 6.61 3.36 9.29
9/11/2021 3:00:00 PM 16.97 62.546 0.022 6.62 3.3 9.28
9/11/2021 3:15:00 PM 17.05 62.69 0.023 6.61 3.47 9.25
9/11/2021 3:30:00 PM 17.12 62.816 0.022 6.63 3.21 9.24
9/11/2021 3:45:00 PM 17.14 62.852 0.022 6.61 3.23 9.21
9/11/2021 4:00:00 PM 17.16 62.888 0.023 6.62 3.23 9.2
9/11/2021 4:15:00 PM 17.14 62.852 0.022 6.63 3.18 9.19
9/11/2021 4:30:00 PM 17.11 62.798 0.022 6.64 3.21 9.19
9/11/2021 4:45:00 PM 17.05 62.69 0.022 6.64 3.27 9.18
9/11/2021 5:00:00 PM 16.97 62.546 0.022 6.63 3.28 9.17
9/11/2021 5:15:00 PM 16.92 62.456 0.023 6.64 3.31 9.17
9/11/2021 5:30:00 PM 16.84 62.312 0.023 6.59 3.28 9.14
9/11/2021 5:45:00 PM 16.77 62.186 0.023 6.61 3.33 9.14
9/11/2021 6:00:00 PM 16.67 62.006 0.023 6.6 3.27 9.13
9/11/2021 6:15:00 PM 16.56 61.808 0.023 6.6 3.33 9.11
9/11/2021 6:30:00 PM 16.45 61.61 0.023 6.6 3.3 9.12
9/11/2021 6:45:00 PM 16.36 61.448 0.023 6.59 3.44 9.1
9/11/2021 7:00:00 PM 16.26 61.268 0.023 6.57 3.6 9.06
9/11/2021 7:15:00 PM 16.17 61.106 0.023 6.56 3.42 9.04
9/11/2021 7:30:00 PM 16.1 60.98 0.023 6.57 3.22 9.03
9/11/2021 7:45:00 PM 16.02 60.836 0.023 6.55 3.31 9
9/11/2021 8:00:00 PM 15.95 60.71 0.023 6.55 3.35 8.99
9/11/2021 8:15:00 PM 15.88 60.584 0.023 6.54 3.44 8.98
9/11/2021 8:30:00 PM 15.82 60.476 0.023 6.53 3.49 8.97
9/11/2021 8:45:00 PM 15.76 60.368 0.023 6.51 3.36 8.98
9/11/2021 9:00:00 PM 15.7 60.26 0.023 6.54 3.36 8.98
9/11/2021 9:15:00 PM 15.65 60.17 0.023 6.54 3.52 9
9/11/2021 9:30:00 PM 15.6 60.08 0.023 6.54 3.45 9
9/11/2021 9:45:00 PM 15.54 59.972 0.023 6.53 3.4 9.01
9/11/2021 10:00:00 PM 15.49 59.882 0.023 6.53 3.4 9.02
9/11/2021 10:15:00 PM 15.45 59.81 0.024 6.52 3.27 9.03
9/11/2021 10:30:00 PM 15.4 59.72 0.024 6.52 3.28 9.03
9/11/2021 10:45:00 PM 15.35 59.63 0.023 6.52 3.51 9.04
9/11/2021 11:00:00 PM 15.31 59.558 0.023 6.52 3.44 9.05
9/11/2021 11:15:00 PM 15.27 59.486 0.023 6.52 3.29 9.06
9/11/2021 11:30:00 PM 15.23 59.414 0.023 6.52 3.53 9.07
9/11/2021 11:45:00 PM 15.19 59.342 0.024 6.53 3.52 9.07
9/12/2021 12:00:00 AM 15.16 59.288 0.024 6.51 3.34 9.08
9/12/2021 12:15:00 AM 15.13 59.234 0.023 6.53 3.33 9.09
9/12/2021 12:30:00 AM 15.1 59.18 0.024 6.52 3.28 9.1
9/12/2021 12:45:00 AM 15.07 59.126 0.024 6.49 3.36 9.08
9/12/2021 1:00:00 AM 15.05 59.09 0.024 6.5 3.34 9.09
9/12/2021 1:15:00 AM 15.05 59.09 0.024 6.51 3.43 9.11
9/12/2021 1:30:00 AM 15.04 59.072 0.023 6.52 3.38 9.11
9/12/2021 1:45:00 AM 15.03 59.054 0.024 6.51 3.37 9.1
9/12/2021 2:00:00 AM 15.02 59.036 0.024 6.5 3.4 9.1
9/12/2021 2:15:00 AM 15.01 59.018 0.024 6.51 3.37 9.11
9/12/2021 2:30:00 AM 15 59 0.024 6.5 3.44 9.1
9/12/2021 2:45:00 AM 15 59 0.023 6.52 3.36 9.11
9/12/2021 3:00:00 AM 15 59 0.024 6.51 3.42 9.11
9/12/2021 3:15:00 AM 14.99 58.982 0.024 6.51 3.45 9.11
9/12/2021 3:30:00 AM 14.99 58.982 0.023 6.52 3.39 9.12
9/12/2021 3:45:00 AM 14.99 58.982 0.023 6.51 3.34 9.11
9/12/2021 4:00:00 AM 14.98 58.964 0.024 6.51 3.46 9.11
9/12/2021 4:15:00 AM 14.97 58.946 0.024 6.5 3.36 9.11
9/12/2021 4:30:00 AM 14.97 58.946 0.024 6.5 3.32 9.11
9/12/2021 4:45:00 AM 14.96 58.928 0.024 6.52 3.48 9.12
9/12/2021 5:00:00 AM 14.94 58.892 0.024 6.5 3.59 9.12
9/12/2021 5:15:00 AM 14.92 58.856 0.024 6.52 3.36 9.13
9/12/2021 5:30:00 AM 14.9 58.82 0.024 6.52 3.52 9.13
9/12/2021 5:45:00 AM 14.88 58.784 0.024 6.51 3.21 9.14
9/12/2021 6:00:00 AM 14.85 58.73 0.024 6.51 3.45 9.14
9/12/2021 6:15:00 AM 14.83 58.694 0.024 6.52 3.42 9.15
9/12/2021 6:30:00 AM 14.81 58.658 0.024 6.51 3.39 9.15
9/12/2021 6:45:00 AM 14.79 58.622 0.024 6.51 3.4 9.15
9/12/2021 7:00:00 AM 14.77 58.586 0.024 6.5 3.41 9.16
9/12/2021 7:15:00 AM 14.76 58.568 0.024 6.51 3.42 9.17
9/12/2021 7:30:00 AM 14.75 58.55 0.024 6.52 3.5 9.19
9/12/2021 7:45:00 AM 14.76 58.568 0.024 6.51 3.41 9.22
9/12/2021 8:00:00 AM 14.77 58.586 0.024 6.54 3.28 9.25
9/12/2021 8:15:00 AM 14.8 58.64 0.024 6.53 3.33 9.27
9/12/2021 8:30:00 AM 14.83 58.694 0.024 6.54 3.3 9.31
9/12/2021 8:45:00 AM 14.87 58.766 0.024 6.54 3.32 9.33
9/12/2021 9:00:00 AM 14.92 58.856 0.024 6.56 3.42 9.36
9/12/2021 9:15:00 AM 14.97 58.946 0.024 6.57 3.34 9.4
9/12/2021 9:30:00 AM 15.06 59.108 0.024 6.58 3.31 9.43
9/12/2021 9:45:00 AM 15.16 59.288 0.024 6.59 3.26 9.45
9/12/2021 10:00:00 AM 15.28 59.504 0.024 6.6 3.33 9.46
9/12/2021 10:15:00 AM 15.42 59.756 0.024 6.61 3.24 9.46
9/12/2021 10:30:00 AM 15.59 60.062 0.024 6.63 3.29 9.47
9/12/2021 10:45:00 AM 15.75 60.35 0.024 6.65 3.2 9.47
9/12/2021 11:00:00 AM 15.92 60.656 0.024 6.66 3.25 9.47
9/12/2021 11:15:00 AM 16.08 60.944 0.024 6.66 3.24 9.45
9/12/2021 11:30:00 AM 16.19 61.142 0.024 6.64 3.16 9.43
9/12/2021 11:45:00 AM 16.31 61.358 0.024 6.66 3.31 9.42
9/12/2021 12:00:00 PM 16.4 61.52 0.024 6.66 3.31 9.41
9/12/2021 12:15:00 PM 16.49 61.682 0.024 6.67 3.26 9.39
9/12/2021 12:30:00 PM 16.62 61.916 0.024 6.67 3.19 9.38
9/12/2021 12:45:00 PM 16.8 62.24 0.024 6.68 3.23 9.37
9/12/2021 1:00:00 PM 17.03 62.654 0.024 6.69 3.28 9.34
9/12/2021 1:15:00 PM 17.21 62.978 0.024 6.71 3.24 9.31
9/12/2021 1:30:00 PM 17.32 63.176 0.024 6.68 3.21 9.26
9/12/2021 1:45:00 PM 17.37 63.266 0.023 6.71 3.27 9.23
9/12/2021 2:00:00 PM 17.35 63.23 0.023 6.7 3.27 9.2
9/12/2021 2:15:00 PM 17.32 63.176 0.024 6.69 3.2 9.17
9/12/2021 2:30:00 PM 17.3 63.14 0.024 6.71 3.42 9.16
9/12/2021 2:45:00 PM 17.32 63.176 0.025 6.76 3.55 9.15
9/12/2021 3:00:00 PM 17.35 63.23 0.026 6.77 3.54 9.13
9/12/2021 3:15:00 PM 17.46 63.428 0.027 6.8 3.56 9.13
9/12/2021 3:30:00 PM 17.56 63.608 0.027 6.82 3.33 9.13
9/12/2021 3:45:00 PM 17.69 63.842 0.027 6.84 3.36 9.14
9/12/2021 4:00:00 PM 17.77 63.986 0.027 6.84 3.27 9.12
9/12/2021 4:15:00 PM 17.84 64.112 0.027 6.84 3.33 9.1
9/12/2021 4:30:00 PM 17.88 64.184 0.027 6.83 3.33 9.09
9/12/2021 4:45:00 PM 17.93 64.274 0.026 6.83 3.2 9.07
9/12/2021 5:00:00 PM 17.96 64.328 0.027 6.81 3.2 9.04
9/12/2021 5:15:00 PM 17.96 64.328 0.026 6.82 3.26 9.01
9/12/2021 5:30:00 PM 17.92 64.256 0.026 6.8 3.21 8.98
9/12/2021 5:45:00 PM 17.88 64.184 0.026 6.79 3.28 8.96
9/12/2021 6:00:00 PM 17.84 64.112 0.026 6.76 3.22 8.93
9/12/2021 6:15:00 PM 17.82 64.076 0.026 6.76 3.17 8.92
9/12/2021 6:30:00 PM 17.77 63.986 0.026 6.73 3.3 8.89
9/12/2021 6:45:00 PM 17.7 63.86 0.026 6.74 3.16 8.87
9/12/2021 7:00:00 PM 17.6 63.68 0.026 6.72 3.27 8.83
9/12/2021 7:15:00 PM 17.51 63.518 0.026 6.7 3.16 8.79
9/12/2021 7:30:00 PM 17.43 63.374 0.026 6.7 3.28 8.76
9/12/2021 7:45:00 PM 17.34 63.212 0.026 6.68 3.25 8.74
9/12/2021 8:00:00 PM 17.27 63.086 0.026 6.66 3.23 8.71
9/12/2021 8:15:00 PM 17.2 62.96 0.027 6.65 3.15 8.71
9/12/2021 8:30:00 PM 17.14 62.852 0.027 6.63 3.32 8.7
9/12/2021 8:45:00 PM 17.1 62.78 0.028 6.62 3.37 8.7
9/12/2021 9:00:00 PM 17.06 62.708 0.028 6.62 3.14 8.7
9/12/2021 9:15:00 PM 17.04 62.672 0.028 6.62 3.28 8.7
9/12/2021 9:30:00 PM 17.01 62.618 0.028 6.6 4.18 8.69
9/12/2021 9:45:00 PM 17 62.6 0.028 6.59 3.25 8.7
9/12/2021 10:00:00 PM 16.98 62.564 0.028 6.58 3.24 8.7
9/12/2021 10:15:00 PM 16.96 62.528 0.027 6.59 3.35 8.71
9/12/2021 10:30:00 PM 16.94 62.492 0.027 6.57 3.16 8.71
9/12/2021 10:45:00 PM 16.91 62.438 0.027 6.55 3.34 8.7
9/12/2021 11:00:00 PM 16.9 62.42 0.026 6.55 3.3 8.71
9/12/2021 11:15:00 PM 16.87 62.366 0.027 6.54 3.17 8.71
9/12/2021 11:30:00 PM 16.85 62.33 0.026 6.54 3.53 8.72
9/12/2021 11:45:00 PM 16.82 62.276 0.026 6.54 3.17 8.72
9/13/2021 12:00:00 AM 16.79 62.222 0.026 6.53 3.18 8.72
9/13/2021 12:15:00 AM 16.75 62.15 0.026 6.52 3.39 8.73
9/13/2021 12:30:00 AM 16.72 62.096 0.026 6.52 3.37 8.73
9/13/2021 12:45:00 AM 16.69 62.042 0.026 6.52 3.24 8.74
9/13/2021 1:00:00 AM 16.67 62.006 0.026 6.53 3.27 8.74
9/13/2021 1:15:00 AM 16.65 61.97 0.026 6.53 3.28 8.75
9/13/2021 1:30:00 AM 16.63 61.934 0.026 6.54 3.32 8.75
9/13/2021 1:45:00 AM 16.62 61.916 0.026 6.54 3.16 8.76
9/13/2021 2:00:00 AM 16.63 61.934 0.026 6.54 3.21 8.75
9/13/2021 2:15:00 AM 16.64 61.952 0.026 6.54 3.21 8.74
9/13/2021 2:30:00 AM 16.65 61.97 0.026 6.55 3.31 8.77
9/13/2021 2:45:00 AM 16.65 61.97 0.025 6.55 3.31 8.76
9/13/2021 3:00:00 AM 16.65 61.97 0.026 6.55 3.21 8.75
9/13/2021 3:15:00 AM 16.65 61.97 0.026 6.54 3.29 8.75
9/13/2021 3:30:00 AM 16.65 61.97 0.026 6.55 3.22 8.75
9/13/2021 3:45:00 AM 16.64 61.952 0.026 6.56 3.31 8.76
9/13/2021 4:00:00 AM 16.63 61.934 0.025 6.56 3.29 8.75
9/13/2021 4:15:00 AM 16.62 61.916 0.025 6.54 3.27 8.75
9/13/2021 4:30:00 AM 16.6 61.88 0.026 6.55 3.45 8.75
9/13/2021 4:45:00 AM 16.59 61.862 0.026 6.55 3.31 8.76
9/13/2021 5:00:00 AM 16.57 61.826 0.026 6.52 3.27 8.75
9/13/2021 5:15:00 AM 16.56 61.808 0.026 6.54 3.36 8.76
9/13/2021 5:30:00 AM 16.54 61.772 0.026 6.54 3.4 8.76
9/13/2021 5:45:00 AM 16.52 61.736 0.026 6.52 5 8.72
9/13/2021 6:00:00 AM 16.51 61.718 0.026 6.54 3.26 8.76
9/13/2021 6:15:00 AM 16.51 61.718 0.026 6.54 3.47 8.77
9/13/2021 6:30:00 AM 16.51 61.718 0.026 6.54 3.32 8.78
9/13/2021 6:45:00 AM 16.51 61.718 0.025 6.54 3.28 8.77
9/13/2021 7:00:00 AM 16.51 61.718 0.026 6.54 3.36 8.78
9/13/2021 7:15:00 AM 16.51 61.718 0.026 6.53 3.42 8.78
9/13/2021 7:30:00 AM 16.52 61.736 0.026 6.53 3.19 8.79
9/13/2021 7:45:00 AM 16.54 61.772 0.026 6.53 3.33 8.8
9/13/2021 8:00:00 AM 16.55 61.79 0.026 6.53 3.25 8.82
9/13/2021 8:15:00 AM 16.57 61.826 0.026 6.54 3.27 8.84
9/13/2021 8:30:00 AM 16.6 61.88 0.026 6.55 3.27 8.88
9/13/2021 8:45:00 AM 16.63 61.934 0.026 6.56 3.26 8.9
9/13/2021 9:00:00 AM 16.66 61.988 0.025 6.56 3.15 8.93
9/13/2021 9:15:00 AM 16.69 62.042 0.026 6.58 3.21 8.95
9/13/2021 9:30:00 AM 16.75 62.15 0.026 6.6 3.36 9
9/13/2021 9:45:00 AM 16.8 62.24 0.026 6.6 3.2 9.03
9/13/2021 10:00:00 AM 16.88 62.384 0.025 6.62 3.29 9.08
9/13/2021 10:15:00 AM 16.96 62.528 0.025 6.65 3.16 9.11
9/13/2021 10:30:00 AM 17.02 62.636 0.026 6.63 3.21 9.11
9/13/2021 10:45:00 AM 17.16 62.888 0.025 6.68 3.12 9.16
9/13/2021 11:00:00 AM 17.25 63.05 0.025 6.68 3.15 9.16
9/13/2021 11:15:00 AM 17.33 63.194 0.025 6.7 3.25 9.15
9/13/2021 11:30:00 AM 17.42 63.356 0.025 6.71 3.2 9.14
9/13/2021 11:45:00 AM 17.5 63.5 0.025 6.69 3.17 9.13
9/13/2021 12:00:00 PM 17.6 63.68 0.025 6.71 3.2 9.14
9/13/2021 12:15:00 PM 17.68 63.824 0.025 6.72 3.13 9.14
9/13/2021 12:30:00 PM 17.76 63.968 0.025 6.7 3.18 9.15
9/13/2021 12:45:00 PM 17.92 64.256 0.025 6.73 3.17 9.15
9/13/2021 1:00:00 PM 18.07 64.526 0.026 6.71 3.13 9.12
9/13/2021 1:15:00 PM 18.29 64.922 0.025 6.74 3.14 9.12
9/13/2021 1:30:00 PM 18.48 65.264 0.025 6.75 3.13 9.1
9/13/2021 1:45:00 PM 18.71 65.67799 0.025 6.75 3.32 9.07
9/13/2021 2:00:00 PM 18.88 65.984 0.025 6.73 3.16 9.03
9/13/2021 2:15:00 PM 19.07 66.326 0.025 6.77 3.27 9.02
9/13/2021 2:30:00 PM 19.23 66.614 0.025 6.76 3.05 8.98
9/13/2021 2:45:00 PM 19.37 66.866 0.025 6.73 3.02 8.94
9/13/2021 3:00:00 PM 19.48 67.064 0.026 6.74 3.04 8.92
9/13/2021 3:15:00 PM 19.58 67.244 0.025 6.75 3.1 8.9
9/13/2021 3:30:00 PM 19.65 67.37 0.025 6.75 3.08 8.88
9/13/2021 3:45:00 PM 19.68 67.424 0.025 6.77 2.97 8.88
9/13/2021 4:00:00 PM 19.67 67.406 0.025 6.77 3.07 8.85
9/13/2021 4:15:00 PM 19.63 67.334 0.025 6.76 3.12 8.83
9/13/2021 4:30:00 PM 19.59 67.262 0.025 6.76 3.11 8.81
9/13/2021 4:45:00 PM 19.56 67.208 0.025 6.76 3.13 8.8
9/13/2021 5:00:00 PM 19.54 67.172 0.025 6.77 3.1 8.8
9/13/2021 5:15:00 PM 19.52 67.136 0.025 6.77 3.14 8.78
9/13/2021 5:30:00 PM 19.47 67.046 0.025 6.75 3.29 8.77
9/13/2021 5:45:00 PM 19.4 66.92 0.025 6.75 3.18 8.74
9/13/2021 6:00:00 PM 19.3 66.74 0.025 6.75 2.98 8.72
9/13/2021 6:15:00 PM 19.2 66.56 0.025 6.72 3.13 8.69
9/13/2021 6:30:00 PM 19.1 66.38 0.026 6.73 3.13 8.66
9/13/2021 6:45:00 PM 19 66.2 0.026 6.69 3.2 8.61
9/13/2021 7:00:00 PM 18.9 66.02 0.026 6.69 3.17 8.58
9/13/2021 7:15:00 PM 18.8 65.84 0.026 6.65 3.13 8.53
9/13/2021 7:30:00 PM 18.72 65.696 0.026 6.65 3.18 8.5
9/13/2021 7:45:00 PM 18.65 65.57 0.026 6.63 3.19 8.46
9/13/2021 8:00:00 PM 18.59 65.462 0.026 6.65 3.18 8.46
9/13/2021 8:15:00 PM 18.53 65.354 0.026 6.63 3.23 8.44
9/13/2021 8:30:00 PM 18.47 65.246 0.026 6.63 3.14 8.44
9/13/2021 8:45:00 PM 18.42 65.156 0.026 6.62 3.32 8.43
9/13/2021 9:00:00 PM 18.37 65.066 0.027 6.61 3.44 8.43
9/13/2021 9:15:00 PM 18.31 64.958 0.026 6.61 3.4 8.43
9/13/2021 9:30:00 PM 18.26 64.868 0.027 6.61 3.25 8.44
9/13/2021 9:45:00 PM 18.2 64.76 0.027 6.61 3.2 8.45
9/13/2021 10:00:00 PM 18.13 64.634 0.027 6.6 3.35 8.46
9/13/2021 10:15:00 PM 18.07 64.526 0.026 6.61 3.33 8.47
9/13/2021 10:30:00 PM 18.02 64.436 0.026 6.61 3.2 8.48
9/13/2021 10:45:00 PM 17.97 64.346 0.027 6.6 3.35 8.48
9/13/2021 11:00:00 PM 17.92 64.256 0.026 6.6 3.15 8.49
9/13/2021 11:15:00 PM 17.88 64.184 0.026 6.59 3.17 8.5
9/13/2021 11:30:00 PM 17.83 64.094 0.027 6.59 3.21 8.51
9/13/2021 11:45:00 PM 17.78 64.004 0.026 6.6 3.36 8.53
9/14/2021 12:00:00 AM 17.74 63.932 0.026 6.6 3.28 8.55
9/14/2021 12:15:00 AM 17.69 63.842 0.027 6.59 3.2 8.54
9/14/2021 12:30:00 AM 17.66 63.788 0.027 6.58 3.26 8.55
9/14/2021 12:45:00 AM 17.63 63.734 0.027 6.59 3.25 8.55
9/14/2021 1:00:00 AM 17.6 63.68 0.027 6.59 3.29 8.57
9/14/2021 1:15:00 AM 17.58 63.644 0.027 6.6 3.3 8.57
9/14/2021 1:30:00 AM 17.56 63.608 0.027 6.6 3.31 8.58
9/14/2021 1:45:00 AM 17.54 63.572 0.027 6.6 3.33 8.58
9/14/2021 2:00:00 AM 17.52 63.536 0.027 6.6 3.31 8.59
9/14/2021 2:15:00 AM 17.49 63.482 0.027 6.6 3.29 8.6
9/14/2021 2:30:00 AM 17.47 63.446 0.027 6.6 3.25 8.6
9/14/2021 2:45:00 AM 17.44 63.392 0.027 6.59 3.26 8.6
9/14/2021 3:00:00 AM 17.42 63.356 0.027 6.59 3.25 8.61
9/14/2021 3:15:00 AM 17.4 63.32 0.027 6.58 3.3 8.6
9/14/2021 3:30:00 AM 17.38 63.284 0.027 6.59 3.42 8.61
9/14/2021 3:45:00 AM 17.35 63.23 0.027 6.57 3.2 8.62
9/14/2021 4:00:00 AM 17.32 63.176 0.027 6.57 3.26 8.61
9/14/2021 4:15:00 AM 17.29 63.122 0.026 6.56 3.28 8.61
9/14/2021 4:30:00 AM 17.26 63.068 0.027 6.58 3.26 8.62
9/14/2021 4:45:00 AM 17.22 62.996 0.027 6.57 3.25 8.63
9/14/2021 5:00:00 AM 17.18 62.924 0.027 6.57 3.3 8.64
9/14/2021 5:15:00 AM 17.15 62.87 0.027 6.57 3.29 8.64
9/14/2021 5:30:00 AM 17.13 62.834 0.027 6.57 3.44 8.64
9/14/2021 5:45:00 AM 17.1 62.78 0.027 6.57 3.27 8.65
9/14/2021 6:00:00 AM 17.08 62.744 0.027 6.57 3.3 8.66
9/14/2021 6:15:00 AM 17.05 62.69 0.027 6.57 3.26 8.66
9/14/2021 6:30:00 AM 17.01 62.618 0.027 6.57 3.22 8.67
9/14/2021 6:45:00 AM 16.99 62.582 0.027 6.57 3.57 8.67
9/14/2021 7:00:00 AM 16.97 62.546 0.027 6.58 3.36 8.69
9/14/2021 7:15:00 AM 16.95 62.51 0.027 6.58 3.36 8.7
9/14/2021 7:30:00 AM 16.94 62.492 0.027 6.59 3.33 8.71
9/14/2021 7:45:00 AM 16.94 62.492 0.027 6.59 3.3 8.73
9/14/2021 8:00:00 AM 16.94 62.492 0.027 6.59 3.46 8.75
9/14/2021 8:15:00 AM 16.95 62.51 0.027 6.6 3.37 8.78
9/14/2021 8:30:00 AM 16.96 62.528 0.026 6.62 3.48 8.81
9/14/2021 8:45:00 AM 16.99 62.582 0.026 6.62 3.28 8.86
9/14/2021 9:00:00 AM 17.02 62.636 0.027 6.63 3.23 8.89
9/14/2021 9:15:00 AM 17.05 62.69 0.027 6.63 3.29 8.93
9/14/2021 9:30:00 AM 17.11 62.798 0.027 6.66 3.29 8.99
9/14/2021 9:45:00 AM 17.18 62.924 0.027 6.66 3.29 9.02
9/14/2021 10:00:00 AM 17.28 63.104 0.026 6.69 3.24 9.07
9/14/2021 10:15:00 AM 17.38 63.284 0.027 6.67 3.16 9.1
9/14/2021 10:30:00 AM 17.51 63.518 0.027 6.7 3.27 9.11
9/14/2021 10:45:00 AM 17.65 63.77 0.027 6.71 3.19 9.12
9/14/2021 11:00:00 AM 17.85 64.13 0.026 6.75 3.15 9.14
9/14/2021 11:15:00 AM 18.03 64.454 0.026 6.73 3.24 9.13
9/14/2021 11:30:00 AM 18.2 64.76 0.026 6.73 3.22 9.12
9/14/2021 11:45:00 AM 18.33 64.994 0.027 6.73 3.16 9.11
9/14/2021 12:00:00 PM 18.45 65.21 0.026 6.76 3.14 9.1
9/14/2021 12:15:00 PM 18.52 65.336 0.026 6.77 3.06 9.08
9/14/2021 12:30:00 PM 18.61 65.498 0.026 6.76 3.1 9.07
9/14/2021 12:45:00 PM 18.7 65.66 0.026 6.77 3.07 9.06
9/14/2021 1:00:00 PM 18.81 65.858 0.026 6.79 3.03 9.05
9/14/2021 1:15:00 PM 18.97 66.146 0.026 6.8 3.03 9.03
9/14/2021 1:30:00 PM 19.14 66.452 0.026 6.81 3.02 9.02
9/14/2021 1:45:00 PM 19.31 66.758 0.027 6.76 3.11 8.97
9/14/2021 2:00:00 PM 19.48 67.064 0.026 6.76 3.01 8.94
9/14/2021 2:15:00 PM 19.63 67.334 0.026 6.8 3.12 8.92
9/14/2021 2:30:00 PM 19.73 67.514 0.026 6.82 3 8.91
9/14/2021 2:45:00 PM 19.8 67.64 0.027 6.78 2.92 8.86
9/14/2021 3:00:00 PM 19.89 67.802 0.026 6.79 3.02 8.86
9/14/2021 3:15:00 PM 19.99 67.982 0.026 6.82 2.98 8.85
9/14/2021 3:30:00 PM 20.11 68.198 0.026 6.85 2.99 8.83
9/14/2021 3:45:00 PM 20.18 68.324 0.026 6.8 2.96 8.77
9/14/2021 4:00:00 PM 20.25 68.45 0.026 6.82 2.96 8.78
9/14/2021 4:15:00 PM 20.28 68.504 0.026 6.81 3.14 8.77
9/14/2021 4:30:00 PM 20.28 68.504 0.026 6.82 2.88 8.74
9/14/2021 4:45:00 PM 20.28 68.504 0.026 6.82 3.09 8.73
9/14/2021 5:00:00 PM 20.24 68.432 0.026 6.82 2.94 8.71
9/14/2021 5:15:00 PM 20.17 68.306 0.026 6.82 2.98 8.68
9/14/2021 5:30:00 PM 20.07 68.126 0.026 6.81 3.01 8.65
9/14/2021 5:45:00 PM 19.96 67.92799 0.026 6.78 2.98 8.61
9/14/2021 6:00:00 PM 19.86 67.748 0.026 6.78 2.94 8.59
9/14/2021 6:15:00 PM 19.77 67.586 0.026 6.73 3.17 8.55
9/14/2021 6:30:00 PM 19.68 67.424 0.027 6.74 3.06 8.54
9/14/2021 6:45:00 PM 19.61 67.298 0.027 6.75 2.99 8.52
9/14/2021 7:00:00 PM 19.52 67.136 0.027 6.73 2.9 8.48
9/14/2021 7:15:00 PM 19.44 66.992 0.027 6.72 3.11 8.45
9/14/2021 7:30:00 PM 19.34 66.812 0.027 6.71 3.14 8.41
9/14/2021 7:45:00 PM 19.23 66.614 0.027 6.69 3.07 8.37
9/14/2021 8:00:00 PM 19.14 66.452 0.028 6.67 3.39 8.33
9/14/2021 8:15:00 PM 19.04 66.272 0.028 6.65 3.13 8.32
9/14/2021 8:30:00 PM 18.95 66.11 0.028 6.66 3.24 8.31
9/14/2021 8:45:00 PM 18.87 65.966 0.027 6.67 3.2 8.32
9/14/2021 9:00:00 PM 18.8 65.84 0.027 6.65 3.22 8.31
9/14/2021 9:15:00 PM 18.73 65.714 0.028 6.64 3.21 8.31
9/14/2021 9:30:00 PM 18.67 65.606 0.028 6.65 3.17 8.32
9/14/2021 9:45:00 PM 18.61 65.498 0.028 6.63 3.66 8.31
9/14/2021 10:00:00 PM 18.55 65.39 0.027 6.62 7.13 8.31
9/14/2021 10:15:00 PM 18.49 65.282 0.028 6.64 3 8.35
9/14/2021 10:30:00 PM 18.44 65.192 0.028 6.64 2.94 8.35
9/14/2021 10:45:00 PM 18.38 65.084 0.028 6.63 3.03 8.36
9/14/2021 11:00:00 PM 18.32 64.976 0.028 6.63 2.93 8.37
9/14/2021 11:15:00 PM 18.26 64.868 0.028 6.63 3.04 8.38
9/14/2021 11:30:00 PM 18.21 64.778 0.028 6.62 2.94 8.38
9/14/2021 11:45:00 PM 18.15 64.67 0.028 6.63 2.95 8.41
9/15/2021 12:00:00 AM 18.09 64.562 0.028 6.62 3.03 8.4
9/15/2021 12:15:00 AM 18.04 64.472 0.028 6.62 2.95 8.42
9/15/2021 12:30:00 AM 18 64.4 0.028 6.62 2.87 8.43
9/15/2021 12:45:00 AM 17.96 64.328 0.028 6.62 3.02 8.44
9/15/2021 1:00:00 AM 17.92 64.256 0.028 6.6 3 8.43
9/15/2021 1:15:00 AM 17.88 64.184 0.028 6.61 3.01 8.45
9/15/2021 1:30:00 AM 17.84 64.112 0.028 6.61 3.07 8.45
9/15/2021 1:45:00 AM 17.8 64.04 0.028 6.6 2.95 8.45
9/15/2021 2:00:00 AM 17.77 63.986 0.028 6.61 2.99 8.47
9/15/2021 2:15:00 AM 17.74 63.932 0.028 6.61 3.06 8.47
9/15/2021 2:30:00 AM 17.72 63.896 0.028 6.61 3.05 8.47
9/15/2021 2:45:00 AM 17.71 63.878 0.028 6.6 3.07 8.48
9/15/2021 3:00:00 AM 17.71 63.878 0.028 6.61 3.04 8.48
9/15/2021 3:15:00 AM 17.72 63.896 0.028 6.59 3.06 8.48
9/15/2021 3:30:00 AM 17.73 63.914 0.028 6.6 2.86 8.48
9/15/2021 3:45:00 AM 17.75 63.95 0.028 6.61 2.91 8.48
9/15/2021 4:00:00 AM 17.77 63.986 0.028 6.62 3.14 8.48
9/15/2021 4:15:00 AM 17.8 64.04 0.028 6.62 3.07 8.47
9/15/2021 4:30:00 AM 17.82 64.076 0.028 6.61 3.06 8.47
9/15/2021 4:45:00 AM 17.83 64.094 0.028 6.62 3.03 8.46
9/15/2021 5:00:00 AM 17.85 64.13 0.028 6.62 3.02 8.47
9/15/2021 5:15:00 AM 17.88 64.184 0.028 6.62 3.81 8.46
9/15/2021 5:30:00 AM 17.89 64.202 0.029 6.65 6.82 8.45
9/15/2021 5:45:00 AM 17.91 64.238 0.029 6.64 5.92 8.45
9/15/2021 6:00:00 AM 17.92 64.256 0.028 6.64 4.48 8.43
9/15/2021 6:15:00 AM 17.92 64.256 0.028 6.63 4.15 8.43
9/15/2021 6:30:00 AM 17.91 64.238 0.028 6.61 3.76 8.42
9/15/2021 6:45:00 AM 17.89 64.202 0.028 6.6 3.51 8.42
9/15/2021 7:00:00 AM 17.86 64.148 0.028 6.6 3.4 8.43
9/15/2021 7:15:00 AM 17.85 64.13 0.028 6.6 3.53 8.45
9/15/2021 7:30:00 AM 17.83 64.094 0.028 6.6 3.24 8.48
9/15/2021 7:45:00 AM 17.83 64.094 0.028 6.62 3.29 8.52
9/15/2021 8:00:00 AM 17.83 64.094 0.028 6.62 3.29 8.56
9/15/2021 8:15:00 AM 17.84 64.112 0.028 6.63 3.14 8.61
9/15/2021 8:30:00 AM 17.87 64.166 0.028 6.64 3.2 8.66
9/15/2021 8:45:00 AM 17.9 64.22 0.028 6.65 3.24 8.69
9/15/2021 9:00:00 AM 17.96 64.328 0.028 6.67 3.26 8.73
9/15/2021 9:15:00 AM 18.04 64.472 0.028 6.69 3.4 8.78
9/15/2021 9:30:00 AM 18.12 64.616 0.028 6.71 3.39 8.82
9/15/2021 9:45:00 AM 18.23 64.814 0.028 6.72 3.23 8.85
9/15/2021 10:00:00 AM 18.35 65.03 0.028 6.72 3.22 8.86
9/15/2021 10:15:00 AM 18.47 65.246 0.028 6.75 3.11 8.89
9/15/2021 10:30:00 AM 18.63 65.534 0.027 6.77 3.21 8.9
9/15/2021 10:45:00 AM 18.79 65.82201 0.027 6.77 2.97 8.89
9/15/2021 11:00:00 AM 18.93 66.074 0.027 6.76 2.98 8.89
9/15/2021 11:15:00 AM 19.1 66.38 0.027 6.77 2.98 8.87
9/15/2021 11:30:00 AM 19.26 66.668 0.027 6.78 2.97 8.87
9/15/2021 11:45:00 AM 19.42 66.956 0.027 6.79 2.85 8.85
9/15/2021 12:00:00 PM 19.52 67.136 0.027 6.79 3.03 8.84
9/15/2021 12:15:00 PM 19.68 67.424 0.027 6.81 2.97 8.84
9/15/2021 12:30:00 PM 19.84 67.712 0.027 6.82 2.85 8.83
9/15/2021 12:45:00 PM 20 68 0.027 6.82 2.84 8.82
9/15/2021 1:00:00 PM 20.14 68.252 0.027 6.81 2.91 8.8
9/15/2021 1:15:00 PM 20.32 68.576 0.027 6.82 2.88 8.79
9/15/2021 1:30:00 PM 20.41 68.738 0.026 6.85 2.81 8.76
9/15/2021 1:45:00 PM 20.52 68.936 0.026 6.84 2.91 8.73
9/15/2021 2:00:00 PM 20.56 69.008 0.026 6.84 2.9 8.69
9/15/2021 2:15:00 PM 20.53 68.954 0.027 6.83 2.83 8.61
9/15/2021 2:30:00 PM 20.41 68.738 0.026 6.78 3.01 8.53
9/15/2021 2:45:00 PM 20.24 68.432 0.028 6.81 12.87 8.45
9/15/2021 3:00:00 PM 20.01 68.018 0.033 6.83 15.09 8.36
9/15/2021 3:15:00 PM 19.79 67.622 0.033 6.82 19.64 8.32
9/15/2021 3:30:00 PM 19.56 67.208 0.037 6.85 37.46 8.28
9/15/2021 3:45:00 PM 19.37 66.866 0.035 6.82 27.96 8.27
9/15/2021 4:00:00 PM 19.2 66.56 0.032 6.74 15.26 8.28
9/15/2021 4:15:00 PM 19.08 66.344 0.03 6.69 12.42 8.28
9/15/2021 4:30:00 PM 18.93 66.074 0.031 6.7 19.81 8.31
9/15/2021 4:45:00 PM 18.62 65.516 0.035 6.73 47.12 8.4
9/15/2021 5:00:00 PM 18.47 65.246 0.032 6.62 39.08 8.44
9/15/2021 5:15:00 PM 18.3 64.94 0.028 6.53 60.01 8.49
9/15/2021 5:30:00 PM 18.11 64.598 0.024 6.4 49.06 8.55
9/15/2021 5:45:00 PM 17.97 64.346 0.022 6.29 36.75 8.57
9/15/2021 6:00:00 PM 17.89 64.202 0.021 6.26 30.36 8.59
9/15/2021 6:15:00 PM 17.88 64.184 0.021 6.23 42.33 8.61
9/15/2021 6:30:00 PM 17.88 64.184 0.021 6.19 40.11 8.61
9/15/2021 6:45:00 PM 17.9 64.22 0.021 6.19 44.85 8.62
9/15/2021 7:00:00 PM 17.94 64.292 0.021 6.21 37.64 8.62
9/15/2021 7:15:00 PM 17.97 64.346 0.021 6.2 31.53 8.62
9/15/2021 7:30:00 PM 17.98 64.364 0.021 6.22 31.53 8.62
9/15/2021 7:45:00 PM 17.97 64.346 0.021 6.21 22.94 8.62
9/15/2021 8:00:00 PM 17.94 64.292 0.021 6.21 21.95 8.62
9/15/2021 8:15:00 PM 17.89 64.202 0.022 6.22 21.47 8.63
9/15/2021 8:30:00 PM 17.84 64.112 0.014 6.22 20.79 8.65
9/15/2021 8:45:00 PM 17.79 64.022 0.021 6.22 20.05 8.65
9/15/2021 9:00:00 PM 17.75 63.95 0.021 6.21 18.6 8.66
9/15/2021 9:15:00 PM 17.71 63.878 0.021 6.18 17.4 8.67
9/15/2021 9:30:00 PM 17.68 63.824 0.02 6.18 16.62 8.67
9/15/2021 9:45:00 PM 17.65 63.77 0.02 6.17 16.03 8.68
9/15/2021 10:00:00 PM 17.63 63.734 0.02 6.15 15.85 8.68
9/15/2021 10:15:00 PM 17.61 63.698 0.019 6.15 14.85 8.68
9/15/2021 10:30:00 PM 17.6 63.68 0.019 6.13 13.84 8.68
9/15/2021 10:45:00 PM 17.58 63.644 0.019 6.1 13.8 8.69
9/15/2021 11:00:00 PM 17.56 63.608 0.019 6.09 13.31 8.7
9/15/2021 11:15:00 PM 17.54 63.572 0.019 6.09 12.83 8.7
9/15/2021 11:30:00 PM 17.53 63.554 0.018 6.08 12.49 8.7
9/15/2021 11:45:00 PM 17.51 63.518 0.018 6.07 11.92 8.7
9/16/2021 12:00:00 AM 17.5 63.5 0.018 6.07 11.71 8.71
9/16/2021 12:15:00 AM 17.49 63.482 0.018 6.06 11.15 8.71
9/16/2021 12:30:00 AM 17.48 63.464 0.018 6.05 10.62 8.71
9/16/2021 12:45:00 AM 17.46 63.428 0.018 6.06 10.27 8.71
9/16/2021 1:00:00 AM 17.45 63.41 0.018 5.84 10.56 8.72
9/16/2021 1:15:00 AM 17.43 63.374 0.018 5.85 10.55 8.72
9/16/2021 1:30:00 AM 17.42 63.356 0.018 5.89 10.13 8.72
9/16/2021 1:45:00 AM 17.4 63.32 0.018 5.91 10.19 8.72
9/16/2021 2:00:00 AM 17.39 63.302 0.018 5.93 9.93 8.72
9/16/2021 2:15:00 AM 17.37 63.266 0.018 5.92 12.1 8.73
9/16/2021 2:30:00 AM 17.36 63.248 0.017 5.92 10.62 8.73
9/16/2021 2:45:00 AM 17.35 63.23 0.017 5.93 10.22 8.73
9/16/2021 3:00:00 AM 17.34 63.212 0.017 5.94 10.03 8.73
9/16/2021 3:15:00 AM 17.33 63.194 0.017 5.93 9.86 8.74
9/16/2021 3:30:00 AM 17.32 63.176 0.017 5.93 9.46 8.74
9/16/2021 3:45:00 AM 17.31 63.158 0.017 5.93 9.52 8.73
9/16/2021 4:00:00 AM 17.29 63.122 0.017 5.95 9.49 8.74
9/16/2021 4:15:00 AM 17.28 63.104 0.017 5.97 9.39 8.74
9/16/2021 4:30:00 AM 17.26 63.068 0.017 5.97 9.13 8.75
9/16/2021 4:45:00 AM 17.24 63.032 0.017 5.98 9.49 8.75
9/16/2021 5:00:00 AM 17.23 63.014 0.017 5.97 8.93 8.75
9/16/2021 5:15:00 AM 17.21 62.978 0.017 5.97 8.83 8.76
9/16/2021 5:30:00 AM 17.19 62.942 0.017 5.99 8.71 8.76
9/16/2021 5:45:00 AM 17.17 62.906 0.017 6 8.56 8.76
9/16/2021 6:00:00 AM 17.15 62.87 0.017 5.99 8.36 8.77
9/16/2021 6:15:00 AM 17.13 62.834 0.017 6 8.44 8.77
9/16/2021 6:30:00 AM 17.11 62.798 0.017 5.99 7.77 8.78
9/16/2021 6:45:00 AM 17.1 62.78 0.017 6.01 7.75 8.78
9/16/2021 7:00:00 AM 17.08 62.744 0.017 6.01 8.17 8.78
9/16/2021 7:15:00 AM 17.06 62.708 0.017 6 8.38 8.78
9/16/2021 7:30:00 AM 17.05 62.69 0.017 6.01 7.62 8.79
9/16/2021 7:45:00 AM 17.03 62.654 0.017 6.01 7.39 8.8
9/16/2021 8:00:00 AM 17.01 62.618 0.017 6.02 7.8 8.81
9/16/2021 8:15:00 AM 17 62.6 0.017 6.02 7.51 8.81
9/16/2021 8:30:00 AM 16.98 62.564 0.017 6.03 7.18 8.82
9/16/2021 8:45:00 AM 16.97 62.546 0.017 6.03 7.38 8.83
9/16/2021 9:00:00 AM 16.96 62.528 0.017 6.04 7.26 8.83
9/16/2021 9:15:00 AM 16.95 62.51 0.017 6.04 7.06 8.84
9/16/2021 9:30:00 AM 16.94 62.492 0.017 6.05 7.04 8.85
9/16/2021 9:45:00 AM 16.93 62.474 0.017 6.05 6.74 8.86
9/16/2021 10:00:00 AM 16.93 62.474 0.017 6.06 6.8 8.87
9/16/2021 10:15:00 AM 16.93 62.474 0.017 6.05 6.51 8.88
9/16/2021 10:30:00 AM 16.92 62.456 0.017 6.07 6.66 8.88
9/16/2021 10:45:00 AM 16.93 62.474 0.017 6.07 6.55 8.89
9/16/2021 11:00:00 AM 16.93 62.474 0.017 6.08 6.42 8.89
9/16/2021 11:15:00 AM 16.94 62.492 0.017 6.08 6.27 8.9
9/16/2021 11:30:00 AM 16.96 62.528 0.017 6.08 6.22 8.91
9/16/2021 11:45:00 AM 16.98 62.564 0.017 6.09 6.23 8.92
9/16/2021 12:00:00 PM 17.01 62.618 0.017 6.1 6.07 8.93
9/16/2021 12:15:00 PM 17.04 62.672 0.017 6.11 5.87 8.93
9/16/2021 12:30:00 PM 17.05 62.69 0.017 6.11 6.07 8.93
9/16/2021 12:45:00 PM 17.09 62.762 0.017 6.11 5.89 8.94
9/16/2021 1:00:00 PM 17.13 62.834 0.017 6.12 5.84 8.94
9/16/2021 1:15:00 PM 17.17 62.906 0.017 6.13 5.72 8.95
9/16/2021 1:30:00 PM 17.19 62.942 0.017 6.13 5.9 8.94
9/16/2021 1:45:00 PM 17.26 63.068 0.017 6.14 5.96 8.95
9/16/2021 2:00:00 PM 17.33 63.194 0.017 6.14 5.92 8.94
9/16/2021 2:15:00 PM 17.35 63.23 0.017 6.14 5.68 8.93
9/16/2021 2:30:00 PM 17.35 63.23 0.017 6.15 5.6 8.92
9/16/2021 2:45:00 PM 17.38 63.284 0.017 6.14 5.68 8.91
9/16/2021 3:00:00 PM 17.41 63.338 0.017 6.15 5.71 8.91
9/16/2021 3:15:00 PM 17.43 63.374 0.017 6.14 5.63 8.9
9/16/2021 3:30:00 PM 17.47 63.446 0.017 6.15 5.57 8.9
9/16/2021 3:45:00 PM 17.51 63.518 0.017 6.15 5.47 8.89
9/16/2021 4:00:00 PM 17.54 63.572 0.017 6.15 5.52 8.88
9/16/2021 4:15:00 PM 17.56 63.608 0.017 6.15 5.55 8.87
9/16/2021 4:30:00 PM 17.58 63.644 0.017 6.15 5.49 8.85
9/16/2021 4:45:00 PM 17.58 63.644 0.017 6.15 5.45 8.82
9/16/2021 5:00:00 PM 17.58 63.644 0.017 6.15 5.28 8.82
9/16/2021 5:15:00 PM 17.59 63.662 0.017 6.15 5.23 8.82
9/16/2021 5:30:00 PM 17.59 63.662 0.017 6.15 5.79 8.81
9/16/2021 5:45:00 PM 17.59 63.662 0.017 6.15 5.18 8.8
9/16/2021 6:00:00 PM 17.59 63.662 0.017 6.14 5.38 8.79
9/16/2021 6:15:00 PM 17.58 63.644 0.018 6.14 5.07 8.78
9/16/2021 6:30:00 PM 17.58 63.644 0.018 6.16 5.09 8.77
9/16/2021 6:45:00 PM 17.57 63.626 0.018 6.14 5.27 8.77
9/16/2021 7:00:00 PM 17.56 63.608 0.018 6.14 5 8.76
9/16/2021 7:15:00 PM 17.55 63.59 0.018 6.13 5 8.76
9/16/2021 7:30:00 PM 17.53 63.554 0.018 6.13 4.98 8.75
9/16/2021 7:45:00 PM 17.51 63.518 0.018 6.13 5.23 8.75
9/16/2021 8:00:00 PM 17.5 63.5 0.018 6.13 5.03 8.75
9/16/2021 8:15:00 PM 17.48 63.464 0.018 6.13 5.08 8.75
9/16/2021 8:30:00 PM 17.47 63.446 0.018 6.13 5.32 8.76
9/16/2021 8:45:00 PM 17.45 63.41 0.018 6.14 5.25 8.76
9/16/2021 9:00:00 PM 17.44 63.392 0.018 6.14 5.24 8.77
9/16/2021 9:15:00 PM 17.43 63.374 0.018 6.14 5.33 8.77
9/16/2021 9:30:00 PM 17.41 63.338 0.018 6.13 5.27 8.77
9/16/2021 9:45:00 PM 17.4 63.32 0.018 6.13 5.07 8.77
9/16/2021 10:00:00 PM 17.39 63.302 0.018 6.13 5.15 8.78
9/16/2021 10:15:00 PM 17.38 63.284 0.018 6.14 5 8.78
9/16/2021 10:30:00 PM 17.36 63.248 0.018 6.14 5.13 8.78
9/16/2021 10:45:00 PM 17.35 63.23 0.018 6.13 4.93 8.78
9/16/2021 11:00:00 PM 17.34 63.212 0.018 6.15 4.87 8.79
9/16/2021 11:15:00 PM 17.32 63.176 0.018 6.15 4.74 8.79
9/16/2021 11:30:00 PM 17.3 63.14 0.018 6.15 4.62 8.79
9/16/2021 11:45:00 PM 17.29 63.122 0.018 6.16 4.88 8.8
9/17/2021 12:00:00 AM 17.27 63.086 0.018 6.16 4.55 8.8
9/17/2021 12:15:00 AM 17.26 63.068 0.018 6.16 4.45 8.8
9/17/2021 12:30:00 AM 17.24 63.032 0.018 6.16 4.59 8.8
9/17/2021 12:45:00 AM 17.23 63.014 0.018 6.16 4.66 8.8
9/17/2021 1:00:00 AM 17.21 62.978 0.018 6.16 4.56 8.81
9/17/2021 1:15:00 AM 17.2 62.96 0.018 6.17 4.62 8.81
9/17/2021 1:30:00 AM 17.19 62.942 0.018 6.16 4.65 8.81
9/17/2021 1:45:00 AM 17.17 62.906 0.018 6.17 4.4 8.81
9/17/2021 2:00:00 AM 17.16 62.888 0.018 6.16 4.6 8.81
9/17/2021 2:15:00 AM 17.15 62.87 0.018 6.16 4.4 8.82
9/17/2021 2:30:00 AM 17.14 62.852 0.018 6.17 4.57 8.82
9/17/2021 2:45:00 AM 17.13 62.834 0.018 6.17 4.59 8.82
9/17/2021 3:00:00 AM 17.12 62.816 0.018 6.16 4.44 8.82
9/17/2021 3:15:00 AM 17.11 62.798 0.018 6.18 4.31 8.82
9/17/2021 3:30:00 AM 17.1 62.78 0.018 6.17 4.39 8.82
9/17/2021 3:45:00 AM 17.09 62.762 0.018 6.17 4.4 8.82
9/17/2021 4:00:00 AM 17.08 62.744 0.018 6.17 4.27 8.82
9/17/2021 4:15:00 AM 17.07 62.726 0.018 6.16 4.28 8.83
9/17/2021 4:30:00 AM 17.06 62.708 0.018 6.18 4.22 8.83
9/17/2021 4:45:00 AM 17.05 62.69 0.018 6.17 4.27 8.83
9/17/2021 5:00:00 AM 17.04 62.672 0.018 6.17 4.37 8.83
9/17/2021 5:15:00 AM 17.03 62.654 0.018 6.17 4.23 8.83
9/17/2021 5:30:00 AM 17.03 62.654 0.018 6.16 4.27 8.83
9/17/2021 5:45:00 AM 17.02 62.636 0.019 6.15 4.12 8.84
9/17/2021 6:00:00 AM 17.01 62.618 0.019 6.16 4.13 8.84
9/17/2021 6:15:00 AM 17 62.6 0.019 6.16 4.13 8.84
9/17/2021 6:30:00 AM 16.99 62.582 0.019 6.16 4.25 8.84
9/17/2021 6:45:00 AM 16.98 62.564 0.019 6.15 4.25 8.85
9/17/2021 7:00:00 AM 16.97 62.546 0.019 6.15 4.16 8.85
9/17/2021 7:15:00 AM 16.97 62.546 0.019 6.15 4.13 8.85
9/17/2021 7:30:00 AM 16.97 62.546 0.019 6.15 4.07 8.86
9/17/2021 7:45:00 AM 16.97 62.546 0.019 6.16 3.98 8.89
9/17/2021 8:00:00 AM 16.97 62.546 0.019 6.17 4.1 8.89
9/17/2021 8:15:00 AM 16.97 62.546 0.019 6.18 3.96 8.9
9/17/2021 8:30:00 AM 16.97 62.546 0.019 6.19 4.02 8.91
9/17/2021 8:45:00 AM 16.98 62.564 0.019 6.2 3.87 8.91
9/17/2021 9:00:00 AM 16.98 62.564 0.019 6.21 4.02 8.93
9/17/2021 9:15:00 AM 16.99 62.582 0.019 6.22 3.92 8.93
9/17/2021 9:30:00 AM 17 62.6 0.019 6.24 3.89 8.94
9/17/2021 9:45:00 AM 17.01 62.618 0.019 6.25 3.85 8.96
9/17/2021 10:00:00 AM 17.03 62.654 0.019 6.26 3.96 8.97
9/17/2021 10:15:00 AM 17.06 62.708 0.019 6.27 3.94 8.98
9/17/2021 10:30:00 AM 17.1 62.78 0.019 6.27 4 9
9/17/2021 10:45:00 AM 17.12 62.816 0.019 6.27 3.82 9.01
9/17/2021 11:00:00 AM 17.14 62.852 0.019 6.29 3.72 9.01
9/17/2021 11:15:00 AM 17.17 62.906 0.019 6.29 3.87 9.01
9/17/2021 11:30:00 AM 17.18 62.924 0.019 6.3 4.23 9.01
9/17/2021 11:45:00 AM 17.22 62.996 0.019 6.3 3.8 9.02
9/17/2021 12:00:00 PM 17.26 63.068 0.019 6.31 3.74 9.03
9/17/2021 12:15:00 PM 17.3 63.14 0.019 6.3 3.74 9.03
9/17/2021 12:30:00 PM 17.33 63.194 0.019 6.31 3.74 9.02
9/17/2021 12:45:00 PM 17.34 63.212 0.019 6.31 3.67 9.01
9/17/2021 1:00:00 PM 17.38 63.284 0.019 6.32 3.73 9.01
9/17/2021 1:15:00 PM 17.42 63.356 0.019 6.33 3.62 9.02
9/17/2021 1:30:00 PM 17.46 63.428 0.019 6.33 3.73 9.02
9/17/2021 1:45:00 PM 17.51 63.518 0.019 6.34 3.72 9.02
9/17/2021 2:00:00 PM 17.58 63.644 0.019 6.34 3.71 9.02
9/17/2021 2:15:00 PM 17.62 63.716 0.019 6.34 3.6 9.01
9/17/2021 2:30:00 PM 17.65 63.77 0.019 6.34 3.69 9
9/17/2021 2:45:00 PM 17.67 63.806 0.019 6.34 3.67 8.98
9/17/2021 3:00:00 PM 17.71 63.878 0.019 6.34 3.51 8.97
9/17/2021 3:15:00 PM 17.73 63.914 0.019 6.35 3.45 8.97
9/17/2021 3:30:00 PM 17.76 63.968 0.019 6.36 3.64 8.96
9/17/2021 3:45:00 PM 17.78 64.004 0.019 6.34 3.58 8.95
9/17/2021 4:00:00 PM 17.81 64.058 0.019 6.34 3.52 8.95
9/17/2021 4:15:00 PM 17.84 64.112 0.019 6.34 3.42 8.95
9/17/2021 4:30:00 PM 17.88 64.184 0.019 6.35 3.48 8.92
9/17/2021 4:45:00 PM 17.94 64.292 0.019 6.35 3.47 8.91
9/17/2021 5:00:00 PM 17.92 64.256 0.019 6.35 3.41 8.89
9/17/2021 5:15:00 PM 17.92 64.256 0.019 6.34 3.42 8.86
9/17/2021 5:30:00 PM 17.91 64.238 0.019 6.34 3.42 8.85
9/17/2021 5:45:00 PM 17.91 64.238 0.019 6.34 3.4 8.85
9/17/2021 6:00:00 PM 17.9 64.22 0.019 6.33 3.41 8.83
9/17/2021 6:15:00 PM 17.87 64.166 0.02 6.31 3.5 8.79
9/17/2021 6:30:00 PM 17.84 64.112 0.019 6.32 3.5 8.76
9/17/2021 6:45:00 PM 17.82 64.076 0.02 6.3 3.53 8.74
9/17/2021 7:00:00 PM 17.81 64.058 0.02 6.29 3.34 8.73
9/17/2021 7:15:00 PM 17.79 64.022 0.02 6.28 3.4 8.72
9/17/2021 7:30:00 PM 17.77 63.986 0.02 6.27 3.54 8.7
9/17/2021 7:45:00 PM 17.74 63.932 0.02 6.27 3.51 8.7
9/17/2021 8:00:00 PM 17.71 63.878 0.02 6.26 3.45 8.7
9/17/2021 8:15:00 PM 17.69 63.842 0.02 6.26 3.61 8.69
9/17/2021 8:30:00 PM 17.66 63.788 0.02 6.25 3.52 8.7
9/17/2021 8:45:00 PM 17.64 63.752 0.02 6.25 3.49 8.7
9/17/2021 9:00:00 PM 17.61 63.698 0.02 6.25 3.56 8.7
9/17/2021 9:15:00 PM 17.58 63.644 0.02 6.26 3.52 8.7
9/17/2021 9:30:00 PM 17.55 63.59 0.02 6.26 5 8.71
9/17/2021 9:45:00 PM 17.52 63.536 0.02 6.26 3.93 8.71
9/17/2021 10:00:00 PM 17.49 63.482 0.02 6.26 3.58 8.72
9/17/2021 10:15:00 PM 17.45 63.41 0.02 6.26 3.72 8.72
9/17/2021 10:30:00 PM 17.42 63.356 0.02 6.26 3.65 8.73
9/17/2021 10:45:00 PM 17.39 63.302 0.02 6.26 3.55 8.73
9/17/2021 11:00:00 PM 17.35 63.23 0.02 6.26 3.65 8.73
9/17/2021 11:15:00 PM 17.32 63.176 0.02 6.26 3.56 8.74
9/17/2021 11:30:00 PM 17.3 63.14 0.02 6.26 3.57 8.74
9/17/2021 11:45:00 PM 17.27 63.086 0.02 6.26 3.42 8.75
9/18/2021 12:00:00 AM 17.24 63.032 0.02 6.27 3.44 8.75
9/18/2021 12:15:00 AM 17.22 62.996 0.02 6.27 3.49 8.75
9/18/2021 12:30:00 AM 17.2 62.96 0.02 6.27 3.48 8.76
9/18/2021 12:45:00 AM 17.18 62.924 0.02 6.27 3.35 8.76
9/18/2021 1:00:00 AM 17.16 62.888 0.02 6.27 3.55 8.77
9/18/2021 1:15:00 AM 17.13 62.834 0.02 6.27 3.53 8.77
9/18/2021 1:30:00 AM 17.09 62.762 0.02 6.27 3.52 8.77
9/18/2021 1:45:00 AM 17.06 62.708 0.02 6.27 3.45 8.78
9/18/2021 2:00:00 AM 17.04 62.672 0.02 6.27 3.35 8.78
9/18/2021 2:15:00 AM 17.02 62.636 0.02 6.27 3.48 8.79
9/18/2021 2:30:00 AM 17.01 62.618 0.02 6.26 3.43 8.78
9/18/2021 2:45:00 AM 17 62.6 0.02 6.27 3.44 8.79
9/18/2021 3:00:00 AM 16.98 62.564 0.02 6.27 3.37 8.8
9/18/2021 3:15:00 AM 16.97 62.546 0.02 6.28 3.45 8.8
9/18/2021 3:30:00 AM 16.95 62.51 0.02 6.27 3.43 8.8
9/18/2021 3:45:00 AM 16.94 62.492 0.02 6.27 3.36 8.79
9/18/2021 4:00:00 AM 16.92 62.456 0.02 6.28 3.51 8.8
9/18/2021 4:15:00 AM 16.91 62.438 0.02 6.28 3.35 8.81
9/18/2021 4:30:00 AM 16.9 62.42 0.021 6.27 3.31 8.81
9/18/2021 4:45:00 AM 16.89 62.402 0.021 6.28 3.32 8.8
9/18/2021 5:00:00 AM 16.89 62.402 0.021 6.28 3.26 8.81
9/18/2021 5:15:00 AM 16.88 62.384 0.021 6.27 3.38 8.81
9/18/2021 5:30:00 AM 16.87 62.366 0.021 6.27 3.42 8.8
9/18/2021 5:45:00 AM 16.87 62.366 0.021 6.27 3.27 8.81
9/18/2021 6:00:00 AM 16.86 62.348 0.021 6.27 3.38 8.81
9/18/2021 6:15:00 AM 16.86 62.348 0.021 6.27 3.3 8.8
9/18/2021 6:30:00 AM 16.85 62.33 0.021 6.27 3.33 8.81
9/18/2021 6:45:00 AM 16.85 62.33 0.021 6.27 3.22 8.82
9/18/2021 7:00:00 AM 16.85 62.33 0.021 6.27 3.63 8.81
9/18/2021 7:15:00 AM 16.84 62.312 0.021 6.27 3.34 8.81
9/18/2021 7:30:00 AM 16.84 62.312 0.021 6.26 3.37 8.82
9/18/2021 7:45:00 AM 16.84 62.312 0.021 6.26 3.35 8.83
9/18/2021 8:00:00 AM 16.85 62.33 0.021 6.27 3.21 8.86
9/18/2021 8:15:00 AM 16.87 62.366 0.021 6.28 3.18 8.89
9/18/2021 8:30:00 AM 16.88 62.384 0.021 6.28 3.31 8.9
9/18/2021 8:45:00 AM 16.9 62.42 0.021 6.3 3.34 8.92
9/18/2021 9:00:00 AM 16.93 62.474 0.021 6.31 3.22 8.95
9/18/2021 9:15:00 AM 16.96 62.528 0.021 6.32 3.29 8.97
9/18/2021 9:30:00 AM 17 62.6 0.021 6.34 3.14 8.99
9/18/2021 9:45:00 AM 17.07 62.726 0.021 6.36 3.12 9.01
9/18/2021 10:00:00 AM 17.2 62.96 0.021 6.37 3.1 9.04
9/18/2021 10:15:00 AM 17.28 63.104 0.021 6.38 3.16 9.03
9/18/2021 10:30:00 AM 17.31 63.158 0.021 6.4 3.23 9.04
9/18/2021 10:45:00 AM 17.33 63.194 0.021 6.4 3.2 9.03
9/18/2021 11:00:00 AM 17.4 63.32 0.021 6.41 3.12 9.04
9/18/2021 11:15:00 AM 17.48 63.464 0.021 6.42 3.07 9.03
9/18/2021 11:30:00 AM 17.53 63.554 0.021 6.41 3.07 9
9/18/2021 11:45:00 AM 17.63 63.734 0.021 6.41 3.01 8.99
9/18/2021 12:00:00 PM 17.79 64.022 0.021 6.43 3.16 8.98
9/18/2021 12:15:00 PM 17.92 64.256 0.021 6.43 3.07 8.97
9/18/2021 12:30:00 PM 18.05 64.49 0.021 6.43 3.12 8.96
9/18/2021 12:45:00 PM 18.2 64.76 0.022 6.42 2.95 8.93
9/18/2021 1:00:00 PM 18.31 64.958 0.021 6.45 3 8.94
9/18/2021 1:15:00 PM 18.39 65.102 0.021 6.44 2.91 8.9
9/18/2021 1:30:00 PM 18.47 65.246 0.022 6.43 2.89 8.89
9/18/2021 1:45:00 PM 18.58 65.444 0.021 6.45 2.93 8.88
9/18/2021 2:00:00 PM 18.71 65.67799 0.021 6.47 2.96 8.87
9/18/2021 2:15:00 PM 18.82 65.876 0.021 6.45 2.89 8.84
9/18/2021 2:30:00 PM 18.93 66.074 0.021 6.45 2.94 8.83
9/18/2021 2:45:00 PM 18.99 66.182 0.021 6.47 3 8.81
9/18/2021 3:00:00 PM 19.02 66.236 0.021 6.46 3.09 8.79
9/18/2021 3:15:00 PM 19.06 66.308 0.021 6.45 2.97 8.78
9/18/2021 3:30:00 PM 19.06 66.308 0.022 6.46 2.83 8.77
9/18/2021 3:45:00 PM 19.01 66.218 0.021 6.44 2.93 8.74
9/18/2021 4:00:00 PM 18.92 66.056 0.021 6.45 2.88 8.71
9/18/2021 4:15:00 PM 18.88 65.984 0.022 6.44 2.9 8.7
9/18/2021 4:30:00 PM 18.92 66.056 0.021 6.45 2.8 8.71
9/18/2021 4:45:00 PM 18.93 66.074 0.021 6.48 2.87 8.72
9/18/2021 5:00:00 PM 18.89 66.002 0.021 6.46 2.95 8.7
9/18/2021 5:15:00 PM 18.87 65.966 0.022 6.44 2.87 8.68
9/18/2021 5:30:00 PM 18.87 65.966 0.023 6.44 2.88 8.67
9/18/2021 5:45:00 PM 18.86 65.948 0.022 6.45 3.06 8.67
9/18/2021 6:00:00 PM 18.84 65.912 0.022 6.44 2.82 8.65
9/18/2021 6:15:00 PM 18.8 65.84 0.024 6.42 2.9 8.61
9/18/2021 6:30:00 PM 18.78 65.804 0.024 6.43 2.84 8.6
9/18/2021 6:45:00 PM 18.74 65.732 0.024 6.44 2.92 8.58
9/18/2021 7:00:00 PM 18.71 65.67799 0.023 6.4 2.98 8.54
9/18/2021 7:15:00 PM 18.67 65.606 0.023 6.4 3.06 8.52
9/18/2021 7:30:00 PM 18.64 65.552 0.022 6.4 2.94 8.5
9/18/2021 7:45:00 PM 18.61 65.498 0.022 6.39 2.96 8.47
9/18/2021 8:00:00 PM 18.58 65.444 0.022 6.39 2.95 8.47
9/18/2021 8:15:00 PM 18.55 65.39 0.023 6.37 3.12 8.45
9/18/2021 8:30:00 PM 18.52 65.336 0.022 6.38 2.9 8.47
9/18/2021 8:45:00 PM 18.48 65.264 0.023 6.38 3.01 8.47
9/18/2021 9:00:00 PM 18.45 65.21 0.022 6.38 3.02 8.48
9/18/2021 9:15:00 PM 18.4 65.12 0.023 6.35 2.92 8.46
9/18/2021 9:30:00 PM 18.37 65.066 0.022 6.38 3.07 8.48
9/18/2021 9:45:00 PM 18.35 65.03 0.022 6.39 3.06 8.5
9/18/2021 10:00:00 PM 18.32 64.976 0.023 6.37 2.98 8.48
9/18/2021 10:15:00 PM 18.3 64.94 0.022 6.38 2.99 8.5
9/18/2021 10:30:00 PM 18.26 64.868 0.023 6.38 2.95 8.51
9/18/2021 10:45:00 PM 18.22 64.796 0.022 6.4 2.98 8.52
9/18/2021 11:00:00 PM 18.17 64.706 0.022 6.39 2.93 8.53
9/18/2021 11:15:00 PM 18.13 64.634 0.022 6.39 3.22 8.54
9/18/2021 11:30:00 PM 18.08 64.544 0.023 6.38 2.94 8.53
9/18/2021 11:45:00 PM 18.03 64.454 0.022 6.4 3.02 8.56
9/19/2021 12:00:00 AM 17.98 64.364 0.022 6.37 3.02 8.53
9/19/2021 12:15:00 AM 17.93 64.274 0.022 6.39 3.1 8.58
9/19/2021 12:30:00 AM 17.87 64.166 0.023 6.39 3.06 8.57
9/19/2021 12:45:00 AM 17.81 64.058 0.022 6.39 2.97 8.59
9/19/2021 1:00:00 AM 17.75 63.95 0.022 6.38 2.96 8.59
9/19/2021 1:15:00 AM 17.68 63.824 0.022 6.38 3.05 8.61
9/19/2021 1:30:00 AM 17.61 63.698 0.023 6.38 2.92 8.62
9/19/2021 1:45:00 AM 17.54 63.572 0.022 6.38 2.98 8.62
9/19/2021 2:00:00 AM 17.47 63.446 0.022 6.39 3.16 8.65
9/19/2021 2:15:00 AM 17.39 63.302 0.023 6.37 3.06 8.64
9/19/2021 2:30:00 AM 17.32 63.176 0.023 6.39 3 8.66
9/19/2021 2:45:00 AM 17.25 63.05 0.023 6.37 3.15 8.68
9/19/2021 3:00:00 AM 17.17 62.906 0.023 6.4 3.02 8.71
9/19/2021 3:15:00 AM 17.09 62.762 0.023 6.36 3.1 8.69
9/19/2021 3:30:00 AM 17.02 62.636 0.023 6.38 3.16 8.73
9/19/2021 3:45:00 AM 16.95 62.51 0.023 6.37 3.07 8.73
9/19/2021 4:00:00 AM 16.89 62.402 0.023 6.39 3.04 8.76
9/19/2021 4:15:00 AM 16.82 62.276 0.023 6.38 3.18 8.76
9/19/2021 4:30:00 AM 16.76 62.168 0.023 6.38 3 8.77
9/19/2021 4:45:00 AM 16.69 62.042 0.023 6.37 3 8.77
9/19/2021 5:00:00 AM 16.64 61.952 0.023 6.39 3.02 8.8
9/19/2021 5:15:00 AM 16.57 61.826 0.023 6.37 2.96 8.8
9/19/2021 5:30:00 AM 16.51 61.718 0.023 6.39 3.03 8.83
9/19/2021 5:45:00 AM 16.45 61.61 0.023 6.39 3.73 8.83
9/19/2021 6:00:00 AM 16.39 61.502 0.023 6.4 3.06 8.86
9/19/2021 6:15:00 AM 16.33 61.394 0.023 6.4 3.24 8.87
9/19/2021 6:30:00 AM 16.26 61.268 0.023 6.4 3.29 8.88
9/19/2021 6:45:00 AM 16.19 61.142 0.023 6.41 3.23 8.9
9/19/2021 7:00:00 AM 16.13 61.034 0.023 6.41 3.05 8.92
9/19/2021 7:15:00 AM 16.07 60.926 0.023 6.4 3.1 8.93
9/19/2021 7:30:00 AM 16.02 60.836 0.023 6.41 3.14 8.97
9/19/2021 7:45:00 AM 15.97 60.746 0.023 6.41 3.17 8.99
9/19/2021 8:00:00 AM 15.92 60.656 0.023 6.41 3.09 9.04
9/19/2021 8:15:00 AM 15.88 60.584 0.023 6.43 3.1 9.09
9/19/2021 8:30:00 AM 15.85 60.53 0.023 6.43 3.09 9.13
9/19/2021 8:45:00 AM 15.83 60.494 0.023 6.44 3.06 9.15
9/19/2021 9:00:00 AM 15.82 60.476 0.023 6.44 3.06 9.16
9/19/2021 9:15:00 AM 15.81 60.458 0.023 6.43 3.06 9.17
9/19/2021 9:30:00 AM 15.82 60.476 0.023 6.45 2.98 9.19
9/19/2021 9:45:00 AM 15.86 60.548 0.024 6.44 3.13 9.2
9/19/2021 10:00:00 AM 15.93 60.674 0.023 6.46 3.17 9.22
9/19/2021 10:15:00 AM 16 60.8 0.023 6.48 3.21 9.23
9/19/2021 10:30:00 AM 16.08 60.944 0.023 6.47 3.22 9.22
9/19/2021 10:45:00 AM 16.17 61.106 0.023 6.48 3.14 9.24
9/19/2021 11:00:00 AM 16.28 61.304 0.023 6.5 3.18 9.25
9/19/2021 11:15:00 AM 16.38 61.484 0.023 6.49 3.09 9.24
9/19/2021 11:30:00 AM 16.49 61.682 0.023 6.52 3.06 9.24
9/19/2021 11:45:00 AM 16.61 61.898 0.023 6.53 3.06 9.25
9/19/2021 12:00:00 PM 16.71 62.078 0.023 6.51 3.22 9.22
9/19/2021 12:15:00 PM 16.84 62.312 0.023 6.52 3.07 9.23
9/19/2021 12:30:00 PM 16.97 62.546 0.023 6.53 3.03 9.2
9/19/2021 12:45:00 PM 17.1 62.78 0.023 6.55 2.95 9.2
9/19/2021 1:00:00 PM 17.21 62.978 0.023 6.54 3.1 9.17
9/19/2021 1:15:00 PM 17.33 63.194 0.023 6.54 3.04 9.16
9/19/2021 1:30:00 PM 17.42 63.356 0.023 6.53 3.07 9.13
9/19/2021 1:45:00 PM 17.53 63.554 0.023 6.53 2.99 9.11
9/19/2021 2:00:00 PM 17.63 63.734 0.023 6.54 3.02 9.1
9/19/2021 2:15:00 PM 17.7 63.86 0.023 6.55 2.99 9.09
9/19/2021 2:30:00 PM 17.76 63.968 0.023 6.56 2.98 9.08
9/19/2021 2:45:00 PM 17.79 64.022 0.023 6.55 3.01 9.05
9/19/2021 3:00:00 PM 17.83 64.094 0.024 6.55 3.01 9.05
9/19/2021 3:15:00 PM 17.86 64.148 0.023 6.57 2.95 9.04
9/19/2021 3:30:00 PM 17.85 64.13 0.023 6.56 3.02 9.03
9/19/2021 3:45:00 PM 17.84 64.112 0.023 6.54 3.01 9.01
9/19/2021 4:00:00 PM 17.82 64.076 0.023 6.56 2.98 9.01
9/19/2021 4:15:00 PM 17.79 64.022 0.023 6.56 3 9
9/19/2021 4:30:00 PM 17.73 63.914 0.024 6.55 3 8.99
9/19/2021 4:45:00 PM 17.68 63.824 0.023 6.54 3.11 8.98
9/19/2021 5:00:00 PM 17.62 63.716 0.023 6.55 3.49 8.97
9/19/2021 5:15:00 PM 17.55 63.59 0.023 6.54 2.91 8.96
9/19/2021 5:30:00 PM 17.48 63.464 0.023 6.55 2.84 8.95
9/19/2021 5:45:00 PM 17.39 63.302 0.023 6.53 3.03 8.93
9/19/2021 6:00:00 PM 17.32 63.176 0.024 6.54 3.11 8.92
9/19/2021 6:15:00 PM 17.27 63.086 0.025 6.57 3.13 8.89
9/19/2021 6:30:00 PM 17.22 62.996 0.025 6.59 3.1 8.88
9/19/2021 6:45:00 PM 17.16 62.888 0.025 6.58 3.1 8.85
9/19/2021 7:00:00 PM 17.09 62.762 0.025 6.59 3.02 8.83
9/19/2021 7:15:00 PM 17.02 62.636 0.025 6.57 3.06 8.81
9/19/2021 7:30:00 PM 16.95 62.51 0.025 6.56 3.09 8.79
9/19/2021 7:45:00 PM 16.88 62.384 0.026 6.55 3.07 8.79
9/19/2021 8:00:00 PM 16.82 62.276 0.025 6.56 3.07 8.8
9/19/2021 8:15:00 PM 16.76 62.168 0.025 6.55 3.09 8.79
9/19/2021 8:30:00 PM 16.7 62.06 0.026 6.51 2.96 8.78
9/19/2021 8:45:00 PM 16.64 61.952 0.025 6.53 3.8 8.81
9/19/2021 9:00:00 PM 16.59 61.862 0.025 6.53 3.15 8.81
9/19/2021 9:15:00 PM 16.52 61.736 0.025 6.49 3.44 8.81
9/19/2021 9:30:00 PM 16.46 61.628 0.025 6.51 3.06 8.83
9/19/2021 9:45:00 PM 16.4 61.52 0.025 6.51 3.17 8.84
9/19/2021 10:00:00 PM 16.34 61.412 0.025 6.5 3.15 8.85
9/19/2021 10:15:00 PM 16.28 61.304 0.025 6.5 3.11 8.87
9/19/2021 10:30:00 PM 16.21 61.178 0.025 6.49 3.19 8.88
9/19/2021 10:45:00 PM 16.15 61.07 0.024 6.5 3.17 8.89
9/19/2021 11:00:00 PM 16.08 60.944 0.024 6.5 3.12 8.91
9/19/2021 11:15:00 PM 16.01 60.818 0.025 6.48 3.12 8.91
9/19/2021 11:30:00 PM 15.94 60.692 0.024 6.47 3.13 8.92
9/19/2021 11:45:00 PM 15.87 60.566 0.024 6.47 3.2 8.95
9/20/2021 12:00:00 AM 15.81 60.458 0.024 6.47 3.12 8.96
9/20/2021 12:15:00 AM 15.74 60.332 0.025 6.47 3.17 8.97
9/20/2021 12:30:00 AM 15.67 60.206 0.024 6.46 3.13 8.99
9/20/2021 12:45:00 AM 15.6 60.08 0.025 6.46 3.19 9
9/20/2021 1:00:00 AM 15.54 59.972 0.025 6.45 3.12 9
9/20/2021 1:15:00 AM 15.47 59.846 0.024 6.46 3.2 9.03
9/20/2021 1:30:00 AM 15.39 59.702 0.024 6.46 3.28 9.04
9/20/2021 1:45:00 AM 15.33 59.594 0.024 6.46 3.11 9.05
9/20/2021 2:00:00 AM 15.25 59.45 0.025 6.43 3.17 9.05
9/20/2021 2:15:00 AM 15.18 59.324 0.025 6.45 3.23 9.08
9/20/2021 2:30:00 AM 15.11 59.198 0.024 6.44 3.28 9.09
9/20/2021 2:45:00 AM 15.03 59.054 0.024 6.45 3.26 9.12
9/20/2021 3:00:00 AM 14.96 58.928 0.025 6.45 3.28 9.13
9/20/2021 3:15:00 AM 14.87 58.766 0.024 6.44 3.19 9.14
9/20/2021 3:30:00 AM 14.79 58.622 0.025 6.44 3.22 9.17
9/20/2021 3:45:00 AM 14.7 58.46 0.024 6.45 3.17 9.19
9/20/2021 4:00:00 AM 14.61 58.298 0.024 6.45 3.08 9.21
9/20/2021 4:15:00 AM 14.52 58.136 0.025 6.45 3.1 9.23
9/20/2021 4:30:00 AM 14.43 57.974 0.024 6.45 3.2 9.26
9/20/2021 4:45:00 AM 14.34 57.812 0.025 6.46 3.09 9.28
9/20/2021 5:00:00 AM 14.24 57.632 0.024 6.46 3.16 9.32
9/20/2021 5:15:00 AM 14.13 57.434 0.025 6.45 3.16 9.34
9/20/2021 5:30:00 AM 14.04 57.272 0.024 6.45 3.04 9.36
9/20/2021 5:45:00 AM 13.97 57.146 0.025 6.46 3.21 9.38
9/20/2021 6:00:00 AM 13.9 57.02 0.024 6.46 3.11 9.4
9/20/2021 6:15:00 AM 13.83 56.894 0.024 6.46 3.16 9.41
9/20/2021 6:30:00 AM 13.76 56.768 0.024 6.46 3.2 9.43
9/20/2021 6:45:00 AM 13.7 56.66 0.024 6.47 3.26 9.44
9/20/2021 7:00:00 AM 13.63 56.534 0.025 6.46 3.18 9.45
9/20/2021 7:15:00 AM 13.57 56.426 0.025 6.47 3.24 9.48
9/20/2021 7:30:00 AM 13.51 56.318 0.025 6.47 3.15 9.51
9/20/2021 7:45:00 AM 13.46 56.228 0.025 6.45 3.29 9.53
9/20/2021 8:00:00 AM 13.42 56.156 0.025 6.46 3.13 9.57
9/20/2021 8:15:00 AM 13.38 56.084 0.025 6.47 3.06 9.6
9/20/2021 8:30:00 AM 13.37 56.066 0.025 6.47 3.19 9.63
9/20/2021 8:45:00 AM 13.37 56.066 0.025 6.48 3.13 9.67
9/20/2021 9:00:00 AM 13.4 56.12 0.025 6.49 3.14 9.69
9/20/2021 9:15:00 AM 13.45 56.21 0.025 6.48 3.2 9.71
9/20/2021 9:30:00 AM 13.54 56.372 0.024 6.51 3.14 9.74
9/20/2021 9:45:00 AM 13.63 56.534 0.025 6.51 3.24 9.75
9/20/2021 10:00:00 AM 13.76 56.768 0.025 6.52 3.2 9.75
9/20/2021 10:15:00 AM 13.91 57.038 0.025 6.53 3.24 9.75
9/20/2021 10:30:00 AM 14.07 57.326 0.024 6.55 3.21 9.75
9/20/2021 10:45:00 AM 14.28 57.704 0.026 6.86 2.18 10.11
9/20/2021 11:00:00 AM 14.45 58.01 0.025 6.75 2.26 10.1
9/20/2021 11:15:00 AM 14.62 58.316 0.026 6.73 2.25 10.08
9/20/2021 11:30:00 AM 14.83 58.694 0.025 6.74 2.21 10.07
9/20/2021 11:45:00 AM 14.99 58.982 0.025 6.75 2.36 10.06
9/20/2021 12:00:00 PM 15.17 59.306 0.025 6.75 2.17 10.03
9/20/2021 12:15:00 PM 15.35 59.63 0.025 6.74 2.21 10.01
9/20/2021 12:30:00 PM 15.52 59.936 0.025 6.75 2.3 9.98
9/20/2021 12:45:00 PM 15.71 60.278 0.025 6.74 2.22 9.94
9/20/2021 1:00:00 PM 15.89 60.602 0.025 6.74 2.14 9.91
9/20/2021 1:15:00 PM 16.09 60.962 0.025 6.77 2.24 9.89
9/20/2021 1:30:00 PM 16.29 61.322 0.025 6.76 2.25 9.87
9/20/2021 1:45:00 PM 16.46 61.628 0.025 6.77 2.03 9.84
9/20/2021 2:00:00 PM 16.62 61.916 0.025 6.78 2.16 9.8
9/20/2021 2:15:00 PM 16.77 62.186 0.025 6.78 2.16 9.77
9/20/2021 2:30:00 PM 16.89 62.402 0.025 6.79 2.12 9.75
9/20/2021 2:45:00 PM 16.98 62.564 0.025 6.78 2.14 9.72
9/20/2021 3:00:00 PM 17.08 62.744 0.025 6.79 2.24 9.69
9/20/2021 3:15:00 PM 17.16 62.888 0.025 6.79 2.21 9.68
9/20/2021 3:30:00 PM 17.21 62.978 0.025 6.8 2.2 9.65
9/20/2021 3:45:00 PM 17.24 63.032 0.025 6.8 2.17 9.64
9/20/2021 4:00:00 PM 17.25 63.05 0.025 6.78 2.2 9.62
9/20/2021 4:15:00 PM 17.22 62.996 0.026 6.77 2.08 9.59
9/20/2021 4:30:00 PM 17.2 62.96 0.025 6.78 2.23 9.6
9/20/2021 4:45:00 PM 17.16 62.888 0.025 6.8 2.16 9.59
9/20/2021 5:00:00 PM 17.1 62.78 0.025 6.79 2.12 9.58
9/20/2021 5:15:00 PM 17.01 62.618 0.025 6.79 2.11 9.57
9/20/2021 5:30:00 PM 16.9 62.42 0.026 6.76 2.07 9.53
9/20/2021 5:45:00 PM 16.8 62.24 0.026 6.76 2.14 9.53
9/20/2021 6:00:00 PM 16.71 62.078 0.026 6.76 2.14 9.53
9/20/2021 6:15:00 PM 16.64 61.952 0.026 6.75 2.25 9.51
9/20/2021 6:30:00 PM 16.56 61.808 0.025 6.76 2.09 9.51
9/20/2021 6:45:00 PM 16.46 61.628 0.026 6.75 2.13 9.48
9/20/2021 7:00:00 PM 16.38 61.484 0.025 6.75 2.12 9.45
9/20/2021 7:15:00 PM 16.29 61.322 0.026 6.73 2.11 9.4
9/20/2021 7:30:00 PM 16.21 61.178 0.026 6.72 2.15 9.38
9/20/2021 7:45:00 PM 16.13 61.034 0.026 6.72 2.18 9.37
9/20/2021 8:00:00 PM 16.06 60.908 0.025 6.73 2.17 9.36
9/20/2021 8:15:00 PM 15.99 60.782 0.026 6.7 2.14 9.34
9/20/2021 8:30:00 PM 15.93 60.674 0.026 6.71 2.11 9.35
9/20/2021 8:45:00 PM 15.87 60.566 0.025 6.71 2.22 9.36
9/20/2021 9:00:00 PM 15.8 60.44 0.026 6.73 2.13 9.38
9/20/2021 9:15:00 PM 15.74 60.332 0.027 6.69 2.22 9.37
9/20/2021 9:30:00 PM 15.68 60.224 0.026 6.71 2.18 9.4
9/20/2021 9:45:00 PM 15.62 60.116 0.026 6.7 2.19 9.39
9/20/2021 10:00:00 PM 15.56 60.008 0.026 6.71 2.07 9.41
9/20/2021 10:15:00 PM 15.5 59.9 0.026 6.7 2.15 9.42
9/20/2021 10:30:00 PM 15.45 59.81 0.026 6.7 2.1 9.43
9/20/2021 10:45:00 PM 15.39 59.702 0.026 6.7 2.08 9.44
9/20/2021 11:00:00 PM 15.34 59.612 0.026 6.69 2.14 9.45
9/20/2021 11:15:00 PM 15.29 59.522 0.026 6.7 2.25 9.46
9/20/2021 11:30:00 PM 15.25 59.45 0.027 6.7 2.2 9.46
9/20/2021 11:45:00 PM 15.21 59.378 0.026 6.7 2.12 9.48
9/21/2021 12:00:00 AM 15.17 59.306 0.026 6.69 2.16 9.47
9/21/2021 12:15:00 AM 15.14 59.252 0.026 6.71 2.23 9.5
9/21/2021 12:30:00 AM 15.11 59.198 0.026 6.69 2.17 9.5
9/21/2021 12:45:00 AM 15.08 59.144 0.027 6.67 2.21 9.47
9/21/2021 1:00:00 AM 15.06 59.108 0.027 6.69 2.15 9.51
9/21/2021 1:15:00 AM 15.05 59.09 0.026 6.7 2.15 9.52
9/21/2021 1:30:00 AM 15.05 59.09 0.026 6.69 2.14 9.52
9/21/2021 1:45:00 AM 15.06 59.108 0.026 6.71 2.18 9.52
9/21/2021 2:00:00 AM 15.06 59.108 0.027 6.69 2.06 9.51
9/21/2021 2:15:00 AM 15.06 59.108 0.027 6.69 2.19 9.51
9/21/2021 2:30:00 AM 15.07 59.126 0.026 6.72 2.17 9.53
9/21/2021 2:45:00 AM 15.07 59.126 0.026 6.71 2.16 9.52
9/21/2021 3:00:00 AM 15.07 59.126 0.026 6.73 2.2 9.53
9/21/2021 3:15:00 AM 15.07 59.126 0.026 6.73 2.18 9.54
9/21/2021 3:30:00 AM 15.06 59.108 0.026 6.72 2.16 9.53
9/21/2021 3:45:00 AM 15.05 59.09 0.026 6.72 2.27 9.52
9/21/2021 4:00:00 AM 15.03 59.054 0.026 6.73 2.22 9.54
9/21/2021 4:15:00 AM 15.01 59.018 0.026 6.71 2.22 9.53
9/21/2021 4:30:00 AM 14.99 58.982 0.027 6.71 2.18 9.53
9/21/2021 4:45:00 AM 14.97 58.946 0.026 6.72 2.13 9.54
9/21/2021 5:00:00 AM 14.94 58.892 0.026 6.71 2.17 9.55
9/21/2021 5:15:00 AM 14.91 58.838 0.026 6.7 2.16 9.55
9/21/2021 5:30:00 AM 14.89 58.802 0.026 6.72 2.19 9.56
9/21/2021 5:45:00 AM 14.86 58.748 0.026 6.7 2.25 9.56
9/21/2021 6:00:00 AM 14.83 58.694 0.026 6.71 2.58 9.56
9/21/2021 6:15:00 AM 14.8 58.64 0.026 6.7 2.28 9.55
9/21/2021 6:30:00 AM 14.77 58.586 0.026 6.71 2.27 9.58
9/21/2021 6:45:00 AM 14.74 58.532 0.026 6.72 2.16 9.6
9/21/2021 7:00:00 AM 14.72 58.496 0.026 6.7 2.25 9.59
9/21/2021 7:15:00 AM 14.71 58.478 0.026 6.73 2.24 9.63
9/21/2021 7:30:00 AM 14.7 58.46 0.026 6.71 2.24 9.64
9/21/2021 7:45:00 AM 14.7 58.46 0.027 6.69 2.31 9.66
9/21/2021 8:00:00 AM 14.71 58.478 0.026 6.74 2.19 9.71
9/21/2021 8:15:00 AM 14.72 58.496 0.026 6.76 2.12 9.74
9/21/2021 8:30:00 AM 14.73 58.514 0.026 6.75 2.16 9.77
9/21/2021 8:45:00 AM 14.76 58.568 0.026 6.76 2.16 9.83
9/21/2021 9:00:00 AM 14.81 58.658 0.026 6.78 2.08 9.87
9/21/2021 9:15:00 AM 14.87 58.766 0.026 6.77 2.09 9.91
9/21/2021 9:30:00 AM 14.95 58.91 0.026 6.76 2.11 9.94
9/21/2021 9:45:00 AM 15.03 59.054 0.026 6.8 2.15 9.99
9/21/2021 10:00:00 AM 15.1 59.18 0.026 6.79 2.16 10.01
9/21/2021 10:15:00 AM 15.16 59.288 0.026 6.8 2.14 10
9/21/2021 10:30:00 AM 15.22 59.396 0.026 6.8 2.15 9.99
9/21/2021 10:45:00 AM 15.29 59.522 0.026 6.81 2.12 10.01
9/21/2021 11:00:00 AM 15.39 59.702 0.026 6.81 2.12 10
9/21/2021 11:15:00 AM 15.48 59.864 0.026 6.83 2.16 10.02
9/21/2021 11:30:00 AM 15.62 60.116 0.025 6.82 2.12 10.02
9/21/2021 11:45:00 AM 15.76 60.368 0.026 6.84 2.16 10.02
9/21/2021 12:00:00 PM 15.93 60.674 0.025 6.86 2.14 10.02
9/21/2021 12:15:00 PM 16.04 60.872 0.026 6.83 2.19 9.99
9/21/2021 12:30:00 PM 16.1 60.98 0.026 6.86 2.06 10
9/21/2021 12:45:00 PM 16.15 61.07 0.025 6.88 2.08 9.98
9/21/2021 1:00:00 PM 16.17 61.106 0.025 6.88 2.09 9.95
9/21/2021 1:15:00 PM 16.19 61.142 0.025 6.87 2.09 9.93
9/21/2021 1:30:00 PM 16.19 61.142 0.027 6.79 2.13 9.85
9/21/2021 1:45:00 PM 16.21 61.178 0.026 6.86 2.05 9.86
9/21/2021 2:00:00 PM 16.23 61.214 0.025 6.85 2.07 9.82
9/21/2021 2:15:00 PM 16.3 61.34 0.026 6.85 2.09 9.81
9/21/2021 2:30:00 PM 16.37 61.466 0.025 6.86 2.12 9.83
9/21/2021 2:45:00 PM 16.46 61.628 0.026 6.86 2.07 9.82
9/21/2021 3:00:00 PM 16.51 61.718 0.026 6.82 2.12 9.79
9/21/2021 3:15:00 PM 16.57 61.826 0.026 6.87 2.12 9.81
9/21/2021 3:30:00 PM 16.59 61.862 0.026 6.86 2.17 9.8
9/21/2021 3:45:00 PM 16.6 61.88 0.026 6.84 2.04 9.78
9/21/2021 4:00:00 PM 16.59 61.862 0.026 6.85 2.02 9.77
9/21/2021 4:15:00 PM 16.58 61.844 0.026 6.83 2.09 9.76
9/21/2021 4:30:00 PM 16.6 61.88 0.026 6.85 2.07 9.75
9/21/2021 4:45:00 PM 16.61 61.898 0.025 6.87 2.14 9.76
9/21/2021 5:00:00 PM 16.61 61.898 0.026 6.86 2.14 9.74
9/21/2021 5:15:00 PM 16.63 61.934 0.025 6.88 2.1 9.75
9/21/2021 5:30:00 PM 16.62 61.916 0.026 6.85 2.09 9.72
9/21/2021 5:45:00 PM 16.61 61.898 0.026 6.84 2.13 9.67
9/21/2021 6:00:00 PM 16.57 61.826 0.026 6.83 2.08 9.63
9/21/2021 6:15:00 PM 16.53 61.754 0.026 6.81 2.12 9.56
9/21/2021 6:30:00 PM 16.49 61.682 0.026 6.83 2.11 9.52
9/21/2021 6:45:00 PM 16.44 61.592 0.026 6.79 2.04 9.47
9/21/2021 7:00:00 PM 16.4 61.52 0.026 6.79 2.1 9.42
9/21/2021 7:15:00 PM 16.36 61.448 0.026 6.77 2.17 9.4
9/21/2021 7:30:00 PM 16.33 61.394 0.026 6.78 2.12 9.38
9/21/2021 7:45:00 PM 16.29 61.322 0.027 6.76 2.19 9.33
9/21/2021 8:00:00 PM 16.25 61.25 0.027 6.77 2.11 9.34
9/21/2021 8:15:00 PM 16.22 61.196 0.028 6.75 2.14 9.33
9/21/2021 8:30:00 PM 16.19 61.142 0.028 6.75 2.22 9.32
9/21/2021 8:45:00 PM 16.17 61.106 0.028 6.74 2.27 9.3
9/21/2021 9:00:00 PM 16.15 61.07 0.028 6.75 2.17 9.3
9/21/2021 9:15:00 PM 16.14 61.052 0.028 6.75 2.19 9.31
9/21/2021 9:30:00 PM 16.13 61.034 0.028 6.73 2.27 9.3
9/21/2021 9:45:00 PM 16.12 61.016 0.027 6.77 2.1 9.32
9/21/2021 10:00:00 PM 16.1 60.98 0.027 6.76 2.18 9.33
9/21/2021 10:15:00 PM 16.07 60.926 0.027 6.76 2.17 9.33
9/21/2021 10:30:00 PM 16.04 60.872 0.027 6.76 2.18 9.34
9/21/2021 10:45:00 PM 16.02 60.836 0.027 6.75 2.15 9.33
9/21/2021 11:00:00 PM 15.99 60.782 0.027 6.75 2.16 9.34
9/21/2021 11:15:00 PM 15.97 60.746 0.027 6.74 2.1 9.33
9/21/2021 11:30:00 PM 15.96 60.728 0.027 6.74 2.27 9.33
9/21/2021 11:45:00 PM 15.95 60.71 0.028 6.71 2.19 9.32
9/22/2021 12:00:00 AM 15.96 60.728 0.027 6.75 2.26 9.34
9/22/2021 12:15:00 AM 15.96 60.728 0.027 6.75 2.34 9.33
9/22/2021 12:30:00 AM 15.96 60.728 0.027 6.75 2.24 9.35
9/22/2021 12:45:00 AM 15.96 60.728 0.027 6.75 2.2 9.33
9/22/2021 1:00:00 AM 15.95 60.71 0.027 6.76 2.32 9.34
9/22/2021 1:15:00 AM 15.94 60.692 0.027 6.72 2.26 9.33
9/22/2021 1:30:00 AM 15.95 60.71 0.027 6.75 2.36 9.34
9/22/2021 1:45:00 AM 15.94 60.692 0.027 6.74 2.31 9.33
9/22/2021 2:00:00 AM 15.94 60.692 0.027 6.74 2.25 9.34
9/22/2021 2:15:00 AM 15.93 60.674 0.027 6.75 2.23 9.34
9/22/2021 2:30:00 AM 15.92 60.656 0.027 6.72 2.22 9.31
9/22/2021 2:45:00 AM 15.93 60.674 0.027 6.75 2.19 9.33
9/22/2021 3:00:00 AM 15.92 60.656 0.027 6.73 2.16 9.33
9/22/2021 3:15:00 AM 15.92 60.656 0.027 6.74 2.21 9.32
9/22/2021 3:30:00 AM 15.92 60.656 0.027 6.71 2.18 9.32
9/22/2021 3:45:00 AM 15.93 60.674 0.027 6.75 2.33 9.33
9/22/2021 4:00:00 AM 15.93 60.674 0.027 6.73 2.2 9.31
9/22/2021 4:15:00 AM 15.94 60.692 0.027 6.75 2.27 9.32
9/22/2021 4:30:00 AM 15.95 60.71 0.027 6.75 2.2 9.32
9/22/2021 4:45:00 AM 15.95 60.71 0.027 6.75 2.2 9.32
9/22/2021 5:00:00 AM 15.95 60.71 0.027 6.74 2.23 9.31
9/22/2021 5:15:00 AM 15.95 60.71 0.027 6.74 2.26 9.3
9/22/2021 5:30:00 AM 15.94 60.692 0.027 6.76 2.2 9.32
9/22/2021 5:45:00 AM 15.94 60.692 0.027 6.75 2.18 9.3
9/22/2021 6:00:00 AM 15.93 60.674 0.027 6.73 2.24 9.29
9/22/2021 6:15:00 AM 15.93 60.674 0.027 6.74 2.27 9.3
9/22/2021 6:30:00 AM 15.93 60.674 0.027 6.75 2.23 9.31
9/22/2021 6:45:00 AM 15.93 60.674 0.027 6.74 2.3 9.31
9/22/2021 7:00:00 AM 15.93 60.674 0.027 6.73 2.24 9.3
9/22/2021 7:15:00 AM 15.94 60.692 0.027 6.74 2.23 9.31
9/22/2021 7:30:00 AM 15.94 60.692 0.027 6.73 2.19 9.31
9/22/2021 7:45:00 AM 15.95 60.71 0.027 6.74 2.21 9.34
9/22/2021 8:00:00 AM 15.97 60.746 0.027 6.76 2.22 9.38
9/22/2021 8:15:00 AM 15.98 60.764 0.027 6.76 2.21 9.38
9/22/2021 8:30:00 AM 16.02 60.836 0.027 6.75 2.17 9.42
9/22/2021 8:45:00 AM 16.06 60.908 0.027 6.78 2.25 9.48
9/22/2021 9:00:00 AM 16.12 61.016 0.026 6.8 2.21 9.55
9/22/2021 9:15:00 AM 16.18 61.124 0.026 6.79 2.12 9.59
9/22/2021 9:30:00 AM 16.23 61.214 0.026 6.82 2.16 9.61
9/22/2021 9:45:00 AM 16.3 61.34 0.026 6.81 2.14 9.64
9/22/2021 10:00:00 AM 16.34 61.412 0.026 6.83 2.12 9.65
9/22/2021 10:15:00 AM 16.38 61.484 0.026 6.83 2.11 9.62
9/22/2021 10:30:00 AM 16.42 61.556 0.026 6.85 2.13 9.65
9/22/2021 10:45:00 AM 16.47 61.646 0.026 6.86 2.23 9.64
9/22/2021 11:00:00 AM 16.52 61.736 0.026 6.84 2.16 9.64
9/22/2021 11:15:00 AM 16.6 61.88 0.026 6.84 2.04 9.67
9/22/2021 11:30:00 AM 16.68 62.024 0.026 6.85 2.12 9.7
9/22/2021 11:45:00 AM 16.76 62.168 0.027 6.82 2.16 9.7
9/22/2021 12:00:00 PM 16.87 62.366 0.026 6.86 2.14 9.73
9/22/2021 12:15:00 PM 16.98 62.564 0.026 6.89 2.12 9.74
9/22/2021 12:30:00 PM 17.07 62.726 0.026 6.88 2.07 9.73
9/22/2021 12:45:00 PM 17.14 62.852 0.026 6.91 2.16 9.72
9/22/2021 1:00:00 PM 17.22 62.996 0.026 6.9 2.21 9.71
9/22/2021 1:15:00 PM 17.29 63.122 0.026 6.89 2.06 9.69
9/22/2021 1:30:00 PM 17.37 63.266 0.026 6.88 2.13 9.67
9/22/2021 1:45:00 PM 17.45 63.41 0.026 6.89 2.08 9.66
9/22/2021 2:00:00 PM 17.51 63.518 0.027 6.87 2.13 9.65
9/22/2021 2:15:00 PM 17.57 63.626 0.026 6.92 2.15 9.65
9/22/2021 2:30:00 PM 17.65 63.77 0.026 6.92 2.14 9.63
9/22/2021 2:45:00 PM 17.75 63.95 0.026 6.94 2.11 9.64
9/22/2021 3:00:00 PM 17.82 64.076 0.026 6.93 2.14 9.61
9/22/2021 3:15:00 PM 17.89 64.202 0.026 6.91 2.09 9.6
9/22/2021 3:30:00 PM 17.95 64.31 0.026 6.92 2.11 9.58
9/22/2021 3:45:00 PM 17.97 64.346 0.026 6.94 2.16 9.53
9/22/2021 4:00:00 PM 17.95 64.31 0.026 6.89 2.12 9.45
9/22/2021 4:15:00 PM 17.91 64.238 0.026 6.85 2.11 9.37
9/22/2021 4:30:00 PM 17.87 64.166 0.026 6.88 2.15 9.33
9/22/2021 4:45:00 PM 17.82 64.076 0.026 6.86 2.17 9.26
9/22/2021 5:00:00 PM 17.78 64.004 0.026 6.88 2.16 9.25
9/22/2021 5:15:00 PM 17.75 63.95 0.026 6.86 2.13 9.21
9/22/2021 5:30:00 PM 17.73 63.914 0.027 6.84 2.15 9.21
9/22/2021 5:45:00 PM 17.72 63.896 0.026 6.85 2.2 9.19
9/22/2021 6:00:00 PM 17.71 63.878 0.026 6.85 2.17 9.2
9/22/2021 6:15:00 PM 17.7 63.86 0.026 6.85 2.15 9.18
9/22/2021 6:30:00 PM 17.68 63.824 0.027 6.82 2.19 9.16
9/22/2021 6:45:00 PM 17.66 63.788 0.027 6.84 2.23 9.14
9/22/2021 7:00:00 PM 17.63 63.734 0.027 6.83 2.27 9.1
9/22/2021 7:15:00 PM 17.61 63.698 0.027 6.8 2.17 9.05
9/22/2021 7:30:00 PM 17.58 63.644 0.027 6.8 2.28 9.02
9/22/2021 7:45:00 PM 17.56 63.608 0.027 6.81 2.33 8.99
9/22/2021 8:00:00 PM 17.54 63.572 0.027 6.8 2.2 8.97
9/22/2021 8:15:00 PM 17.53 63.554 0.027 6.8 2.31 8.96
9/22/2021 8:30:00 PM 17.5 63.5 0.027 6.81 2.38 8.95
9/22/2021 8:45:00 PM 17.49 63.482 0.027 6.81 2.4 8.94
9/22/2021 9:00:00 PM 17.47 63.446 0.027 6.79 2.37 8.94
9/22/2021 9:15:00 PM 17.45 63.41 0.027 6.8 2.31 8.95
9/22/2021 9:30:00 PM 17.43 63.374 0.028 6.77 2.35 8.94
9/22/2021 9:45:00 PM 17.42 63.356 0.028 6.78 2.45 8.94
9/22/2021 10:00:00 PM 17.41 63.338 0.027 6.78 2.3 8.94
9/22/2021 10:15:00 PM 17.39 63.302 0.028 6.78 2.37 8.95
9/22/2021 10:30:00 PM 17.39 63.302 0.027 6.8 2.41 8.96
9/22/2021 10:45:00 PM 17.37 63.266 0.027 6.79 2.39 8.95
9/22/2021 11:00:00 PM 17.36 63.248 0.027 6.8 2.38 8.97
9/22/2021 11:15:00 PM 17.35 63.23 0.027 6.79 2.38 8.97
9/22/2021 11:30:00 PM 17.33 63.194 0.027 6.79 2.39 8.96
9/22/2021 11:45:00 PM 17.31 63.158 0.027 6.79 2.45 8.98
9/23/2021 12:00:00 AM 17.29 63.122 0.027 6.79 2.48 8.98
9/23/2021 12:15:00 AM 17.28 63.104 0.027 6.79 2.42 8.98
9/23/2021 12:30:00 AM 17.27 63.086 0.027 6.78 2.48 8.98
9/23/2021 12:45:00 AM 17.26 63.068 0.027 6.8 2.47 8.99
9/23/2021 1:00:00 AM 17.25 63.05 0.027 6.79 2.35 8.99
9/23/2021 1:15:00 AM 17.25 63.05 0.027 6.78 2.47 8.98
9/23/2021 1:30:00 AM 17.24 63.032 0.027 6.79 2.7 8.99
9/23/2021 1:45:00 AM 17.24 63.032 0.027 6.78 2.42 8.98
9/23/2021 2:00:00 AM 17.24 63.032 0.027 6.79 2.46 8.99
9/23/2021 2:15:00 AM 17.24 63.032 0.027 6.78 2.45 8.98
9/23/2021 2:30:00 AM 17.24 63.032 0.027 6.79 2.58 8.99
9/23/2021 2:45:00 AM 17.24 63.032 0.027 6.79 2.39 8.99
9/23/2021 3:00:00 AM 17.24 63.032 0.027 6.79 2.56 8.99
9/23/2021 3:15:00 AM 17.24 63.032 0.027 6.77 2.41 8.97
9/23/2021 3:30:00 AM 17.25 63.05 0.027 6.78 2.46 8.98
9/23/2021 3:45:00 AM 17.25 63.05 0.027 6.78 2.46 8.97
9/23/2021 4:00:00 AM 17.25 63.05 0.027 6.77 2.43 8.97
9/23/2021 4:15:00 AM 17.26 63.068 0.027 6.78 2.43 8.98
9/23/2021 4:30:00 AM 17.25 63.05 0.027 6.78 2.44 8.97
9/23/2021 4:45:00 AM 17.24 63.032 0.027 6.77 2.42 8.97
9/23/2021 5:00:00 AM 17.23 63.014 0.027 6.77 2.4 8.97
9/23/2021 5:15:00 AM 17.22 62.996 0.027 6.78 2.42 8.98
9/23/2021 5:30:00 AM 17.21 62.978 0.027 6.77 2.45 8.98
9/23/2021 5:45:00 AM 17.21 62.978 0.027 6.78 2.39 8.99
9/23/2021 6:00:00 AM 17.22 62.996 0.027 6.78 2.45 8.98
9/23/2021 6:15:00 AM 17.22 62.996 0.027 6.78 2.4 8.98
9/23/2021 6:30:00 AM 17.23 63.014 0.027 6.79 2.58 8.98
9/23/2021 6:45:00 AM 17.23 63.014 0.027 6.78 2.6 8.98
9/23/2021 7:00:00 AM 17.22 62.996 0.027 6.78 2.47 8.98
9/23/2021 7:15:00 AM 17.22 62.996 0.027 6.76 2.42 8.99
9/23/2021 7:30:00 AM 17.24 63.032 0.027 6.79 2.43 9.04
9/23/2021 7:45:00 AM 17.26 63.068 0.027 6.79 2.34 9.08
9/23/2021 8:00:00 AM 17.28 63.104 0.027 6.8 2.37 9.12
9/23/2021 8:15:00 AM 17.29 63.122 0.027 6.78 2.33 9.12
9/23/2021 8:30:00 AM 17.3 63.14 0.027 6.8 2.38 9.12
9/23/2021 8:45:00 AM 17.3 63.14 0.027 6.81 2.64 9.1
9/23/2021 9:00:00 AM 17.29 63.122 0.028 6.79 2.89 9.07
9/23/2021 9:15:00 AM 17.29 63.122 0.028 6.82 3.79 9.07
9/23/2021 9:30:00 AM 17.3 63.14 0.028 6.81 3.38 9.06
9/23/2021 9:45:00 AM 17.31 63.158 0.028 6.83 3.61 9.08
9/23/2021 10:00:00 AM 17.32 63.176 0.029 6.88 14.38 9.08
9/23/2021 10:15:00 AM 17.27 63.086 0.03 6.91 20.62 9.08
9/23/2021 10:30:00 AM 17.17 62.906 0.029 6.87 9.28 9.09
9/23/2021 10:45:00 AM 17.08 62.744 0.028 6.83 7.64 9.1
9/23/2021 11:00:00 AM 17.06 62.708 0.028 6.84 9.84 9.1
9/23/2021 11:15:00 AM 17.03 62.654 0.03 6.88 15.15 9.1
9/23/2021 11:30:00 AM 16.95 62.51 0.029 6.84 16.54 9.12
9/23/2021 11:45:00 AM 16.86 62.348 0.027 6.76 17.5 9.15
9/23/2021 12:00:00 PM 16.78 62.204 0.027 6.75 15.45 9.18
9/23/2021 12:15:00 PM 16.73 62.114 0.026 6.73 15.95 9.19
9/23/2021 12:30:00 PM 16.68 62.024 0.025 6.71 19.69 9.2
9/23/2021 12:45:00 PM 16.63 61.934 0.025 6.69 22.37 9.22
9/23/2021 1:00:00 PM 16.58 61.844 0.024 6.67 25.78 9.24
9/23/2021 1:15:00 PM 16.55 61.79 0.023 6.64 27.62 9.26
9/23/2021 1:30:00 PM 16.53 61.754 0.023 6.59 30.61 9.27
9/23/2021 1:45:00 PM 16.52 61.736 0.022 6.54 30.82 9.28
9/23/2021 2:00:00 PM 16.5 61.7 0.021 6.48 30.3 9.27
9/23/2021 2:15:00 PM 16.47 61.646 0.021 6.45 32.46 9.27
9/23/2021 2:30:00 PM 16.43 61.574 0.021 6.45 35.17 9.29
9/23/2021 2:45:00 PM 16.39 61.502 0.021 6.25 35.29 9.29
9/23/2021 3:00:00 PM 16.39 61.502 0.02 6.29 35.76 9.31
9/23/2021 3:15:00 PM 16.4 61.52 0.02 6.34 34.24 9.31
9/23/2021 3:30:00 PM 16.42 61.556 0.019 6.33 31.27 9.3
9/23/2021 3:45:00 PM 16.44 61.592 0.019 6.31 30.48 9.28
9/23/2021 4:00:00 PM 16.46 61.628 0.019 6.3 25.8 9.28
9/23/2021 4:15:00 PM 16.49 61.682 0.019 6.28 25.57 9.27
9/23/2021 4:30:00 PM 16.53 61.754 0.018 6.26 24.7 9.25
9/23/2021 4:45:00 PM 16.58 61.844 0.018 6.24 21.31 9.23
9/23/2021 5:00:00 PM 16.62 61.916 0.018 6.22 21.9 9.22
9/23/2021 5:15:00 PM 16.66 61.988 0.018 6.21 22.73 9.21
9/23/2021 5:30:00 PM 16.69 62.042 0.018 6.2 20.2 9.18
9/23/2021 5:45:00 PM 16.7 62.06 0.018 6.19 19.93 9.17
9/23/2021 6:00:00 PM 16.7 62.06 0.018 6.18 18.31 9.15
9/23/2021 6:15:00 PM 16.71 62.078 0.018 6.17 19.05 9.14
9/23/2021 6:30:00 PM 16.71 62.078 0.017 6.16 18.06 9.13
9/23/2021 6:45:00 PM 16.7 62.06 0.017 6.15 17.58 9.12
9/23/2021 7:00:00 PM 16.69 62.042 0.017 6.14 16.02 9.12
9/23/2021 7:15:00 PM 16.67 62.006 0.017 6.14 15.96 9.12
9/23/2021 7:30:00 PM 16.65 61.97 0.017 6.12 15.9 9.12
9/23/2021 7:45:00 PM 16.61 61.898 0.017 6.11 13.39 9.13
9/23/2021 8:00:00 PM 16.57 61.826 0.017 6.11 14.51 9.14
9/23/2021 8:15:00 PM 16.53 61.754 0.017 6.1 14.05 9.15
9/23/2021 8:30:00 PM 16.48 61.664 0.017 6.1 13.55 9.17
9/23/2021 8:45:00 PM 16.42 61.556 0.016 6.08 13.25 9.18
9/23/2021 9:00:00 PM 16.36 61.448 0.016 6.07 13.17 9.18
9/23/2021 9:15:00 PM 16.31 61.358 0.016 6.08 12.22 9.2
9/23/2021 9:30:00 PM 16.25 61.25 0.016 6.06 12.21 9.21
9/23/2021 9:45:00 PM 16.19 61.142 0.016 6.07 11.95 9.22
9/23/2021 10:00:00 PM 16.13 61.034 0.016 6.06 11.4 9.25
9/23/2021 10:15:00 PM 16.07 60.926 0.016 6.06 11 9.27
9/23/2021 10:30:00 PM 16.01 60.818 0.016 6.05 10.59 9.27
9/23/2021 10:45:00 PM 15.94 60.692 0.016 6.05 10.62 9.29
9/23/2021 11:00:00 PM 15.88 60.584 0.016 6.05 10.31 9.31
9/23/2021 11:15:00 PM 15.81 60.458 0.016 6.05 10.08 9.32
9/23/2021 11:30:00 PM 15.75 60.35 0.016 6.05 9.7 9.34
9/23/2021 11:45:00 PM 15.68 60.224 0.016 6.05 9.56 9.36
9/24/2021 12:00:00 AM 15.61 60.098 0.016 6.06 9.52 9.37
9/24/2021 12:15:00 AM 15.54 59.972 0.016 6.06 8.96 9.38
9/24/2021 12:30:00 AM 15.47 59.846 0.016 6.07 8.8 9.4
9/24/2021 12:45:00 AM 15.41 59.738 0.016 6.07 8.75 9.41
9/24/2021 1:00:00 AM 15.34 59.612 0.016 6.08 8.49 9.43
9/24/2021 1:15:00 AM 15.27 59.486 0.016 6.07 8.35 9.44
9/24/2021 1:30:00 AM 15.21 59.378 0.016 6.07 8.08 9.46
9/24/2021 1:45:00 AM 15.14 59.252 0.016 6.08 7.83 9.47
9/24/2021 2:00:00 AM 15.07 59.126 0.016 6.08 7.96 9.49
9/24/2021 2:15:00 AM 15 59 0.016 6.08 7.71 9.51
9/24/2021 2:30:00 AM 14.94 58.892 0.016 6.09 7.73 9.52
9/24/2021 2:45:00 AM 14.88 58.784 0.016 6.1 7.87 9.54
9/24/2021 3:00:00 AM 14.81 58.658 0.016 6.1 7.21 9.55
9/24/2021 3:15:00 AM 14.74 58.532 0.016 6.1 7.31 9.58
9/24/2021 3:30:00 AM 14.67 58.406 0.016 6.11 6.93 9.59
9/24/2021 3:45:00 AM 14.6 58.28 0.016 6.11 6.8 9.6
9/24/2021 4:00:00 AM 14.54 58.172 0.016 6.11 6.73 9.62
9/24/2021 4:15:00 AM 14.48 58.064 0.016 6.11 6.64 9.64
9/24/2021 4:30:00 AM 14.41 57.938 0.016 6.12 6.41 9.66
9/24/2021 4:45:00 AM 14.34 57.812 0.016 6.12 6.55 9.67
9/24/2021 5:00:00 AM 14.28 57.704 0.016 6.13 6.22 9.69
9/24/2021 5:15:00 AM 14.21 57.578 0.016 6.13 6.18 9.71
9/24/2021 5:30:00 AM 14.15 57.47 0.017 6.13 6.01 9.72
9/24/2021 5:45:00 AM 14.09 57.362 0.017 6.13 6.03 9.74
9/24/2021 6:00:00 AM 14.03 57.254 0.017 6.14 6.08 9.75
9/24/2021 6:15:00 AM 13.97 57.146 0.017 6.14 5.82 9.77
9/24/2021 6:30:00 AM 13.91 57.038 0.017 6.15 5.86 9.78
9/24/2021 6:45:00 AM 13.85 56.93 0.017 6.15 5.69 9.8
9/24/2021 7:00:00 AM 13.79 56.822 0.017 6.15 5.65 9.82
9/24/2021 7:15:00 AM 13.74 56.732 0.017 6.15 5.55 9.83
9/24/2021 7:30:00 AM 13.69 56.642 0.017 6.15 5.46 9.85
9/24/2021 7:45:00 AM 13.64 56.552 0.017 6.16 5.31 9.86
9/24/2021 8:00:00 AM 13.6 56.48 0.017 6.16 5.27 9.87
9/24/2021 8:15:00 AM 13.56 56.408 0.017 6.16 5.1 9.89
9/24/2021 8:30:00 AM 13.53 56.354 0.017 6.17 4.95 9.91
9/24/2021 8:45:00 AM 13.51 56.318 0.017 6.17 4.96 9.92
9/24/2021 9:00:00 AM 13.51 56.318 0.017 6.18 4.93 9.94
9/24/2021 9:15:00 AM 13.52 56.336 0.017 6.19 4.92 9.95
9/24/2021 9:30:00 AM 13.54 56.372 0.017 6.19 4.86 9.95
9/24/2021 9:45:00 AM 13.56 56.408 0.017 6.2 4.77 9.96
9/24/2021 10:00:00 AM 13.59 56.462 0.017 6.2 4.83 9.98
9/24/2021 10:15:00 AM 13.63 56.534 0.017 6.22 4.74 9.98
9/24/2021 10:30:00 AM 13.67 56.606 0.017 6.21 4.64 9.98
9/24/2021 10:45:00 AM 13.71 56.678 0.017 6.22 4.73 9.99
9/24/2021 11:00:00 AM 13.76 56.768 0.017 6.22 4.48 10
9/24/2021 11:15:00 AM 13.81 56.858 0.017 6.23 4.48 9.99
9/24/2021 11:30:00 AM 13.86 56.948 0.017 6.23 4.38 10.01
9/24/2021 11:45:00 AM 13.92 57.056 0.017 6.24 4.3 10
9/24/2021 12:00:00 PM 14 57.2 0.017 6.25 4.37 10
9/24/2021 12:15:00 PM 14.12 57.416 0.017 6.25 4.22 9.99
9/24/2021 12:30:00 PM 14.21 57.578 0.017 6.26 4.13 9.97
9/24/2021 12:45:00 PM 14.3 57.74 0.017 6.26 4.26 9.95
9/24/2021 1:00:00 PM 14.33 57.794 0.017 6.26 4.22 9.94
9/24/2021 1:15:00 PM 14.38 57.884 0.017 6.27 4.14 9.93
9/24/2021 1:30:00 PM 14.44 57.992 0.017 6.27 4.12 9.93
9/24/2021 1:45:00 PM 14.58 58.244 0.017 6.27 4.08 9.92
9/24/2021 2:00:00 PM 14.68 58.424 0.017 6.27 3.96 9.89
9/24/2021 2:15:00 PM 14.77 58.586 0.017 6.28 3.95 9.87
9/24/2021 2:30:00 PM 14.85 58.73 0.017 6.29 3.94 9.87
9/24/2021 2:45:00 PM 14.87 58.766 0.017 6.29 3.96 9.85
9/24/2021 3:00:00 PM 14.88 58.784 0.017 6.29 3.9 9.83
9/24/2021 3:15:00 PM 14.9 58.82 0.017 6.3 3.95 9.82
9/24/2021 3:30:00 PM 14.95 58.91 0.017 6.3 3.86 9.81
9/24/2021 3:45:00 PM 15.02 59.036 0.017 6.3 3.93 9.81
9/24/2021 4:00:00 PM 15.08 59.144 0.017 6.3 3.84 9.79
9/24/2021 4:15:00 PM 15.08 59.144 0.017 6.31 3.8 9.77
9/24/2021 4:30:00 PM 15.09 59.162 0.017 6.3 3.65 9.74
9/24/2021 4:45:00 PM 15.11 59.198 0.017 6.31 3.72 9.74
9/24/2021 5:00:00 PM 15.11 59.198 0.018 6.31 3.84 9.72
9/24/2021 5:15:00 PM 15.1 59.18 0.018 6.31 3.66 9.71
9/24/2021 5:30:00 PM 15.09 59.162 0.019 6.31 3.73 9.69
9/24/2021 5:45:00 PM 15.09 59.162 0.018 6.31 3.64 9.68
9/24/2021 6:00:00 PM 15.08 59.144 0.018 6.31 3.57 9.67
9/24/2021 6:15:00 PM 15.08 59.144 0.018 6.31 3.56 9.66
9/24/2021 6:30:00 PM 15.07 59.126 0.018 6.31 3.66 9.66
9/24/2021 6:45:00 PM 15.05 59.09 0.017 6.31 3.56 9.64
9/24/2021 7:00:00 PM 15.03 59.054 0.018 6.31 3.47 9.64
9/24/2021 7:15:00 PM 15 59 0.018 6.31 3.49 9.63
9/24/2021 7:30:00 PM 14.96 58.928 0.018 6.31 3.57 9.63
9/24/2021 7:45:00 PM 14.93 58.874 0.018 6.31 3.49 9.64
9/24/2021 8:00:00 PM 14.89 58.802 0.018 6.31 3.5 9.63
9/24/2021 8:15:00 PM 14.85 58.73 0.018 6.31 3.45 9.65
9/24/2021 8:30:00 PM 14.8 58.64 0.018 6.31 3.53 9.65
9/24/2021 8:45:00 PM 14.76 58.568 0.018 6.31 3.38 9.66
9/24/2021 9:00:00 PM 14.71 58.478 0.018 6.31 3.43 9.67
9/24/2021 9:15:00 PM 14.66 58.388 0.018 6.31 3.48 9.68
9/24/2021 9:30:00 PM 14.6 58.28 0.018 6.31 3.35 9.69
9/24/2021 9:45:00 PM 14.55 58.19 0.018 6.31 3.3 9.7
9/24/2021 10:00:00 PM 14.49 58.082 0.018 6.31 3.31 9.71
9/24/2021 10:15:00 PM 14.44 57.992 0.018 6.31 3.36 9.72
9/24/2021 10:30:00 PM 14.38 57.884 0.018 6.32 3.32 9.73
9/24/2021 10:45:00 PM 14.33 57.794 0.018 6.31 3.33 9.75
9/24/2021 11:00:00 PM 14.27 57.686 0.018 6.32 3.29 9.76
9/24/2021 11:15:00 PM 14.22 57.596 0.018 6.31 3.35 9.77
9/24/2021 11:30:00 PM 14.16 57.488 0.018 6.32 3.27 9.78
9/24/2021 11:45:00 PM 14.11 57.398 0.018 6.32 3.26 9.79
9/25/2021 12:00:00 AM 14.05 57.29 0.018 6.32 3.24 9.81
9/25/2021 12:15:00 AM 14 57.2 0.018 6.32 3.31 9.81
9/25/2021 12:30:00 AM 13.95 57.11 0.018 6.32 3.29 9.82
9/25/2021 12:45:00 AM 13.89 57.002 0.018 6.32 3.34 9.83
9/25/2021 1:00:00 AM 13.84 56.912 0.018 6.32 3.27 9.84
9/25/2021 1:15:00 AM 13.79 56.822 0.018 6.33 3.2 9.85
9/25/2021 1:30:00 AM 13.74 56.732 0.018 6.31 3.18 9.86
9/25/2021 1:45:00 AM 13.69 56.642 0.018 6.32 3.14 9.88
9/25/2021 2:00:00 AM 13.64 56.552 0.018 6.33 3.08 9.89
9/25/2021 2:15:00 AM 13.59 56.462 0.018 6.33 3.08 9.9
9/25/2021 2:30:00 AM 13.53 56.354 0.018 6.33 3.11 9.92
9/25/2021 2:45:00 AM 13.48 56.264 0.018 6.33 3.15 9.92
9/25/2021 3:00:00 AM 13.43 56.174 0.018 6.33 3.07 9.94
9/25/2021 3:15:00 AM 13.38 56.084 0.019 6.33 3.05 9.95
9/25/2021 3:30:00 AM 13.33 55.994 0.019 6.34 3.12 9.96
9/25/2021 3:45:00 AM 13.28 55.904 0.019 6.34 3.1 9.97
9/25/2021 4:00:00 AM 13.22 55.796 0.019 6.34 3.07 9.98
9/25/2021 4:15:00 AM 13.17 55.706 0.019 6.34 3.01 9.99
9/25/2021 4:30:00 AM 13.12 55.616 0.019 6.34 3.08 9.99
9/25/2021 4:45:00 AM 13.07 55.526 0.019 6.35 3.09 10.01
9/25/2021 5:00:00 AM 13.02 55.436 0.019 6.34 3.01 10.01
9/25/2021 5:15:00 AM 12.96 55.328 0.019 6.35 2.93 10.03
9/25/2021 5:30:00 AM 12.91 55.238 0.019 6.35 2.99 10.04
9/25/2021 5:45:00 AM 12.86 55.148 0.019 6.35 3.01 10.06
9/25/2021 6:00:00 AM 12.81 55.058 0.019 6.35 2.99 10.06
9/25/2021 6:15:00 AM 12.76 54.968 0.019 6.35 3 10.08
9/25/2021 6:30:00 AM 12.71 54.878 0.019 6.35 3.05 10.09
9/25/2021 6:45:00 AM 12.66 54.788 0.019 6.36 3.06 10.1
9/25/2021 7:00:00 AM 12.61 54.698 0.019 6.36 3.01 10.11
9/25/2021 7:15:00 AM 12.56 54.608 0.019 6.36 3.05 10.13
9/25/2021 7:30:00 AM 12.52 54.536 0.019 6.37 2.95 10.15
9/25/2021 7:45:00 AM 12.48 54.464 0.019 6.36 2.94 10.17
9/25/2021 8:00:00 AM 12.44 54.392 0.019 6.37 2.91 10.19
9/25/2021 8:15:00 AM 12.43 54.374 0.019 6.38 2.89 10.22
9/25/2021 8:30:00 AM 12.42 54.356 0.019 6.38 2.86 10.24
9/25/2021 8:45:00 AM 12.43 54.374 0.019 6.38 2.84 10.25
9/25/2021 9:00:00 AM 12.45 54.41 0.019 6.39 2.82 10.27
9/25/2021 9:15:00 AM 12.5 54.5 0.019 6.4 2.9 10.29
9/25/2021 9:30:00 AM 12.55 54.59 0.019 6.41 2.81 10.3
9/25/2021 9:45:00 AM 12.6 54.68 0.019 6.41 2.84 10.3
9/25/2021 10:00:00 AM 12.66 54.788 0.019 6.41 2.89 10.3
9/25/2021 10:15:00 AM 12.77 54.986 0.019 6.42 2.8 10.29
9/25/2021 10:30:00 AM 12.88 55.184 0.019 6.43 2.77 10.29
9/25/2021 10:45:00 AM 12.99 55.382 0.019 6.43 2.9 10.28
9/25/2021 11:00:00 AM 13.12 55.616 0.019 6.44 2.77 10.26
9/25/2021 11:15:00 AM 13.25 55.85 0.019 6.45 2.75 10.25
9/25/2021 11:30:00 AM 13.38 56.084 0.019 6.45 2.8 10.23
9/25/2021 11:45:00 AM 13.52 56.336 0.02 6.45 2.82 10.22
9/25/2021 12:00:00 PM 13.65 56.57 0.02 6.46 2.73 10.2
9/25/2021 12:15:00 PM 13.78 56.804 0.02 6.47 2.72 10.18
9/25/2021 12:30:00 PM 13.91 57.038 0.019 6.47 2.7 10.16
9/25/2021 12:45:00 PM 14.02 57.236 0.02 6.48 2.7 10.14
9/25/2021 1:00:00 PM 14.12 57.416 0.02 6.48 2.66 10.12
9/25/2021 1:15:00 PM 14.22 57.596 0.02 6.49 2.69 10.11
9/25/2021 1:30:00 PM 14.32 57.776 0.02 6.49 2.69 10.09
9/25/2021 1:45:00 PM 14.4 57.92 0.02 6.49 2.62 10.07
9/25/2021 2:00:00 PM 14.45 58.01 0.02 6.5 2.66 10.06
9/25/2021 2:15:00 PM 14.49 58.082 0.02 6.51 2.71 10.04
9/25/2021 2:30:00 PM 14.56 58.208 0.02 6.5 2.66 10.03
9/25/2021 2:45:00 PM 14.64 58.352 0.02 6.5 2.66 10.01
9/25/2021 3:00:00 PM 14.71 58.478 0.02 6.5 2.62 9.99
9/25/2021 3:15:00 PM 14.77 58.586 0.02 6.5 2.59 9.97
9/25/2021 3:30:00 PM 14.8 58.64 0.02 6.51 2.66 9.94
9/25/2021 3:45:00 PM 14.81 58.658 0.02 6.51 2.62 9.93
9/25/2021 4:00:00 PM 14.83 58.694 0.02 6.51 2.6 9.91
9/25/2021 4:15:00 PM 14.85 58.73 0.02 6.51 2.62 9.9
9/25/2021 4:30:00 PM 14.85 58.73 0.02 6.5 2.54 9.87
9/25/2021 4:45:00 PM 14.82 58.676 0.02 6.5 2.58 9.85
9/25/2021 5:00:00 PM 14.8 58.64 0.02 6.5 2.59 9.85
9/25/2021 5:15:00 PM 14.8 58.64 0.02 6.5 2.59 9.83
9/25/2021 5:30:00 PM 14.81 58.658 0.02 6.5 2.53 9.81
9/25/2021 5:45:00 PM 14.82 58.676 0.02 6.5 2.59 9.8
9/25/2021 6:00:00 PM 14.83 58.694 0.02 6.49 2.58 9.79
9/25/2021 6:15:00 PM 14.84 58.712 0.02 6.49 2.65 9.76
9/25/2021 6:30:00 PM 14.84 58.712 0.02 6.49 2.7 9.74
9/25/2021 6:45:00 PM 14.83 58.694 0.02 6.48 2.68 9.71
9/25/2021 7:00:00 PM 14.82 58.676 0.02 6.48 2.58 9.67
9/25/2021 7:15:00 PM 14.81 58.658 0.02 6.48 2.66 9.64
9/25/2021 7:30:00 PM 14.79 58.622 0.021 6.47 2.61 9.63
9/25/2021 7:45:00 PM 14.77 58.586 0.021 6.47 2.63 9.62
9/25/2021 8:00:00 PM 14.76 58.568 0.02 6.47 2.63 9.62
9/25/2021 8:15:00 PM 14.74 58.532 0.02 6.47 2.63 9.62
9/25/2021 8:30:00 PM 14.72 58.496 0.021 6.47 2.58 9.61
9/25/2021 8:45:00 PM 14.7 58.46 0.02 6.46 2.73 9.62
9/25/2021 9:00:00 PM 14.67 58.406 0.021 6.47 2.77 9.62
9/25/2021 9:15:00 PM 14.63 58.334 0.021 6.47 2.64 9.63
9/25/2021 9:30:00 PM 14.6 58.28 0.021 6.47 2.65 9.63
9/25/2021 9:45:00 PM 14.56 58.208 0.021 6.47 2.65 9.64
9/25/2021 10:00:00 PM 14.51 58.118 0.021 6.46 2.68 9.65
9/25/2021 10:15:00 PM 14.46 58.028 0.021 6.46 2.64 9.65
9/25/2021 10:30:00 PM 14.41 57.938 0.021 6.46 2.72 9.67
9/25/2021 10:45:00 PM 14.37 57.866 0.021 6.47 2.65 9.68
9/25/2021 11:00:00 PM 14.34 57.812 0.021 6.46 2.61 9.68
9/25/2021 11:15:00 PM 14.31 57.758 0.021 6.46 2.65 9.69
9/25/2021 11:30:00 PM 14.27 57.686 0.021 6.46 2.66 9.7
9/25/2021 11:45:00 PM 14.24 57.632 0.021 6.47 2.61 9.71
9/26/2021 12:00:00 AM 14.2 57.56 0.021 6.47 2.54 9.72
9/26/2021 12:15:00 AM 14.16 57.488 0.021 6.46 2.58 9.72
9/26/2021 12:30:00 AM 14.13 57.434 0.021 6.46 2.59 9.73
9/26/2021 12:45:00 AM 14.1 57.38 0.021 6.46 2.57 9.74
9/26/2021 1:00:00 AM 14.06 57.308 0.021 6.46 2.58 9.74
9/26/2021 1:15:00 AM 14.03 57.254 0.021 6.46 2.56 9.75
9/26/2021 1:30:00 AM 13.99 57.182 0.021 6.45 2.51 9.76
9/26/2021 1:45:00 AM 13.96 57.128 0.021 6.45 2.47 9.77
9/26/2021 2:00:00 AM 13.93 57.074 0.021 6.46 2.55 9.78
9/26/2021 2:15:00 AM 13.91 57.038 0.021 6.46 2.47 9.78
9/26/2021 2:30:00 AM 13.89 57.002 0.021 6.47 2.54 9.79
9/26/2021 2:45:00 AM 13.86 56.948 0.021 6.47 2.54 9.78
9/26/2021 3:00:00 AM 13.84 56.912 0.021 6.47 2.61 9.8
9/26/2021 3:15:00 AM 13.82 56.876 0.021 6.47 2.47 9.8
9/26/2021 3:30:00 AM 13.79 56.822 0.021 6.48 2.6 9.81
9/26/2021 3:45:00 AM 13.75 56.75 0.021 6.47 2.52 9.81
9/26/2021 4:00:00 AM 13.7 56.66 0.021 6.47 2.52 9.82
9/26/2021 4:15:00 AM 13.65 56.57 0.021 6.47 2.5 9.83
9/26/2021 4:30:00 AM 13.6 56.48 0.021 6.47 2.51 9.83
9/26/2021 4:45:00 AM 13.56 56.408 0.021 6.48 2.47 9.85
9/26/2021 5:00:00 AM 13.53 56.354 0.021 6.48 2.48 9.85
9/26/2021 5:15:00 AM 13.49 56.282 0.021 6.48 2.52 9.86
9/26/2021 5:30:00 AM 13.44 56.192 0.021 6.48 2.5 9.87
9/26/2021 5:45:00 AM 13.39 56.102 0.021 6.47 2.69 9.86
9/26/2021 6:00:00 AM 13.34 56.012 0.021 6.48 3.11 9.9
9/26/2021 6:15:00 AM 13.29 55.922 0.021 6.48 2.55 9.89
9/26/2021 6:30:00 AM 13.24 55.832 0.022 6.48 2.5 9.91
9/26/2021 6:45:00 AM 13.19 55.742 0.022 6.47 2.56 9.92
9/26/2021 7:00:00 AM 13.14 55.652 0.022 6.48 2.38 9.93
9/26/2021 7:15:00 AM 13.1 55.58 0.022 6.48 2.45 9.95
9/26/2021 7:30:00 AM 13.05 55.49 0.022 6.48 2.45 9.97
9/26/2021 7:45:00 AM 13.01 55.418 0.022 6.49 2.5 10
9/26/2021 8:00:00 AM 12.98 55.364 0.022 6.49 2.48 10.03
9/26/2021 8:15:00 AM 12.95 55.31 0.022 6.5 2.38 10.05
9/26/2021 8:30:00 AM 12.93 55.274 0.022 6.5 2.41 10.07
9/26/2021 8:45:00 AM 12.92 55.256 0.021 6.51 2.39 10.1
9/26/2021 9:00:00 AM 12.93 55.274 0.022 6.5 2.4 10.11
9/26/2021 9:15:00 AM 12.95 55.31 0.022 6.52 2.36 10.14
9/26/2021 9:30:00 AM 12.99 55.382 0.022 6.53 2.41 10.15
9/26/2021 9:45:00 AM 13.05 55.49 0.022 6.53 2.45 10.16
9/26/2021 10:00:00 AM 13.13 55.634 0.022 6.53 2.45 10.18
9/26/2021 10:15:00 AM 13.21 55.778 0.022 6.54 2.4 10.18
9/26/2021 10:30:00 AM 13.31 55.958 0.021 6.54 2.43 10.19
9/26/2021 10:45:00 AM 13.42 56.156 0.022 6.53 2.4 10.17
9/26/2021 11:00:00 AM 13.54 56.372 0.022 6.55 2.37 10.17
9/26/2021 11:15:00 AM 13.64 56.552 0.022 6.55 2.38 10.16
9/26/2021 11:30:00 AM 13.76 56.768 0.022 6.56 2.39 10.17
9/26/2021 11:45:00 AM 13.87 56.966 0.022 6.56 2.39 10.14
9/26/2021 12:00:00 PM 13.98 57.164 0.022 6.56 2.42 10.13
9/26/2021 12:15:00 PM 14.09 57.362 0.022 6.57 2.4 10.11
9/26/2021 12:30:00 PM 14.22 57.596 0.022 6.57 2.41 10.09
9/26/2021 12:45:00 PM 14.32 57.776 0.022 6.57 2.37 10.07
9/26/2021 1:00:00 PM 14.44 57.992 0.022 6.57 2.47 10.06
9/26/2021 1:15:00 PM 14.56 58.208 0.022 6.58 2.44 10.06
9/26/2021 1:30:00 PM 14.67 58.406 0.022 6.59 2.43 10.04
9/26/2021 1:45:00 PM 14.75 58.55 0.022 6.59 2.39 10.03
9/26/2021 2:00:00 PM 14.79 58.622 0.022 6.61 2.34 10.03
9/26/2021 2:15:00 PM 14.82 58.676 0.022 6.59 2.44 10.01
9/26/2021 2:30:00 PM 14.89 58.802 0.022 6.6 2.3 10
9/26/2021 2:45:00 PM 14.88 58.784 0.022 6.6 2.53 9.98
9/26/2021 3:00:00 PM 14.9 58.82 0.022 6.61 2.39 9.99
9/26/2021 3:15:00 PM 14.91 58.838 0.022 6.6 2.3 9.96
9/26/2021 3:30:00 PM 14.85 58.73 0.022 6.61 2.38 9.94
9/26/2021 3:45:00 PM 14.74 58.532 0.022 6.6 2.33 9.91
9/26/2021 4:00:00 PM 14.67 58.406 0.022 6.59 2.38 9.9
9/26/2021 4:15:00 PM 14.67 58.406 0.022 6.59 2.32 9.91
9/26/2021 4:30:00 PM 14.71 58.478 0.022 6.61 2.38 9.91
9/26/2021 4:45:00 PM 14.73 58.514 0.022 6.6 2.34 9.9
9/26/2021 5:00:00 PM 14.71 58.478 0.022 6.61 2.36 9.89
9/26/2021 5:15:00 PM 14.64 58.352 0.022 6.61 2.41 9.88
9/26/2021 5:30:00 PM 14.59 58.262 0.022 6.59 2.45 9.85
9/26/2021 5:45:00 PM 14.54 58.172 0.022 6.57 2.41 9.82
9/26/2021 6:00:00 PM 14.51 58.118 0.022 6.57 2.37 9.82
9/26/2021 6:15:00 PM 14.45 58.01 0.023 6.57 2.46 9.8
9/26/2021 6:30:00 PM 14.39 57.902 0.022 6.57 2.45 9.78
9/26/2021 6:45:00 PM 14.33 57.794 0.023 6.56 2.43 9.76
9/26/2021 7:00:00 PM 14.28 57.704 0.022 6.56 2.43 9.75
9/26/2021 7:15:00 PM 14.24 57.632 0.023 6.55 2.36 9.74
9/26/2021 7:30:00 PM 14.19 57.542 0.023 6.54 2.42 9.71
9/26/2021 7:45:00 PM 14.15 57.47 0.023 6.55 2.4 9.72
9/26/2021 8:00:00 PM 14.11 57.398 0.022 6.55 2.35 9.73
9/26/2021 8:15:00 PM 14.06 57.308 0.022 6.56 2.45 9.74
9/26/2021 8:30:00 PM 14.02 57.236 0.023 6.54 2.46 9.74
9/26/2021 8:45:00 PM 13.98 57.164 0.023 6.54 2.41 9.74
9/26/2021 9:00:00 PM 13.93 57.074 0.023 6.54 2.42 9.75
9/26/2021 9:15:00 PM 13.88 56.984 0.023 6.54 2.36 9.76
9/26/2021 9:30:00 PM 13.84 56.912 0.023 6.53 2.34 9.76
9/26/2021 9:45:00 PM 13.79 56.822 0.023 6.54 2.32 9.78
9/26/2021 10:00:00 PM 13.75 56.75 0.023 6.54 2.37 9.79
9/26/2021 10:15:00 PM 13.7 56.66 0.023 6.54 2.41 9.8
9/26/2021 10:30:00 PM 13.66 56.588 0.023 6.53 2.45 9.81
9/26/2021 10:45:00 PM 13.64 56.552 0.023 6.54 2.35 9.82
9/26/2021 11:00:00 PM 13.61 56.498 0.023 6.54 2.37 9.81
9/26/2021 11:15:00 PM 13.59 56.462 0.023 6.54 2.43 9.84
9/26/2021 11:30:00 PM 13.57 56.426 0.023 6.55 2.37 9.85
9/26/2021 11:45:00 PM 13.55 56.39 0.023 6.54 2.39 9.85
9/27/2021 12:00:00 AM 13.52 56.336 0.023 6.54 2.38 9.85
9/27/2021 12:15:00 AM 13.5 56.3 0.023 6.53 2.39 9.85
9/27/2021 12:30:00 AM 13.47 56.246 0.023 6.52 2.44 9.84
9/27/2021 12:45:00 AM 13.45 56.21 0.023 6.53 2.41 9.86
9/27/2021 1:00:00 AM 13.42 56.156 0.023 6.52 2.4 9.88
9/27/2021 1:15:00 AM 13.39 56.102 0.023 6.53 2.39 9.87
9/27/2021 1:30:00 AM 13.37 56.066 0.023 6.53 2.35 9.87
9/27/2021 1:45:00 AM 13.36 56.048 0.023 6.54 2.35 9.89
9/27/2021 2:00:00 AM 13.34 56.012 0.023 6.53 2.35 9.89
9/27/2021 2:15:00 AM 13.32 55.976 0.023 6.53 2.39 9.9
9/27/2021 2:30:00 AM 13.29 55.922 0.023 6.54 2.34 9.91
9/27/2021 2:45:00 AM 13.26 55.868 0.023 6.54 2.41 9.92
9/27/2021 3:00:00 AM 13.23 55.814 0.023 6.53 2.44 9.92
9/27/2021 3:15:00 AM 13.18 55.724 0.023 6.54 2.46 9.94
9/27/2021 3:30:00 AM 13.14 55.652 0.023 6.53 2.45 9.93
9/27/2021 3:45:00 AM 13.1 55.58 0.023 6.52 2.34 9.93
9/27/2021 4:00:00 AM 13.07 55.526 0.023 6.53 2.37 9.95
9/27/2021 4:15:00 AM 13.03 55.454 0.023 6.53 2.32 9.96
9/27/2021 4:30:00 AM 13.01 55.418 0.023 6.55 2.32 9.98
9/27/2021 4:45:00 AM 13 55.4 0.023 6.55 2.39 9.98
9/27/2021 5:00:00 AM 12.99 55.382 0.023 6.54 2.41 9.98
9/27/2021 5:15:00 AM 12.98 55.364 0.023 6.54 2.31 9.99
9/27/2021 5:30:00 AM 12.97 55.346 0.023 6.54 2.39 9.98
9/27/2021 5:45:00 AM 12.96 55.328 0.023 6.54 2.33 10
9/27/2021 6:00:00 AM 12.95 55.31 0.023 6.53 2.26 9.99
9/27/2021 6:15:00 AM 12.93 55.274 0.023 6.54 2.37 10
9/27/2021 6:30:00 AM 12.92 55.256 0.023 6.54 2.38 10
9/27/2021 6:45:00 AM 12.91 55.238 0.023 6.54 2.34 10
9/27/2021 7:00:00 AM 12.89 55.202 0.024 6.53 2.31 10
9/27/2021 7:15:00 AM 12.88 55.184 0.023 6.55 2.42 10.03
9/27/2021 7:30:00 AM 12.88 55.184 0.023 6.54 2.37 10.03
9/27/2021 7:45:00 AM 12.88 55.184 0.023 6.55 2.37 10.04
9/27/2021 8:00:00 AM 12.89 55.202 0.023 6.57 2.32 10.07
9/27/2021 8:15:00 AM 12.9 55.22 0.023 6.56 2.32 10.1
9/27/2021 8:30:00 AM 12.91 55.238 0.023 6.57 2.33 10.13
9/27/2021 8:45:00 AM 12.94 55.292 0.023 6.58 2.29 10.16
9/27/2021 9:00:00 AM 12.97 55.346 0.023 6.58 2.35 10.19
9/27/2021 9:15:00 AM 13 55.4 0.023 6.6 2.4 10.22
9/27/2021 9:30:00 AM 13.04 55.472 0.024 6.59 2.27 10.22
9/27/2021 9:45:00 AM 13.11 55.598 0.023 6.61 2.4 10.25
9/27/2021 10:00:00 AM 13.21 55.778 0.023 6.61 2.31 10.25
9/27/2021 10:15:00 AM 13.34 56.012 0.023 6.62 2.41 10.26
9/27/2021 10:30:00 AM 13.48 56.264 0.023 6.63 2.3 10.26
9/27/2021 10:45:00 AM 13.61 56.498 0.023 6.63 2.37 10.24
9/27/2021 11:00:00 AM 13.74 56.732 0.023 6.64 2.31 10.26
9/27/2021 11:15:00 AM 13.86 56.948 0.023 6.64 2.38 10.23
9/27/2021 11:30:00 AM 13.98 57.164 0.023 6.64 2.33 10.23
9/27/2021 11:45:00 AM 14.17 57.506 0.023 6.65 2.3 10.22
9/27/2021 12:00:00 PM 14.36 57.848 0.023 6.66 2.34 10.2
9/27/2021 12:15:00 PM 14.55 58.19 0.023 6.69 2.26 10.19
9/27/2021 12:30:00 PM 14.73 58.514 0.023 6.67 2.28 10.15
9/27/2021 12:45:00 PM 14.91 58.838 0.023 6.69 2.39 10.12
9/27/2021 1:00:00 PM 15.05 59.09 0.023 6.71 2.31 10.1
9/27/2021 1:15:00 PM 15.19 59.342 0.023 6.68 2.29 10.06
9/27/2021 1:30:00 PM 15.34 59.612 0.023 6.68 2.35 10.01
9/27/2021 1:45:00 PM 15.5 59.9 0.023 6.72 2.32 9.98
9/27/2021 2:00:00 PM 15.63 60.134 0.023 6.68 2.3 9.94
9/27/2021 2:15:00 PM 15.73 60.314 0.023 6.68 2.29 9.91
9/27/2021 2:30:00 PM 15.8 60.44 0.023 6.68 2.39 9.89
9/27/2021 2:45:00 PM 15.86 60.548 0.023 6.7 2.3 9.87
9/27/2021 3:00:00 PM 15.89 60.602 0.024 6.67 2.32 9.83
9/27/2021 3:15:00 PM 15.95 60.71 0.023 6.71 2.3 9.85
9/27/2021 3:30:00 PM 15.98 60.764 0.023 6.69 2.36 9.81
9/27/2021 3:45:00 PM 16 60.8 0.023 6.72 2.36 9.81
9/27/2021 4:00:00 PM 15.99 60.782 0.023 6.69 2.24 9.78
9/27/2021 4:15:00 PM 15.96 60.728 0.024 6.7 2.25 9.78
9/27/2021 4:30:00 PM 15.9 60.62 0.023 6.72 2.3 9.79
9/27/2021 4:45:00 PM 15.83 60.494 0.024 6.7 2.33 9.76
9/27/2021 5:00:00 PM 15.79 60.422 0.023 6.7 2.31 9.77
9/27/2021 5:15:00 PM 15.75 60.35 0.023 6.7 2.3 9.76
9/27/2021 5:30:00 PM 15.72 60.296 0.024 6.7 2.22 9.74
9/27/2021 5:45:00 PM 15.66 60.188 0.024 6.67 2.26 9.72
9/27/2021 6:00:00 PM 15.62 60.116 0.024 6.66 2.29 9.69
9/27/2021 6:15:00 PM 15.56 60.008 0.024 6.66 2.34 9.67
9/27/2021 6:30:00 PM 15.5 59.9 0.024 6.68 2.31 9.64
9/27/2021 6:45:00 PM 15.44 59.792 0.024 6.65 2.27 9.6
9/27/2021 7:00:00 PM 15.39 59.702 0.024 6.65 2.24 9.55
9/27/2021 7:15:00 PM 15.34 59.612 0.025 6.63 2.27 9.51
9/27/2021 7:30:00 PM 15.3 59.54 0.026 6.64 2.29 9.49
9/27/2021 7:45:00 PM 15.26 59.468 0.026 6.63 2.42 9.47
9/27/2021 8:00:00 PM 15.22 59.396 0.025 6.63 2.3 9.47
9/27/2021 8:15:00 PM 15.19 59.342 0.025 6.62 2.41 9.47
9/27/2021 8:30:00 PM 15.15 59.27 0.025 6.61 2.38 9.45
9/27/2021 8:45:00 PM 15.12 59.216 0.025 6.63 2.24 9.47
9/27/2021 9:00:00 PM 15.09 59.162 0.025 6.61 2.28 9.46
9/27/2021 9:15:00 PM 15.05 59.09 0.025 6.61 2.29 9.46
9/27/2021 9:30:00 PM 15.02 59.036 0.025 6.61 2.28 9.47
9/27/2021 9:45:00 PM 14.99 58.982 0.025 6.61 2.31 9.48
9/27/2021 10:00:00 PM 14.96 58.928 0.025 6.6 2.35 9.48
9/27/2021 10:15:00 PM 14.93 58.874 0.024 6.62 2.33 9.49
9/27/2021 10:30:00 PM 14.9 58.82 0.025 6.61 2.34 9.5
9/27/2021 10:45:00 PM 14.87 58.766 0.025 6.59 2.32 9.48
9/27/2021 11:00:00 PM 14.84 58.712 0.024 6.61 2.27 9.51
9/27/2021 11:15:00 PM 14.81 58.658 0.025 6.6 2.37 9.51
9/27/2021 11:30:00 PM 14.78 58.604 0.024 6.61 2.36 9.52
9/27/2021 11:45:00 PM 14.75 58.55 0.025 6.6 2.31 9.52
9/28/2021 12:00:00 AM 14.72 58.496 0.025 6.6 2.34 9.52
9/28/2021 12:15:00 AM 14.69 58.442 0.025 6.59 2.3 9.52
9/28/2021 12:30:00 AM 14.66 58.388 0.025 6.6 2.35 9.53
9/28/2021 12:45:00 AM 14.63 58.334 0.025 6.58 2.36 9.53
9/28/2021 1:00:00 AM 14.6 58.28 0.025 6.6 2.29 9.54
9/28/2021 1:15:00 AM 14.56 58.208 0.025 6.6 2.33 9.56
9/28/2021 1:30:00 AM 14.53 58.154 0.025 6.6 2.32 9.56
9/28/2021 1:45:00 AM 14.5 58.1 0.025 6.58 3.03 9.56
9/28/2021 2:00:00 AM 14.47 58.046 0.025 6.59 2.34 9.57
9/28/2021 2:15:00 AM 14.44 57.992 0.025 6.6 2.28 9.57
9/28/2021 2:30:00 AM 14.41 57.938 0.025 6.6 2.23 9.59
9/28/2021 2:45:00 AM 14.39 57.902 0.025 6.58 2.32 9.59
9/28/2021 3:00:00 AM 14.37 57.866 0.025 6.59 2.31 9.6
9/28/2021 3:15:00 AM 14.35 57.83 0.025 6.6 2.31 9.6
9/28/2021 3:30:00 AM 14.34 57.812 0.025 6.59 2.26 9.61
9/28/2021 3:45:00 AM 14.32 57.776 0.025 6.59 2.37 9.61
9/28/2021 4:00:00 AM 14.3 57.74 0.025 6.59 2.29 9.61
9/28/2021 4:15:00 AM 14.29 57.722 0.025 6.6 2.37 9.62
9/28/2021 4:30:00 AM 14.26 57.668 0.025 6.58 2.3 9.62
9/28/2021 4:45:00 AM 14.25 57.65 0.025 6.59 2.31 9.63
9/28/2021 5:00:00 AM 14.23 57.614 0.025 6.58 2.29 9.63
9/28/2021 5:15:00 AM 14.22 57.596 0.025 6.58 2.29 9.63
9/28/2021 5:30:00 AM 14.21 57.578 0.025 6.59 2.33 9.64
9/28/2021 5:45:00 AM 14.19 57.542 0.025 6.59 2.36 9.64
9/28/2021 6:00:00 AM 14.17 57.506 0.025 6.57 2.32 9.64
9/28/2021 6:15:00 AM 14.15 57.47 0.025 6.58 2.34 9.65
9/28/2021 6:30:00 AM 14.13 57.434 0.025 6.57 2.32 9.64
9/28/2021 6:45:00 AM 14.1 57.38 0.025 6.57 2.35 9.66
9/28/2021 7:00:00 AM 14.08 57.344 0.025 6.58 2.37 9.66
9/28/2021 7:15:00 AM 14.07 57.326 0.025 6.58 2.32 9.67
9/28/2021 7:30:00 AM 14.06 57.308 0.025 6.57 2.35 9.67
9/28/2021 7:45:00 AM 14.07 57.326 0.025 6.58 2.32 9.69
9/28/2021 8:00:00 AM 14.07 57.326 0.025 6.57 2.31 9.69
9/28/2021 8:15:00 AM 14.08 57.344 0.025 6.59 2.4 9.71
9/28/2021 8:30:00 AM 14.09 57.362 0.025 6.58 2.28 9.7
9/28/2021 8:45:00 AM 14.1 57.38 0.026 6.58 2.26 9.7
9/28/2021 9:00:00 AM 14.1 57.38 0.025 6.58 2.31 9.7
9/28/2021 9:15:00 AM 14.12 57.416 0.025 6.61 2.38 9.72
9/28/2021 9:30:00 AM 14.13 57.434 0.025 6.59 2.32 9.74
9/28/2021 9:45:00 AM 14.15 57.47 0.025 6.6 2.34 9.76
9/28/2021 10:00:00 AM 14.21 57.578 0.025 6.63 2.34 9.84
9/28/2021 10:15:00 AM 14.27 57.686 0.025 6.65 2.33 9.88
9/28/2021 10:30:00 AM 14.33 57.794 0.025 6.65 2.32 9.93
9/28/2021 10:45:00 AM 14.36 57.848 0.025 6.66 2.28 9.94
9/28/2021 11:00:00 AM 14.38 57.884 0.025 6.67 2.3 9.91
9/28/2021 11:15:00 AM 14.39 57.902 0.025 6.67 2.37 9.9
9/28/2021 11:30:00 AM 14.39 57.902 0.025 6.65 2.37 9.89
9/28/2021 11:45:00 AM 14.42 57.956 0.025 6.65 2.3 9.9
9/28/2021 12:00:00 PM 14.48 58.064 0.025 6.69 2.38 9.96
9/28/2021 12:15:00 PM 14.53 58.154 0.025 6.69 2.34 9.95
9/28/2021 12:30:00 PM 14.56 58.208 0.025 6.68 2.36 9.94
9/28/2021 12:45:00 PM 14.58 58.244 0.025 6.69 2.43 9.91
9/28/2021 1:00:00 PM 14.58 58.244 0.025 6.69 2.36 9.91
9/28/2021 1:15:00 PM 14.59 58.262 0.025 6.69 2.35 9.91
9/28/2021 1:30:00 PM 14.61 58.298 0.025 6.68 2.42 9.92
9/28/2021 1:45:00 PM 14.64 58.352 0.025 6.7 2.37 9.93
9/28/2021 2:00:00 PM 14.64 58.352 0.025 6.68 2.35 9.91
9/28/2021 2:15:00 PM 14.64 58.352 0.025 6.69 2.31 9.89
9/28/2021 2:30:00 PM 14.62 58.316 0.025 6.69 2.38 9.87
9/28/2021 2:45:00 PM 14.6 58.28 0.025 6.69 2.41 9.87
9/28/2021 3:00:00 PM 14.6 58.28 0.025 6.68 2.36 9.86
9/28/2021 3:15:00 PM 14.59 58.262 0.025 6.71 2.38 9.88
9/28/2021 3:30:00 PM 14.6 58.28 0.025 6.7 2.38 9.88
9/28/2021 3:45:00 PM 14.6 58.28 0.025 6.71 2.38 9.89
9/28/2021 4:00:00 PM 14.64 58.352 0.025 6.69 2.42 9.91
9/28/2021 4:15:00 PM 14.68 58.424 0.025 6.71 2.44 9.93
9/28/2021 4:30:00 PM 14.71 58.478 0.025 6.71 2.52 9.95
9/28/2021 4:45:00 PM 14.71 58.478 0.025 6.72 2.49 9.94
9/28/2021 5:00:00 PM 14.69 58.442 0.025 6.71 2.56 9.93
9/28/2021 5:15:00 PM 14.68 58.424 0.025 6.71 2.55 9.94
9/28/2021 5:30:00 PM 14.69 58.442 0.025 6.73 2.48 9.95
9/28/2021 5:45:00 PM 14.71 58.478 0.025 6.73 2.39 9.94
9/28/2021 6:00:00 PM 14.68 58.424 0.025 6.73 2.39 9.93
9/28/2021 6:15:00 PM 14.62 58.316 0.025 6.73 2.4 9.89
9/28/2021 6:30:00 PM 14.54 58.172 0.025 6.7 2.44 9.85
9/28/2021 6:45:00 PM 14.46 58.028 0.025 6.71 2.38 9.82
9/28/2021 7:00:00 PM 14.38 57.884 0.025 6.68 2.44 9.78
9/28/2021 7:15:00 PM 14.31 57.758 0.025 6.69 2.38 9.77
9/28/2021 7:30:00 PM 14.24 57.632 0.025 6.66 2.43 9.72
9/28/2021 7:45:00 PM 14.18 57.524 0.025 6.65 2.41 9.72
9/28/2021 8:00:00 PM 14.12 57.416 0.025 6.65 2.46 9.71
9/28/2021 8:15:00 PM 14.06 57.308 0.025 6.65 2.47 9.72
9/28/2021 8:30:00 PM 14.01 57.218 0.025 6.66 2.4 9.74
9/28/2021 8:45:00 PM 13.95 57.11 0.025 6.64 2.41 9.73
9/28/2021 9:00:00 PM 13.9 57.02 0.025 6.65 2.37 9.76
9/28/2021 9:15:00 PM 13.86 56.948 0.025 6.66 2.41 9.77
9/28/2021 9:30:00 PM 13.81 56.858 0.025 6.65 2.4 9.76
9/28/2021 9:45:00 PM 13.78 56.804 0.025 6.64 2.4 9.77
9/28/2021 10:00:00 PM 13.74 56.732 0.025 6.66 2.4 9.8
9/28/2021 10:15:00 PM 13.69 56.642 0.025 6.64 2.43 9.8
9/28/2021 10:30:00 PM 13.64 56.552 0.025 6.66 2.49 9.81
9/28/2021 10:45:00 PM 13.59 56.462 0.025 6.66 2.26 9.83
9/28/2021 11:00:00 PM 13.54 56.372 0.025 6.65 2.36 9.85
9/28/2021 11:15:00 PM 13.48 56.264 0.025 6.64 2.47 9.84
9/28/2021 11:30:00 PM 13.43 56.174 0.025 6.65 2.37 9.87
9/28/2021 11:45:00 PM 13.38 56.084 0.025 6.64 2.38 9.88
9/29/2021 12:00:00 AM 13.33 55.994 0.025 6.65 2.46 9.89
9/29/2021 12:15:00 AM 13.29 55.922 0.025 6.64 2.36 9.89
9/29/2021 12:30:00 AM 13.26 55.868 0.025 6.67 2.43 9.91
9/29/2021 12:45:00 AM 13.23 55.814 0.025 6.65 2.39 9.91
9/29/2021 1:00:00 AM 13.19 55.742 0.025 6.63 2.42 9.91
9/29/2021 1:15:00 AM 13.16 55.688 0.025 6.62 2.41 9.91
9/29/2021 1:30:00 AM 13.11 55.598 0.025 6.65 2.41 9.93
9/29/2021 1:45:00 AM 13.06 55.508 0.026 6.63 2.46 9.93
9/29/2021 2:00:00 AM 13.01 55.418 0.025 6.64 2.57 9.95
9/29/2021 2:15:00 AM 12.96 55.328 0.025 6.63 2.45 9.96
9/29/2021 2:30:00 AM 12.9 55.22 0.025 6.63 2.57 9.96
9/29/2021 2:45:00 AM 12.85 55.13 0.025 6.63 2.51 9.98
9/29/2021 3:00:00 AM 12.79 55.022 0.025 6.62 2.5 9.98
9/29/2021 3:15:00 AM 12.73 54.914 0.025 6.65 2.4 10.02
9/29/2021 3:30:00 AM 12.67 54.806 0.025 6.65 2.47 10.01
9/29/2021 3:45:00 AM 12.61 54.698 0.025 6.64 2.51 10.03
9/29/2021 4:00:00 AM 12.54 54.572 0.025 6.64 2.52 10.05
9/29/2021 4:15:00 AM 12.47 54.446 0.025 6.63 2.48 10.05
9/29/2021 4:30:00 AM 12.41 54.338 0.025 6.64 2.51 10.07
9/29/2021 4:45:00 AM 12.35 54.23 0.025 6.64 2.48 10.09
9/29/2021 5:00:00 AM 12.29 54.122 0.025 6.64 2.48 10.09
9/29/2021 5:15:00 AM 12.23 54.014 0.025 6.64 2.43 10.11
9/29/2021 5:30:00 AM 12.17 53.906 0.025 6.64 2.47 10.13
9/29/2021 5:45:00 AM 12.12 53.816 0.026 6.63 2.45 10.13
9/29/2021 6:00:00 AM 12.07 53.726 0.025 6.64 2.47 10.16
9/29/2021 6:15:00 AM 12.03 53.654 0.025 6.62 2.5 10.16
9/29/2021 6:30:00 AM 11.98 53.564 0.025 6.64 2.47 10.19
9/29/2021 6:45:00 AM 11.93 53.474 0.026 6.61 2.45 10.19
9/29/2021 7:00:00 AM 11.86 53.348 0.026 6.62 2.42 10.21
9/29/2021 7:15:00 AM 11.81 53.258 0.026 6.62 2.49 10.22
9/29/2021 7:30:00 AM 11.75 53.15 0.025 6.65 2.4 10.27
9/29/2021 7:45:00 AM 11.71 53.078 0.026 6.62 2.43 10.28
9/29/2021 8:00:00 AM 11.66 52.988 0.026 6.62 2.46 10.31
9/29/2021 8:15:00 AM 11.62 52.916 0.026 6.64 2.47 10.35
9/29/2021 8:30:00 AM 11.6 52.88 0.026 6.63 2.41 10.38
9/29/2021 8:45:00 AM 11.59 52.862 0.026 6.64 2.46 10.42
9/29/2021 9:00:00 AM 11.6 52.88 0.026 6.65 2.39 10.46
9/29/2021 9:15:00 AM 11.65 52.97 0.025 6.69 2.37 10.54
9/29/2021 9:30:00 AM 11.7 53.06 0.025 6.71 2.43 10.59
9/29/2021 9:45:00 AM 11.75 53.15 0.025 6.71 2.38 10.6
9/29/2021 10:00:00 AM 11.81 53.258 0.025 6.69 2.32 10.62
9/29/2021 10:15:00 AM 11.89 53.402 0.025 6.72 2.41 10.64
9/29/2021 10:30:00 AM 12 53.6 0.025 6.71 2.42 10.63
9/29/2021 10:45:00 AM 12.14 53.852 0.025 6.71 2.44 10.61
9/29/2021 11:00:00 AM 12.27 54.086 0.025 6.69 2.48 10.6
9/29/2021 11:15:00 AM 12.37 54.266 0.025 6.71 2.47 10.61
9/29/2021 11:30:00 AM 12.51 54.518 0.025 6.72 2.43 10.59
9/29/2021 11:45:00 AM 12.65 54.77 0.025 6.73 2.39 10.59
9/29/2021 12:00:00 PM 12.83 55.094 0.025 6.74 2.4 10.59
9/29/2021 12:15:00 PM 12.96 55.328 0.025 6.71 2.4 10.53
9/29/2021 12:30:00 PM 13.07 55.526 0.025 6.71 2.35 10.5
9/29/2021 12:45:00 PM 13.16 55.688 0.025 6.74 2.36 10.5
9/29/2021 1:00:00 PM 13.27 55.886 0.025 6.75 2.39 10.49
9/29/2021 1:15:00 PM 13.43 56.174 0.025 6.73 2.35 10.46
9/29/2021 1:30:00 PM 13.56 56.408 0.025 6.75 2.32 10.44
9/29/2021 1:45:00 PM 13.71 56.678 0.025 6.76 2.33 10.41
9/29/2021 2:00:00 PM 13.84 56.912 0.025 6.79 2.36 10.42
9/29/2021 2:15:00 PM 13.93 57.074 0.025 6.8 2.36 10.39
9/29/2021 2:30:00 PM 14 57.2 0.025 6.74 2.36 10.34
9/29/2021 2:45:00 PM 14.02 57.236 0.025 6.77 2.49 10.32
9/29/2021 3:00:00 PM 14.07 57.326 0.025 6.8 2.43 10.33
9/29/2021 3:15:00 PM 14.1 57.38 0.025 6.77 2.38 10.29
9/29/2021 3:30:00 PM 14.11 57.398 0.025 6.75 2.32 10.27
9/29/2021 3:45:00 PM 14.08 57.344 0.025 6.77 2.36 10.28
9/29/2021 4:00:00 PM 14.01 57.218 0.025 6.78 2.34 10.25
9/29/2021 4:15:00 PM 13.95 57.11 0.025 6.78 2.34 10.24
9/29/2021 4:30:00 PM 13.9 57.02 0.025 6.74 2.33 10.2
9/29/2021 4:45:00 PM 13.86 56.948 0.025 6.77 2.34 10.2
9/29/2021 5:00:00 PM 13.82 56.876 0.025 6.76 2.33 10.19
9/29/2021 5:15:00 PM 13.77 56.786 0.025 6.75 2.34 10.17
9/29/2021 5:30:00 PM 13.73 56.714 0.025 6.71 2.29 10.13
9/29/2021 5:45:00 PM 13.68 56.624 0.025 6.72 2.34 10.12
9/29/2021 6:00:00 PM 13.63 56.534 0.025 6.7 2.33 10.11
9/29/2021 6:15:00 PM 13.59 56.462 0.026 6.72 2.35 10.08
9/29/2021 6:30:00 PM 13.55 56.39 0.025 6.72 2.4 10.07
9/29/2021 6:45:00 PM 13.51 56.318 0.026 6.7 2.3 10.03
9/29/2021 7:00:00 PM 13.48 56.264 0.026 6.71 2.41 10.01
9/29/2021 7:15:00 PM 13.43 56.174 0.026 6.69 2.44 9.97
9/29/2021 7:30:00 PM 13.39 56.102 0.025 6.7 2.39 9.98
9/29/2021 7:45:00 PM 13.35 56.03 0.026 6.7 2.34 9.96
9/29/2021 8:00:00 PM 13.31 55.958 0.026 6.68 2.4 9.94
9/29/2021 8:15:00 PM 13.27 55.886 0.026 6.69 2.39 9.95
9/29/2021 8:30:00 PM 13.24 55.832 0.026 6.68 2.49 9.95
9/29/2021 8:45:00 PM 13.21 55.778 0.026 6.7 2.37 9.96
9/29/2021 9:00:00 PM 13.18 55.724 0.026 6.7 2.36 9.97
9/29/2021 9:15:00 PM 13.15 55.67 0.026 6.69 2.37 9.96
9/29/2021 9:30:00 PM 13.13 55.634 0.026 6.69 2.42 9.98
9/29/2021 9:45:00 PM 13.1 55.58 0.026 6.67 2.35 9.97
9/29/2021 10:00:00 PM 13.08 55.544 0.026 6.66 2.38 9.96
9/29/2021 10:15:00 PM 13.06 55.508 0.026 6.68 2.4 9.99
9/29/2021 10:30:00 PM 13.04 55.472 0.026 6.68 2.34 9.98
9/29/2021 10:45:00 PM 13.02 55.436 0.026 6.66 2.41 9.97
9/29/2021 11:00:00 PM 13 55.4 0.026 6.67 2.35 9.99
9/29/2021 11:15:00 PM 12.99 55.382 0.026 6.66 2.4 9.99
9/29/2021 11:30:00 PM 12.97 55.346 0.026 6.65 2.39 9.99
9/29/2021 11:45:00 PM 12.95 55.31 0.026 6.68 2.4 10.01
9/30/2021 12:00:00 AM 12.94 55.292 0.026 6.65 2.41 9.99
9/30/2021 12:15:00 AM 12.93 55.274 0.026 6.67 2.43 10.01
9/30/2021 12:30:00 AM 12.92 55.256 0.026 6.64 2.36 9.99
9/30/2021 12:45:00 AM 12.91 55.238 0.026 6.66 2.34 10
9/30/2021 1:00:00 AM 12.9 55.22 0.026 6.64 2.37 10
9/30/2021 1:15:00 AM 12.88 55.184 0.026 6.64 2.38 10
9/30/2021 1:30:00 AM 12.85 55.13 0.026 6.65 2.4 10.01
9/30/2021 1:45:00 AM 12.81 55.058 0.026 6.65 2.39 10.01
9/30/2021 2:00:00 AM 12.78 55.004 0.026 6.66 2.32 10.02
9/30/2021 2:15:00 AM 12.76 54.968 0.026 6.64 2.4 10.02
9/30/2021 2:30:00 AM 12.72 54.896 0.026 6.65 2.41 10.04
9/30/2021 2:45:00 AM 12.69 54.842 0.026 6.67 2.36 10.05
9/30/2021 3:00:00 AM 12.65 54.77 0.026 6.65 2.36 10.04
9/30/2021 3:15:00 AM 12.62 54.716 0.026 6.65 2.44 10.06
9/30/2021 3:30:00 AM 12.58 54.644 0.026 6.68 2.34 10.08
9/30/2021 3:45:00 AM 12.53 54.554 0.026 6.64 2.38 10.06
9/30/2021 4:00:00 AM 12.48 54.464 0.026 6.63 2.41 10.06
9/30/2021 4:15:00 AM 12.44 54.392 0.026 6.65 2.3 10.09
9/30/2021 4:30:00 AM 12.4 54.32 0.026 6.67 2.31 10.11
9/30/2021 4:45:00 AM 12.37 54.266 0.026 6.65 2.33 10.1
9/30/2021 5:00:00 AM 12.33 54.194 0.027 6.65 2.35 10.1
9/30/2021 5:15:00 AM 12.29 54.122 0.026 6.65 2.44 10.12
9/30/2021 5:30:00 AM 12.25 54.05 0.026 6.68 2.3 10.15
9/30/2021 5:45:00 AM 12.21 53.978 0.026 6.67 2.33 10.16
9/30/2021 6:00:00 AM 12.17 53.906 0.026 6.67 2.37 10.16
9/30/2021 6:15:00 AM 12.13 53.834 0.026 6.64 2.32 10.15
9/30/2021 6:30:00 AM 12.09 53.762 0.027 6.65 2.34 10.17
9/30/2021 6:45:00 AM 12.06 53.708 0.026 6.63 2.56 10.18
9/30/2021 7:00:00 AM 12.02 53.636 0.026 6.64 2.55 10.2
9/30/2021 7:15:00 AM 12 53.6 0.027 6.64 2.44 10.2
9/30/2021 7:30:00 AM 11.97 53.546 0.026 6.67 2.39 10.22
9/30/2021 7:45:00 AM 11.95 53.51 0.027 6.67 2.32 10.25
9/30/2021 8:00:00 AM 11.93 53.474 0.027 6.64 2.32 10.25
9/30/2021 8:15:00 AM 11.92 53.456 0.027 6.67 2.33 10.31
9/30/2021 8:30:00 AM 11.92 53.456 0.026 6.7 2.28 10.4
9/30/2021 8:45:00 AM 11.95 53.51 0.027 6.67 2.31 10.42
9/30/2021 9:00:00 AM 11.99 53.582 0.026 6.71 2.37 10.51
9/30/2021 9:15:00 AM 12.04 53.672 0.027 6.69 2.33 10.54
9/30/2021 9:30:00 AM 12.09 53.762 0.026 6.72 2.28 10.6
9/30/2021 9:45:00 AM 12.15 53.87 0.026 6.71 2.37 10.62
9/30/2021 10:00:00 AM 12.22 53.996 0.026 6.76 2.3 10.66
9/30/2021 10:15:00 AM 12.3 54.14 0.026 6.73 2.41 10.65
9/30/2021 10:30:00 AM 12.37 54.266